<?xml version="1.0" encoding="UTF-8" standalone="no" ?>
<gpx xmlns="http://www.topografix.com/GPX/1/1" xmlns:xsi="http://www.w3.org/2001/XMLSchema-instance" xsi:schemaLocation="http://www.topografix.com/GPX/1/1 http://www.topografix.com/GPX/1/1/gpx.xsd" version="1.1" creator="VisuGPX - https://www.visugpx.com">
  <metadata>
    <name>Trémolin ( Perigneux) - St Bonnet le Chateau 23km</name>
    <desc><![CDATA[30/04/2022]]></desc>
  </metadata>
  <trk>
    <name><![CDATA[2022-04-30 15:41:27]]></name>
    <extensions>
      <line xmlns="http://www.topografix.com/GPX/gpx_style/0/2">
        <color>0000FF</color>
        <width>4</width>
      </line>
    </extensions>
    <trkseg>
      <trkpt lat="45.44372" lon="4.11364">
        <ele>662.01</ele>
        <time>2022-04-30T08:12:31Z</time>
      </trkpt>
      <trkpt lat="45.44349" lon="4.1139">
        <ele>658.16</ele>
        <time>2022-04-30T08:12:51Z</time>
      </trkpt>
      <trkpt lat="45.44331" lon="4.11408">
        <ele>654.8</ele>
        <time>2022-04-30T08:13:09Z</time>
      </trkpt>
      <trkpt lat="45.44317" lon="4.11411">
        <ele>653.35</ele>
        <time>2022-04-30T08:13:19Z</time>
      </trkpt>
      <trkpt lat="45.44296" lon="4.11419">
        <ele>650.95</ele>
        <time>2022-04-30T08:13:34Z</time>
      </trkpt>
      <trkpt lat="45.44296" lon="4.11465">
        <ele>651.43</ele>
        <time>2022-04-30T08:13:57Z</time>
      </trkpt>
      <trkpt lat="45.44294" lon="4.1151">
        <ele>649.99</ele>
        <time>2022-04-30T08:14:19Z</time>
      </trkpt>
      <trkpt lat="45.44285" lon="4.11558">
        <ele>649.03</ele>
        <time>2022-04-30T08:14:39Z</time>
      </trkpt>
      <trkpt lat="45.4427" lon="4.11604">
        <ele>652.39</ele>
        <time>2022-04-30T08:14:59Z</time>
      </trkpt>
      <trkpt lat="45.44262" lon="4.11625">
        <ele>654.31</ele>
        <time>2022-04-30T08:15:18Z</time>
      </trkpt>
      <trkpt lat="45.44253" lon="4.11648">
        <ele>655.76</ele>
        <time>2022-04-30T08:15:35Z</time>
      </trkpt>
      <trkpt lat="45.44245" lon="4.1169">
        <ele>655.28</ele>
        <time>2022-04-30T08:15:53Z</time>
      </trkpt>
      <trkpt lat="45.44238" lon="4.11729">
        <ele>652.87</ele>
        <time>2022-04-30T08:16:10Z</time>
      </trkpt>
      <trkpt lat="45.44239" lon="4.11778">
        <ele>650.47</ele>
        <time>2022-04-30T08:16:31Z</time>
      </trkpt>
      <trkpt lat="45.44239" lon="4.11815">
        <ele>649.51</ele>
        <time>2022-04-30T08:16:48Z</time>
      </trkpt>
      <trkpt lat="45.44239" lon="4.11831">
        <ele>648.55</ele>
        <time>2022-04-30T08:16:57Z</time>
      </trkpt>
      <trkpt lat="45.44237" lon="4.11832">
        <ele>648.55</ele>
        <time>2022-04-30T08:16:58Z</time>
      </trkpt>
      <trkpt lat="45.44236" lon="4.11833">
        <ele>648.55</ele>
        <time>2022-04-30T08:16:59Z</time>
      </trkpt>
      <trkpt lat="45.44206" lon="4.11846">
        <ele>648.07</ele>
        <time>2022-04-30T08:17:21Z</time>
      </trkpt>
      <trkpt lat="45.44182" lon="4.11859">
        <ele>648.07</ele>
        <time>2022-04-30T08:17:41Z</time>
      </trkpt>
      <trkpt lat="45.44158" lon="4.11855">
        <ele>648.55</ele>
        <time>2022-04-30T08:18:00Z</time>
      </trkpt>
      <trkpt lat="45.44138" lon="4.11837">
        <ele>649.03</ele>
        <time>2022-04-30T08:18:18Z</time>
      </trkpt>
      <trkpt lat="45.44137" lon="4.11838">
        <ele>649.03</ele>
        <time>2022-04-30T08:18:19Z</time>
      </trkpt>
      <trkpt lat="45.44136" lon="4.11839">
        <ele>649.03</ele>
        <time>2022-04-30T08:18:20Z</time>
      </trkpt>
      <trkpt lat="45.44135" lon="4.1184">
        <ele>649.03</ele>
        <time>2022-04-30T08:18:21Z</time>
      </trkpt>
      <trkpt lat="45.44135" lon="4.11842">
        <ele>649.03</ele>
        <time>2022-04-30T08:18:22Z</time>
      </trkpt>
      <trkpt lat="45.44134" lon="4.11843">
        <ele>649.03</ele>
        <time>2022-04-30T08:18:23Z</time>
      </trkpt>
      <trkpt lat="45.44134" lon="4.11845">
        <ele>649.03</ele>
        <time>2022-04-30T08:18:24Z</time>
      </trkpt>
      <trkpt lat="45.44129" lon="4.1189">
        <ele>645.18</ele>
        <time>2022-04-30T08:18:44Z</time>
      </trkpt>
      <trkpt lat="45.44108" lon="4.11918">
        <ele>643.26</ele>
        <time>2022-04-30T08:19:04Z</time>
      </trkpt>
      <trkpt lat="45.44096" lon="4.11955">
        <ele>639.89</ele>
        <time>2022-04-30T08:19:23Z</time>
      </trkpt>
      <trkpt lat="45.44085" lon="4.11983">
        <ele>637.49</ele>
        <time>2022-04-30T08:19:40Z</time>
      </trkpt>
      <trkpt lat="45.44058" lon="4.12019">
        <ele>637.01</ele>
        <time>2022-04-30T08:20:04Z</time>
      </trkpt>
      <trkpt lat="45.44031" lon="4.12057">
        <ele>635.57</ele>
        <time>2022-04-30T08:20:29Z</time>
      </trkpt>
      <trkpt lat="45.44008" lon="4.12085">
        <ele>633.65</ele>
        <time>2022-04-30T08:20:50Z</time>
      </trkpt>
      <trkpt lat="45.43978" lon="4.12085">
        <ele>633.17</ele>
        <time>2022-04-30T08:21:09Z</time>
      </trkpt>
      <trkpt lat="45.4395" lon="4.12101">
        <ele>633.17</ele>
        <time>2022-04-30T08:21:29Z</time>
      </trkpt>
      <trkpt lat="45.43927" lon="4.12128">
        <ele>630.28</ele>
        <time>2022-04-30T08:21:50Z</time>
      </trkpt>
      <trkpt lat="45.43907" lon="4.12146">
        <ele>628.84</ele>
        <time>2022-04-30T08:22:07Z</time>
      </trkpt>
      <trkpt lat="45.43896" lon="4.12154">
        <ele>627.4</ele>
        <time>2022-04-30T08:22:24Z</time>
      </trkpt>
      <trkpt lat="45.43885" lon="4.12162">
        <ele>625.96</ele>
        <time>2022-04-30T08:22:40Z</time>
      </trkpt>
      <trkpt lat="45.43857" lon="4.12184">
        <ele>624.51</ele>
        <time>2022-04-30T08:23:00Z</time>
      </trkpt>
      <trkpt lat="45.43829" lon="4.12205">
        <ele>624.03</ele>
        <time>2022-04-30T08:23:21Z</time>
      </trkpt>
      <trkpt lat="45.43796" lon="4.12208">
        <ele>622.59</ele>
        <time>2022-04-30T08:23:41Z</time>
      </trkpt>
      <trkpt lat="45.43757" lon="4.12216">
        <ele>621.15</ele>
        <time>2022-04-30T08:24:07Z</time>
      </trkpt>
      <trkpt lat="45.43722" lon="4.12222">
        <ele>622.59</ele>
        <time>2022-04-30T08:24:30Z</time>
      </trkpt>
      <trkpt lat="45.43691" lon="4.12229">
        <ele>625.47</ele>
        <time>2022-04-30T08:24:54Z</time>
      </trkpt>
      <trkpt lat="45.43694" lon="4.12227">
        <ele>624.99</ele>
        <time>2022-04-30T08:25:13Z</time>
      </trkpt>
      <trkpt lat="45.43694" lon="4.12228">
        <ele>625.47</ele>
        <time>2022-04-30T08:25:38Z</time>
      </trkpt>
      <trkpt lat="45.43687" lon="4.1223">
        <ele>625.96</ele>
        <time>2022-04-30T08:25:53Z</time>
      </trkpt>
      <trkpt lat="45.43683" lon="4.12233">
        <ele>626.92</ele>
        <time>2022-04-30T08:26:14Z</time>
      </trkpt>
      <trkpt lat="45.43651" lon="4.12254">
        <ele>628.36</ele>
        <time>2022-04-30T08:26:39Z</time>
      </trkpt>
      <trkpt lat="45.43636" lon="4.12266">
        <ele>628.84</ele>
        <time>2022-04-30T08:26:58Z</time>
      </trkpt>
      <trkpt lat="45.43603" lon="4.12292">
        <ele>628.84</ele>
        <time>2022-04-30T08:27:22Z</time>
      </trkpt>
      <trkpt lat="45.43577" lon="4.12314">
        <ele>627.88</ele>
        <time>2022-04-30T08:27:43Z</time>
      </trkpt>
      <trkpt lat="45.43552" lon="4.12338">
        <ele>626.92</ele>
        <time>2022-04-30T08:28:04Z</time>
      </trkpt>
      <trkpt lat="45.43535" lon="4.12369">
        <ele>625.96</ele>
        <time>2022-04-30T08:28:24Z</time>
      </trkpt>
      <trkpt lat="45.43531" lon="4.12418">
        <ele>622.11</ele>
        <time>2022-04-30T08:28:46Z</time>
      </trkpt>
      <trkpt lat="45.43527" lon="4.12467">
        <ele>623.55</ele>
        <time>2022-04-30T08:29:09Z</time>
      </trkpt>
      <trkpt lat="45.43511" lon="4.12494">
        <ele>624.99</ele>
        <time>2022-04-30T08:29:27Z</time>
      </trkpt>
      <trkpt lat="45.43492" lon="4.12508">
        <ele>624.99</ele>
        <time>2022-04-30T08:29:43Z</time>
      </trkpt>
      <trkpt lat="45.43463" lon="4.12532">
        <ele>621.15</ele>
        <time>2022-04-30T08:30:03Z</time>
      </trkpt>
      <trkpt lat="45.43447" lon="4.12558">
        <ele>617.3</ele>
        <time>2022-04-30T08:30:18Z</time>
      </trkpt>
      <trkpt lat="45.43447" lon="4.12595">
        <ele>611.54</ele>
        <time>2022-04-30T08:30:33Z</time>
      </trkpt>
      <trkpt lat="45.43449" lon="4.12632">
        <ele>605.29</ele>
        <time>2022-04-30T08:30:51Z</time>
      </trkpt>
      <trkpt lat="45.43456" lon="4.12665">
        <ele>601.44</ele>
        <time>2022-04-30T08:31:10Z</time>
      </trkpt>
      <trkpt lat="45.43455" lon="4.12666">
        <ele>601.44</ele>
        <time>2022-04-30T08:31:11Z</time>
      </trkpt>
      <trkpt lat="45.43427" lon="4.12661">
        <ele>598.08</ele>
        <time>2022-04-30T08:31:28Z</time>
      </trkpt>
      <trkpt lat="45.43407" lon="4.12669">
        <ele>598.08</ele>
        <time>2022-04-30T08:31:46Z</time>
      </trkpt>
      <trkpt lat="45.43407" lon="4.12672">
        <ele>597.6</ele>
        <time>2022-04-30T08:31:48Z</time>
      </trkpt>
      <trkpt lat="45.43407" lon="4.12674">
        <ele>597.6</ele>
        <time>2022-04-30T08:31:49Z</time>
      </trkpt>
      <trkpt lat="45.43407" lon="4.12676">
        <ele>597.12</ele>
        <time>2022-04-30T08:31:50Z</time>
      </trkpt>
      <trkpt lat="45.43407" lon="4.12678">
        <ele>597.12</ele>
        <time>2022-04-30T08:31:51Z</time>
      </trkpt>
      <trkpt lat="45.43407" lon="4.1268">
        <ele>596.64</ele>
        <time>2022-04-30T08:31:52Z</time>
      </trkpt>
      <trkpt lat="45.43407" lon="4.12683">
        <ele>596.64</ele>
        <time>2022-04-30T08:31:53Z</time>
      </trkpt>
      <trkpt lat="45.43412" lon="4.1272">
        <ele>594.23</ele>
        <time>2022-04-30T08:32:10Z</time>
      </trkpt>
      <trkpt lat="45.4342" lon="4.12766">
        <ele>591.35</ele>
        <time>2022-04-30T08:32:32Z</time>
      </trkpt>
      <trkpt lat="45.43432" lon="4.12797">
        <ele>589.43</ele>
        <time>2022-04-30T08:32:50Z</time>
      </trkpt>
      <trkpt lat="45.43449" lon="4.12828">
        <ele>589.43</ele>
        <time>2022-04-30T08:33:09Z</time>
      </trkpt>
      <trkpt lat="45.43449" lon="4.1283">
        <ele>589.43</ele>
        <time>2022-04-30T08:33:10Z</time>
      </trkpt>
      <trkpt lat="45.4345" lon="4.12875">
        <ele>590.39</ele>
        <time>2022-04-30T08:33:31Z</time>
      </trkpt>
      <trkpt lat="45.43455" lon="4.12911">
        <ele>591.83</ele>
        <time>2022-04-30T08:33:47Z</time>
      </trkpt>
      <trkpt lat="45.4347" lon="4.12944">
        <ele>587.98</ele>
        <time>2022-04-30T08:34:05Z</time>
      </trkpt>
      <trkpt lat="45.43482" lon="4.12981">
        <ele>583.18</ele>
        <time>2022-04-30T08:34:23Z</time>
      </trkpt>
      <trkpt lat="45.43479" lon="4.13026">
        <ele>583.66</ele>
        <time>2022-04-30T08:34:43Z</time>
      </trkpt>
      <trkpt lat="45.43477" lon="4.13073">
        <ele>584.62</ele>
        <time>2022-04-30T08:35:04Z</time>
      </trkpt>
      <trkpt lat="45.43476" lon="4.13124">
        <ele>586.06</ele>
        <time>2022-04-30T08:35:28Z</time>
      </trkpt>
      <trkpt lat="45.43477" lon="4.13168">
        <ele>586.54</ele>
        <time>2022-04-30T08:35:50Z</time>
      </trkpt>
      <trkpt lat="45.43483" lon="4.13214">
        <ele>586.06</ele>
        <time>2022-04-30T08:36:12Z</time>
      </trkpt>
      <trkpt lat="45.43491" lon="4.13265">
        <ele>587.02</ele>
        <time>2022-04-30T08:36:34Z</time>
      </trkpt>
      <trkpt lat="45.43501" lon="4.13303">
        <ele>585.58</ele>
        <time>2022-04-30T08:36:53Z</time>
      </trkpt>
      <trkpt lat="45.43504" lon="4.13336">
        <ele>583.66</ele>
        <time>2022-04-30T08:37:10Z</time>
      </trkpt>
      <trkpt lat="45.43486" lon="4.13358">
        <ele>580.77</ele>
        <time>2022-04-30T08:37:25Z</time>
      </trkpt>
      <trkpt lat="45.43459" lon="4.13383">
        <ele>578.85</ele>
        <time>2022-04-30T08:37:44Z</time>
      </trkpt>
      <trkpt lat="45.43435" lon="4.13402">
        <ele>575.49</ele>
        <time>2022-04-30T08:38:02Z</time>
      </trkpt>
      <trkpt lat="45.43411" lon="4.1342">
        <ele>571.16</ele>
        <time>2022-04-30T08:38:19Z</time>
      </trkpt>
      <trkpt lat="45.43393" lon="4.13417">
        <ele>568.28</ele>
        <time>2022-04-30T08:38:37Z</time>
      </trkpt>
      <trkpt lat="45.4339" lon="4.13426">
        <ele>566.35</ele>
        <time>2022-04-30T08:38:58Z</time>
      </trkpt>
      <trkpt lat="45.43388" lon="4.13423">
        <ele>567.32</ele>
        <time>2022-04-30T08:39:15Z</time>
      </trkpt>
      <trkpt lat="45.43387" lon="4.13413">
        <ele>568.76</ele>
        <time>2022-04-30T08:39:31Z</time>
      </trkpt>
      <trkpt lat="45.43378" lon="4.13401">
        <ele>569.24</ele>
        <time>2022-04-30T08:39:48Z</time>
      </trkpt>
      <trkpt lat="45.43364" lon="4.13383">
        <ele>571.16</ele>
        <time>2022-04-30T08:40:06Z</time>
      </trkpt>
      <trkpt lat="45.43347" lon="4.13349">
        <ele>576.45</ele>
        <time>2022-04-30T08:40:26Z</time>
      </trkpt>
      <trkpt lat="45.43338" lon="4.13309">
        <ele>577.89</ele>
        <time>2022-04-30T08:40:45Z</time>
      </trkpt>
      <trkpt lat="45.4333" lon="4.13267">
        <ele>581.25</ele>
        <time>2022-04-30T08:41:05Z</time>
      </trkpt>
      <trkpt lat="45.43307" lon="4.13233">
        <ele>585.1</ele>
        <time>2022-04-30T08:41:25Z</time>
      </trkpt>
      <trkpt lat="45.43292" lon="4.13213">
        <ele>585.1</ele>
        <time>2022-04-30T08:41:42Z</time>
      </trkpt>
      <trkpt lat="45.43267" lon="4.13176">
        <ele>588.95</ele>
        <time>2022-04-30T08:42:05Z</time>
      </trkpt>
      <trkpt lat="45.43242" lon="4.13142">
        <ele>594.71</ele>
        <time>2022-04-30T08:42:29Z</time>
      </trkpt>
      <trkpt lat="45.43216" lon="4.13119">
        <ele>599.52</ele>
        <time>2022-04-30T08:42:52Z</time>
      </trkpt>
      <trkpt lat="45.43182" lon="4.13101">
        <ele>603.85</ele>
        <time>2022-04-30T08:43:15Z</time>
      </trkpt>
      <trkpt lat="45.43144" lon="4.131">
        <ele>608.17</ele>
        <time>2022-04-30T08:43:38Z</time>
      </trkpt>
      <trkpt lat="45.43115" lon="4.1308">
        <ele>610.57</ele>
        <time>2022-04-30T08:44:01Z</time>
      </trkpt>
      <trkpt lat="45.43103" lon="4.13062">
        <ele>612.02</ele>
        <time>2022-04-30T08:44:18Z</time>
      </trkpt>
      <trkpt lat="45.43096" lon="4.13039">
        <ele>612.02</ele>
        <time>2022-04-30T08:44:33Z</time>
      </trkpt>
      <trkpt lat="45.43078" lon="4.13021">
        <ele>611.06</ele>
        <time>2022-04-30T08:44:49Z</time>
      </trkpt>
      <trkpt lat="45.43054" lon="4.13024">
        <ele>610.09</ele>
        <time>2022-04-30T08:45:05Z</time>
      </trkpt>
      <trkpt lat="45.43026" lon="4.13014">
        <ele>611.06</ele>
        <time>2022-04-30T08:45:24Z</time>
      </trkpt>
      <trkpt lat="45.42999" lon="4.12996">
        <ele>606.73</ele>
        <time>2022-04-30T08:45:42Z</time>
      </trkpt>
      <trkpt lat="45.42973" lon="4.12982">
        <ele>608.17</ele>
        <time>2022-04-30T08:46:02Z</time>
      </trkpt>
      <trkpt lat="45.42972" lon="4.12983">
        <ele>608.17</ele>
        <time>2022-04-30T08:46:03Z</time>
      </trkpt>
      <trkpt lat="45.42971" lon="4.12984">
        <ele>608.17</ele>
        <time>2022-04-30T08:46:04Z</time>
      </trkpt>
      <trkpt lat="45.4297" lon="4.12986">
        <ele>608.17</ele>
        <time>2022-04-30T08:46:05Z</time>
      </trkpt>
      <trkpt lat="45.4297" lon="4.12987">
        <ele>608.65</ele>
        <time>2022-04-30T08:46:06Z</time>
      </trkpt>
      <trkpt lat="45.42953" lon="4.13013">
        <ele>610.57</ele>
        <time>2022-04-30T08:46:24Z</time>
      </trkpt>
      <trkpt lat="45.42933" lon="4.13032">
        <ele>612.98</ele>
        <time>2022-04-30T08:46:42Z</time>
      </trkpt>
      <trkpt lat="45.42914" lon="4.13056">
        <ele>614.42</ele>
        <time>2022-04-30T08:46:59Z</time>
      </trkpt>
      <trkpt lat="45.42912" lon="4.13055">
        <ele>614.42</ele>
        <time>2022-04-30T08:47:00Z</time>
      </trkpt>
      <trkpt lat="45.42889" lon="4.13034">
        <ele>618.75</ele>
        <time>2022-04-30T08:47:19Z</time>
      </trkpt>
      <trkpt lat="45.42867" lon="4.13013">
        <ele>622.59</ele>
        <time>2022-04-30T08:47:41Z</time>
      </trkpt>
      <trkpt lat="45.42858" lon="4.1301">
        <ele>623.07</ele>
        <time>2022-04-30T08:47:47Z</time>
      </trkpt>
      <trkpt lat="45.42856" lon="4.1301">
        <ele>623.07</ele>
        <time>2022-04-30T08:47:48Z</time>
      </trkpt>
      <trkpt lat="45.42838" lon="4.13005">
        <ele>626.44</ele>
        <time>2022-04-30T08:48:03Z</time>
      </trkpt>
      <trkpt lat="45.42807" lon="4.12998">
        <ele>630.28</ele>
        <time>2022-04-30T08:48:26Z</time>
      </trkpt>
      <trkpt lat="45.42779" lon="4.12993">
        <ele>633.17</ele>
        <time>2022-04-30T08:48:46Z</time>
      </trkpt>
      <trkpt lat="45.42756" lon="4.12976">
        <ele>635.57</ele>
        <time>2022-04-30T08:49:07Z</time>
      </trkpt>
      <trkpt lat="45.42733" lon="4.12955">
        <ele>637.01</ele>
        <time>2022-04-30T08:49:27Z</time>
      </trkpt>
      <trkpt lat="45.42709" lon="4.12942">
        <ele>640.86</ele>
        <time>2022-04-30T08:49:46Z</time>
      </trkpt>
      <trkpt lat="45.42684" lon="4.12933">
        <ele>642.3</ele>
        <time>2022-04-30T08:50:06Z</time>
      </trkpt>
      <trkpt lat="45.42661" lon="4.12948">
        <ele>643.74</ele>
        <time>2022-04-30T08:50:27Z</time>
      </trkpt>
      <trkpt lat="45.42637" lon="4.12964">
        <ele>643.74</ele>
        <time>2022-04-30T08:50:46Z</time>
      </trkpt>
      <trkpt lat="45.42612" lon="4.12978">
        <ele>645.66</ele>
        <time>2022-04-30T08:51:06Z</time>
      </trkpt>
      <trkpt lat="45.42589" lon="4.12995">
        <ele>647.1</ele>
        <time>2022-04-30T08:51:24Z</time>
      </trkpt>
      <trkpt lat="45.42565" lon="4.13012">
        <ele>648.55</ele>
        <time>2022-04-30T08:51:44Z</time>
      </trkpt>
      <trkpt lat="45.42558" lon="4.13017">
        <ele>649.03</ele>
        <time>2022-04-30T08:51:50Z</time>
      </trkpt>
      <trkpt lat="45.42534" lon="4.13035">
        <ele>649.51</ele>
        <time>2022-04-30T08:52:11Z</time>
      </trkpt>
      <trkpt lat="45.42512" lon="4.13052">
        <ele>649.51</ele>
        <time>2022-04-30T08:52:30Z</time>
      </trkpt>
      <trkpt lat="45.42502" lon="4.13089">
        <ele>650.95</ele>
        <time>2022-04-30T08:52:51Z</time>
      </trkpt>
      <trkpt lat="45.42499" lon="4.13124">
        <ele>655.28</ele>
        <time>2022-04-30T08:53:09Z</time>
      </trkpt>
      <trkpt lat="45.42493" lon="4.1316">
        <ele>658.64</ele>
        <time>2022-04-30T08:53:27Z</time>
      </trkpt>
      <trkpt lat="45.42492" lon="4.13164">
        <ele>658.64</ele>
        <time>2022-04-30T08:53:29Z</time>
      </trkpt>
      <trkpt lat="45.42476" lon="4.13191">
        <ele>658.16</ele>
        <time>2022-04-30T08:53:47Z</time>
      </trkpt>
      <trkpt lat="45.42456" lon="4.13219">
        <ele>654.31</ele>
        <time>2022-04-30T08:54:06Z</time>
      </trkpt>
      <trkpt lat="45.42436" lon="4.13238">
        <ele>651.91</ele>
        <time>2022-04-30T08:54:24Z</time>
      </trkpt>
      <trkpt lat="45.42417" lon="4.13253">
        <ele>648.55</ele>
        <time>2022-04-30T08:54:39Z</time>
      </trkpt>
      <trkpt lat="45.42395" lon="4.13273">
        <ele>651.43</ele>
        <time>2022-04-30T08:54:58Z</time>
      </trkpt>
      <trkpt lat="45.42371" lon="4.13294">
        <ele>657.68</ele>
        <time>2022-04-30T08:55:17Z</time>
      </trkpt>
      <trkpt lat="45.42348" lon="4.13319">
        <ele>663.45</ele>
        <time>2022-04-30T08:55:37Z</time>
      </trkpt>
      <trkpt lat="45.42324" lon="4.13348">
        <ele>667.77</ele>
        <time>2022-04-30T08:56:00Z</time>
      </trkpt>
      <trkpt lat="45.42301" lon="4.13374">
        <ele>671.14</ele>
        <time>2022-04-30T08:56:20Z</time>
      </trkpt>
      <trkpt lat="45.42287" lon="4.13402">
        <ele>674.5</ele>
        <time>2022-04-30T08:56:38Z</time>
      </trkpt>
      <trkpt lat="45.42275" lon="4.13424">
        <ele>676.42</ele>
        <time>2022-04-30T08:56:53Z</time>
      </trkpt>
      <trkpt lat="45.42251" lon="4.13442">
        <ele>678.35</ele>
        <time>2022-04-30T08:57:12Z</time>
      </trkpt>
      <trkpt lat="45.42227" lon="4.13459">
        <ele>681.23</ele>
        <time>2022-04-30T08:57:31Z</time>
      </trkpt>
      <trkpt lat="45.42199" lon="4.1348">
        <ele>683.63</ele>
        <time>2022-04-30T08:57:53Z</time>
      </trkpt>
      <trkpt lat="45.42169" lon="4.13499">
        <ele>682.67</ele>
        <time>2022-04-30T08:58:17Z</time>
      </trkpt>
      <trkpt lat="45.42153" lon="4.13508">
        <ele>682.67</ele>
        <time>2022-04-30T08:58:31Z</time>
      </trkpt>
      <trkpt lat="45.42122" lon="4.13524">
        <ele>683.15</ele>
        <time>2022-04-30T08:58:55Z</time>
      </trkpt>
      <trkpt lat="45.42102" lon="4.13536">
        <ele>683.63</ele>
        <time>2022-04-30T08:59:12Z</time>
      </trkpt>
      <trkpt lat="45.42072" lon="4.13555">
        <ele>685.08</ele>
        <time>2022-04-30T08:59:35Z</time>
      </trkpt>
      <trkpt lat="45.42044" lon="4.13573">
        <ele>686.04</ele>
        <time>2022-04-30T08:59:56Z</time>
      </trkpt>
      <trkpt lat="45.42011" lon="4.13591">
        <ele>688.44</ele>
        <time>2022-04-30T09:00:19Z</time>
      </trkpt>
      <trkpt lat="45.41984" lon="4.13605">
        <ele>689.88</ele>
        <time>2022-04-30T09:00:37Z</time>
      </trkpt>
      <trkpt lat="45.41951" lon="4.13613">
        <ele>691.81</ele>
        <time>2022-04-30T09:00:57Z</time>
      </trkpt>
      <trkpt lat="45.41918" lon="4.13622">
        <ele>694.69</ele>
        <time>2022-04-30T09:01:21Z</time>
      </trkpt>
      <trkpt lat="45.41883" lon="4.1363">
        <ele>694.69</ele>
        <time>2022-04-30T09:01:45Z</time>
      </trkpt>
      <trkpt lat="45.41858" lon="4.13645">
        <ele>694.69</ele>
        <time>2022-04-30T09:02:03Z</time>
      </trkpt>
      <trkpt lat="45.41835" lon="4.13665">
        <ele>695.65</ele>
        <time>2022-04-30T09:02:23Z</time>
      </trkpt>
      <trkpt lat="45.41812" lon="4.13686">
        <ele>696.61</ele>
        <time>2022-04-30T09:02:42Z</time>
      </trkpt>
      <trkpt lat="45.41787" lon="4.1371">
        <ele>696.61</ele>
        <time>2022-04-30T09:03:03Z</time>
      </trkpt>
      <trkpt lat="45.41773" lon="4.13734">
        <ele>695.17</ele>
        <time>2022-04-30T09:03:20Z</time>
      </trkpt>
      <trkpt lat="45.41745" lon="4.13749">
        <ele>694.21</ele>
        <time>2022-04-30T09:03:40Z</time>
      </trkpt>
      <trkpt lat="45.41719" lon="4.13743">
        <ele>695.17</ele>
        <time>2022-04-30T09:04:00Z</time>
      </trkpt>
      <trkpt lat="45.41686" lon="4.13735">
        <ele>699.98</ele>
        <time>2022-04-30T09:04:24Z</time>
      </trkpt>
      <trkpt lat="45.41653" lon="4.13726">
        <ele>703.34</ele>
        <time>2022-04-30T09:04:47Z</time>
      </trkpt>
      <trkpt lat="45.41621" lon="4.13717">
        <ele>705.26</ele>
        <time>2022-04-30T09:05:10Z</time>
      </trkpt>
      <trkpt lat="45.41595" lon="4.13708">
        <ele>706.23</ele>
        <time>2022-04-30T09:05:28Z</time>
      </trkpt>
      <trkpt lat="45.41567" lon="4.13703">
        <ele>708.15</ele>
        <time>2022-04-30T09:05:48Z</time>
      </trkpt>
      <trkpt lat="45.41542" lon="4.13691">
        <ele>709.11</ele>
        <time>2022-04-30T09:06:08Z</time>
      </trkpt>
      <trkpt lat="45.41519" lon="4.13677">
        <ele>709.59</ele>
        <time>2022-04-30T09:06:27Z</time>
      </trkpt>
      <trkpt lat="45.41496" lon="4.13662">
        <ele>711.03</ele>
        <time>2022-04-30T09:06:46Z</time>
      </trkpt>
      <trkpt lat="45.41475" lon="4.1363">
        <ele>712.47</ele>
        <time>2022-04-30T09:07:07Z</time>
      </trkpt>
      <trkpt lat="45.41469" lon="4.13586">
        <ele>714.88</ele>
        <time>2022-04-30T09:07:29Z</time>
      </trkpt>
      <trkpt lat="45.41468" lon="4.13545">
        <ele>713.44</ele>
        <time>2022-04-30T09:07:50Z</time>
      </trkpt>
      <trkpt lat="45.41474" lon="4.13523">
        <ele>711.99</ele>
        <time>2022-04-30T09:08:04Z</time>
      </trkpt>
      <trkpt lat="45.41482" lon="4.1349">
        <ele>710.07</ele>
        <time>2022-04-30T09:08:22Z</time>
      </trkpt>
      <trkpt lat="45.41478" lon="4.13453">
        <ele>708.15</ele>
        <time>2022-04-30T09:08:42Z</time>
      </trkpt>
      <trkpt lat="45.41477" lon="4.13452">
        <ele>707.67</ele>
        <time>2022-04-30T09:08:43Z</time>
      </trkpt>
      <trkpt lat="45.41474" lon="4.1342">
        <ele>707.67</ele>
        <time>2022-04-30T09:09:00Z</time>
      </trkpt>
      <trkpt lat="45.41477" lon="4.13387">
        <ele>707.19</ele>
        <time>2022-04-30T09:09:18Z</time>
      </trkpt>
      <trkpt lat="45.41488" lon="4.13346">
        <ele>708.15</ele>
        <time>2022-04-30T09:09:38Z</time>
      </trkpt>
      <trkpt lat="45.41496" lon="4.13317">
        <ele>707.19</ele>
        <time>2022-04-30T09:09:55Z</time>
      </trkpt>
      <trkpt lat="45.41503" lon="4.13293">
        <ele>706.23</ele>
        <time>2022-04-30T09:10:09Z</time>
      </trkpt>
      <trkpt lat="45.41503" lon="4.13291">
        <ele>706.23</ele>
        <time>2022-04-30T09:10:10Z</time>
      </trkpt>
      <trkpt lat="45.41503" lon="4.1329">
        <ele>706.23</ele>
        <time>2022-04-30T09:10:11Z</time>
      </trkpt>
      <trkpt lat="45.41503" lon="4.13284">
        <ele>706.23</ele>
        <time>2022-04-30T09:10:14Z</time>
      </trkpt>
      <trkpt lat="45.41503" lon="4.13282">
        <ele>706.23</ele>
        <time>2022-04-30T09:10:15Z</time>
      </trkpt>
      <trkpt lat="45.41503" lon="4.13279">
        <ele>705.75</ele>
        <time>2022-04-30T09:10:16Z</time>
      </trkpt>
      <trkpt lat="45.41486" lon="4.13242">
        <ele>708.63</ele>
        <time>2022-04-30T09:10:39Z</time>
      </trkpt>
      <trkpt lat="45.41472" lon="4.13223">
        <ele>711.51</ele>
        <time>2022-04-30T09:10:54Z</time>
      </trkpt>
      <trkpt lat="45.41477" lon="4.13182">
        <ele>712.95</ele>
        <time>2022-04-30T09:11:15Z</time>
      </trkpt>
      <trkpt lat="45.41478" lon="4.13144">
        <ele>716.32</ele>
        <time>2022-04-30T09:11:34Z</time>
      </trkpt>
      <trkpt lat="45.41481" lon="4.13138">
        <ele>716.8</ele>
        <time>2022-04-30T09:11:50Z</time>
      </trkpt>
      <trkpt lat="45.41496" lon="4.13135">
        <ele>717.28</ele>
        <time>2022-04-30T09:12:04Z</time>
      </trkpt>
      <trkpt lat="45.41503" lon="4.13138">
        <ele>716.8</ele>
        <time>2022-04-30T09:12:08Z</time>
      </trkpt>
      <trkpt lat="45.41504" lon="4.13139">
        <ele>716.8</ele>
        <time>2022-04-30T09:12:09Z</time>
      </trkpt>
      <trkpt lat="45.41505" lon="4.1314">
        <ele>716.8</ele>
        <time>2022-04-30T09:12:10Z</time>
      </trkpt>
      <trkpt lat="45.41532" lon="4.13151">
        <ele>714.88</ele>
        <time>2022-04-30T09:12:29Z</time>
      </trkpt>
      <trkpt lat="45.4155" lon="4.13158">
        <ele>711.99</ele>
        <time>2022-04-30T09:12:46Z</time>
      </trkpt>
      <trkpt lat="45.41556" lon="4.13157">
        <ele>710.55</ele>
        <time>2022-04-30T09:12:54Z</time>
      </trkpt>
      <trkpt lat="45.41564" lon="4.13137">
        <ele>711.99</ele>
        <time>2022-04-30T09:13:06Z</time>
      </trkpt>
      <trkpt lat="45.41569" lon="4.13088">
        <ele>712.95</ele>
        <time>2022-04-30T09:13:29Z</time>
      </trkpt>
      <trkpt lat="45.41577" lon="4.13053">
        <ele>711.51</ele>
        <time>2022-04-30T09:13:48Z</time>
      </trkpt>
      <trkpt lat="45.41585" lon="4.13022">
        <ele>709.59</ele>
        <time>2022-04-30T09:14:06Z</time>
      </trkpt>
      <trkpt lat="45.41596" lon="4.12987">
        <ele>706.71</ele>
        <time>2022-04-30T09:14:26Z</time>
      </trkpt>
      <trkpt lat="45.41602" lon="4.12968">
        <ele>705.75</ele>
        <time>2022-04-30T09:14:37Z</time>
      </trkpt>
      <trkpt lat="45.41603" lon="4.12966">
        <ele>705.75</ele>
        <time>2022-04-30T09:14:38Z</time>
      </trkpt>
      <trkpt lat="45.41604" lon="4.12965">
        <ele>705.75</ele>
        <time>2022-04-30T09:14:39Z</time>
      </trkpt>
      <trkpt lat="45.41616" lon="4.12927">
        <ele>703.82</ele>
        <time>2022-04-30T09:15:00Z</time>
      </trkpt>
      <trkpt lat="45.41626" lon="4.12891">
        <ele>702.86</ele>
        <time>2022-04-30T09:15:19Z</time>
      </trkpt>
      <trkpt lat="45.41637" lon="4.12853">
        <ele>701.9</ele>
        <time>2022-04-30T09:15:38Z</time>
      </trkpt>
      <trkpt lat="45.41646" lon="4.12813">
        <ele>699.5</ele>
        <time>2022-04-30T09:15:58Z</time>
      </trkpt>
      <trkpt lat="45.41658" lon="4.12776">
        <ele>697.09</ele>
        <time>2022-04-30T09:16:17Z</time>
      </trkpt>
      <trkpt lat="45.4167" lon="4.1274">
        <ele>696.13</ele>
        <time>2022-04-30T09:16:37Z</time>
      </trkpt>
      <trkpt lat="45.41683" lon="4.12712">
        <ele>695.65</ele>
        <time>2022-04-30T09:16:53Z</time>
      </trkpt>
      <trkpt lat="45.41697" lon="4.12686">
        <ele>695.17</ele>
        <time>2022-04-30T09:17:10Z</time>
      </trkpt>
      <trkpt lat="45.41719" lon="4.12648">
        <ele>695.65</ele>
        <time>2022-04-30T09:17:32Z</time>
      </trkpt>
      <trkpt lat="45.41734" lon="4.12614">
        <ele>696.13</ele>
        <time>2022-04-30T09:17:51Z</time>
      </trkpt>
      <trkpt lat="45.41746" lon="4.12579">
        <ele>694.69</ele>
        <time>2022-04-30T09:18:11Z</time>
      </trkpt>
      <trkpt lat="45.41753" lon="4.12543">
        <ele>693.25</ele>
        <time>2022-04-30T09:18:31Z</time>
      </trkpt>
      <trkpt lat="45.41759" lon="4.12516">
        <ele>690.84</ele>
        <time>2022-04-30T09:18:45Z</time>
      </trkpt>
      <trkpt lat="45.41775" lon="4.12491">
        <ele>687</ele>
        <time>2022-04-30T09:19:02Z</time>
      </trkpt>
      <trkpt lat="45.418" lon="4.12469">
        <ele>685.08</ele>
        <time>2022-04-30T09:19:21Z</time>
      </trkpt>
      <trkpt lat="45.41826" lon="4.12455">
        <ele>683.63</ele>
        <time>2022-04-30T09:19:39Z</time>
      </trkpt>
      <trkpt lat="45.41847" lon="4.12445">
        <ele>682.67</ele>
        <time>2022-04-30T09:19:55Z</time>
      </trkpt>
      <trkpt lat="45.41873" lon="4.12432">
        <ele>681.23</ele>
        <time>2022-04-30T09:20:14Z</time>
      </trkpt>
      <trkpt lat="45.41897" lon="4.12418">
        <ele>681.23</ele>
        <time>2022-04-30T09:20:31Z</time>
      </trkpt>
      <trkpt lat="45.41921" lon="4.12414">
        <ele>679.79</ele>
        <time>2022-04-30T09:20:49Z</time>
      </trkpt>
      <trkpt lat="45.41946" lon="4.12408">
        <ele>677.39</ele>
        <time>2022-04-30T09:21:06Z</time>
      </trkpt>
      <trkpt lat="45.41967" lon="4.12398">
        <ele>674.98</ele>
        <time>2022-04-30T09:21:24Z</time>
      </trkpt>
      <trkpt lat="45.41989" lon="4.12389">
        <ele>672.1</ele>
        <time>2022-04-30T09:21:40Z</time>
      </trkpt>
      <trkpt lat="45.42017" lon="4.12377">
        <ele>668.25</ele>
        <time>2022-04-30T09:22:01Z</time>
      </trkpt>
      <trkpt lat="45.42044" lon="4.12364">
        <ele>665.37</ele>
        <time>2022-04-30T09:22:19Z</time>
      </trkpt>
      <trkpt lat="45.42073" lon="4.1235">
        <ele>663.45</ele>
        <time>2022-04-30T09:22:37Z</time>
      </trkpt>
      <trkpt lat="45.42104" lon="4.12327">
        <ele>664.41</ele>
        <time>2022-04-30T09:22:58Z</time>
      </trkpt>
      <trkpt lat="45.42128" lon="4.12306">
        <ele>664.89</ele>
        <time>2022-04-30T09:23:14Z</time>
      </trkpt>
      <trkpt lat="45.42154" lon="4.12284">
        <ele>664.89</ele>
        <time>2022-04-30T09:23:31Z</time>
      </trkpt>
      <trkpt lat="45.42174" lon="4.12254">
        <ele>663.93</ele>
        <time>2022-04-30T09:23:47Z</time>
      </trkpt>
      <trkpt lat="45.42206" lon="4.12222">
        <ele>665.85</ele>
        <time>2022-04-30T09:24:03Z</time>
      </trkpt>
      <trkpt lat="45.42233" lon="4.12207">
        <ele>666.81</ele>
        <time>2022-04-30T09:24:18Z</time>
      </trkpt>
      <trkpt lat="45.42261" lon="4.12192">
        <ele>668.25</ele>
        <time>2022-04-30T09:24:34Z</time>
      </trkpt>
      <trkpt lat="45.42292" lon="4.12173">
        <ele>668.73</ele>
        <time>2022-04-30T09:24:55Z</time>
      </trkpt>
      <trkpt lat="45.42314" lon="4.12144">
        <ele>670.66</ele>
        <time>2022-04-30T09:25:12Z</time>
      </trkpt>
      <trkpt lat="45.42324" lon="4.12114">
        <ele>669.22</ele>
        <time>2022-04-30T09:25:29Z</time>
      </trkpt>
      <trkpt lat="45.42315" lon="4.12085">
        <ele>664.41</ele>
        <time>2022-04-30T09:25:47Z</time>
      </trkpt>
      <trkpt lat="45.42298" lon="4.12055">
        <ele>657.2</ele>
        <time>2022-04-30T09:26:05Z</time>
      </trkpt>
      <trkpt lat="45.42285" lon="4.12022">
        <ele>648.07</ele>
        <time>2022-04-30T09:26:24Z</time>
      </trkpt>
      <trkpt lat="45.42274" lon="4.11988">
        <ele>646.62</ele>
        <time>2022-04-30T09:26:41Z</time>
      </trkpt>
      <trkpt lat="45.42265" lon="4.1196">
        <ele>643.74</ele>
        <time>2022-04-30T09:26:58Z</time>
      </trkpt>
      <trkpt lat="45.42258" lon="4.11929">
        <ele>638.93</ele>
        <time>2022-04-30T09:27:16Z</time>
      </trkpt>
      <trkpt lat="45.4225" lon="4.11909">
        <ele>633.17</ele>
        <time>2022-04-30T09:27:29Z</time>
      </trkpt>
      <trkpt lat="45.42237" lon="4.11889">
        <ele>627.88</ele>
        <time>2022-04-30T09:27:47Z</time>
      </trkpt>
      <trkpt lat="45.42209" lon="4.11888">
        <ele>624.51</ele>
        <time>2022-04-30T09:28:09Z</time>
      </trkpt>
      <trkpt lat="45.42191" lon="4.11878">
        <ele>626.44</ele>
        <time>2022-04-30T09:28:23Z</time>
      </trkpt>
      <trkpt lat="45.42191" lon="4.11845">
        <ele>623.55</ele>
        <time>2022-04-30T09:28:41Z</time>
      </trkpt>
      <trkpt lat="45.42202" lon="4.11815">
        <ele>620.67</ele>
        <time>2022-04-30T09:28:56Z</time>
      </trkpt>
      <trkpt lat="45.42217" lon="4.11786">
        <ele>618.26</ele>
        <time>2022-04-30T09:29:12Z</time>
      </trkpt>
      <trkpt lat="45.42236" lon="4.11762">
        <ele>617.78</ele>
        <time>2022-04-30T09:29:28Z</time>
      </trkpt>
      <trkpt lat="45.42255" lon="4.11738">
        <ele>615.86</ele>
        <time>2022-04-30T09:29:45Z</time>
      </trkpt>
      <trkpt lat="45.42272" lon="4.11713">
        <ele>611.06</ele>
        <time>2022-04-30T09:30:02Z</time>
      </trkpt>
      <trkpt lat="45.42284" lon="4.11688">
        <ele>607.69</ele>
        <time>2022-04-30T09:30:17Z</time>
      </trkpt>
      <trkpt lat="45.42296" lon="4.11677">
        <ele>606.25</ele>
        <time>2022-04-30T09:30:28Z</time>
      </trkpt>
      <trkpt lat="45.4232" lon="4.1166">
        <ele>604.81</ele>
        <time>2022-04-30T09:30:44Z</time>
      </trkpt>
      <trkpt lat="45.42344" lon="4.11639">
        <ele>602.88</ele>
        <time>2022-04-30T09:31:01Z</time>
      </trkpt>
      <trkpt lat="45.42367" lon="4.11613">
        <ele>602.4</ele>
        <time>2022-04-30T09:31:17Z</time>
      </trkpt>
      <trkpt lat="45.42389" lon="4.11602">
        <ele>600.96</ele>
        <time>2022-04-30T09:31:31Z</time>
      </trkpt>
      <trkpt lat="45.4242" lon="4.11594">
        <ele>599.52</ele>
        <time>2022-04-30T09:31:49Z</time>
      </trkpt>
      <trkpt lat="45.42439" lon="4.1161">
        <ele>598.56</ele>
        <time>2022-04-30T09:32:04Z</time>
      </trkpt>
      <trkpt lat="45.42461" lon="4.11636">
        <ele>597.12</ele>
        <time>2022-04-30T09:32:22Z</time>
      </trkpt>
      <trkpt lat="45.42473" lon="4.11644">
        <ele>598.08</ele>
        <time>2022-04-30T09:32:44Z</time>
      </trkpt>
      <trkpt lat="45.42497" lon="4.11654">
        <ele>598.56</ele>
        <time>2022-04-30T09:33:01Z</time>
      </trkpt>
      <trkpt lat="45.42503" lon="4.11653">
        <ele>597.6</ele>
        <time>2022-04-30T09:33:06Z</time>
      </trkpt>
      <trkpt lat="45.42513" lon="4.11647">
        <ele>595.19</ele>
        <time>2022-04-30T09:33:26Z</time>
      </trkpt>
      <trkpt lat="45.42514" lon="4.11644">
        <ele>594.23</ele>
        <time>2022-04-30T09:33:51Z</time>
      </trkpt>
      <trkpt lat="45.42522" lon="4.11636">
        <ele>593.27</ele>
        <time>2022-04-30T09:34:10Z</time>
      </trkpt>
      <trkpt lat="45.42537" lon="4.11623">
        <ele>595.19</ele>
        <time>2022-04-30T09:34:31Z</time>
      </trkpt>
      <trkpt lat="45.42549" lon="4.11614">
        <ele>596.64</ele>
        <time>2022-04-30T09:34:54Z</time>
      </trkpt>
      <trkpt lat="45.42566" lon="4.11594">
        <ele>597.12</ele>
        <time>2022-04-30T09:35:10Z</time>
      </trkpt>
      <trkpt lat="45.42592" lon="4.11567">
        <ele>599.04</ele>
        <time>2022-04-30T09:35:29Z</time>
      </trkpt>
      <trkpt lat="45.42619" lon="4.11541">
        <ele>600.48</ele>
        <time>2022-04-30T09:35:52Z</time>
      </trkpt>
      <trkpt lat="45.42645" lon="4.11513">
        <ele>603.36</ele>
        <time>2022-04-30T09:36:12Z</time>
      </trkpt>
      <trkpt lat="45.42669" lon="4.11491">
        <ele>606.73</ele>
        <time>2022-04-30T09:36:32Z</time>
      </trkpt>
      <trkpt lat="45.42702" lon="4.11465">
        <ele>612.5</ele>
        <time>2022-04-30T09:36:58Z</time>
      </trkpt>
      <trkpt lat="45.42728" lon="4.11439">
        <ele>617.78</ele>
        <time>2022-04-30T09:37:21Z</time>
      </trkpt>
      <trkpt lat="45.42756" lon="4.11419">
        <ele>622.59</ele>
        <time>2022-04-30T09:37:41Z</time>
      </trkpt>
      <trkpt lat="45.42775" lon="4.11416">
        <ele>626.44</ele>
        <time>2022-04-30T09:37:54Z</time>
      </trkpt>
      <trkpt lat="45.42779" lon="4.11412">
        <ele>627.4</ele>
        <time>2022-04-30T09:37:58Z</time>
      </trkpt>
      <trkpt lat="45.42787" lon="4.11398">
        <ele>628.84</ele>
        <time>2022-04-30T09:38:06Z</time>
      </trkpt>
      <trkpt lat="45.42784" lon="4.1136">
        <ele>628.36</ele>
        <time>2022-04-30T09:38:25Z</time>
      </trkpt>
      <trkpt lat="45.42785" lon="4.11329">
        <ele>626.92</ele>
        <time>2022-04-30T09:38:41Z</time>
      </trkpt>
      <trkpt lat="45.42791" lon="4.113">
        <ele>624.03</ele>
        <time>2022-04-30T09:38:59Z</time>
      </trkpt>
      <trkpt lat="45.42791" lon="4.11269">
        <ele>620.19</ele>
        <time>2022-04-30T09:39:16Z</time>
      </trkpt>
      <trkpt lat="45.42765" lon="4.11255">
        <ele>620.19</ele>
        <time>2022-04-30T09:39:33Z</time>
      </trkpt>
      <trkpt lat="45.42743" lon="4.11253">
        <ele>619.23</ele>
        <time>2022-04-30T09:39:50Z</time>
      </trkpt>
      <trkpt lat="45.42714" lon="4.11249">
        <ele>618.75</ele>
        <time>2022-04-30T09:40:09Z</time>
      </trkpt>
      <trkpt lat="45.42687" lon="4.11231">
        <ele>620.19</ele>
        <time>2022-04-30T09:40:29Z</time>
      </trkpt>
      <trkpt lat="45.42672" lon="4.11192">
        <ele>620.67</ele>
        <time>2022-04-30T09:40:49Z</time>
      </trkpt>
      <trkpt lat="45.42658" lon="4.11154">
        <ele>622.59</ele>
        <time>2022-04-30T09:41:07Z</time>
      </trkpt>
      <trkpt lat="45.42633" lon="4.11137">
        <ele>625.96</ele>
        <time>2022-04-30T09:41:24Z</time>
      </trkpt>
      <trkpt lat="45.42608" lon="4.11114">
        <ele>625.96</ele>
        <time>2022-04-30T09:41:45Z</time>
      </trkpt>
      <trkpt lat="45.42586" lon="4.11088">
        <ele>627.4</ele>
        <time>2022-04-30T09:42:04Z</time>
      </trkpt>
      <trkpt lat="45.42567" lon="4.11055">
        <ele>630.76</ele>
        <time>2022-04-30T09:42:23Z</time>
      </trkpt>
      <trkpt lat="45.42553" lon="4.11009">
        <ele>636.05</ele>
        <time>2022-04-30T09:42:41Z</time>
      </trkpt>
      <trkpt lat="45.42523" lon="4.10972">
        <ele>635.57</ele>
        <time>2022-04-30T09:43:04Z</time>
      </trkpt>
      <trkpt lat="45.42495" lon="4.10974">
        <ele>633.65</ele>
        <time>2022-04-30T09:43:19Z</time>
      </trkpt>
      <trkpt lat="45.42474" lon="4.10951">
        <ele>637.97</ele>
        <time>2022-04-30T09:43:39Z</time>
      </trkpt>
      <trkpt lat="45.42456" lon="4.10934">
        <ele>638.45</ele>
        <time>2022-04-30T09:43:59Z</time>
      </trkpt>
      <trkpt lat="45.42424" lon="4.10908">
        <ele>643.74</ele>
        <time>2022-04-30T09:44:21Z</time>
      </trkpt>
      <trkpt lat="45.42392" lon="4.10883">
        <ele>651.91</ele>
        <time>2022-04-30T09:44:39Z</time>
      </trkpt>
      <trkpt lat="45.4237" lon="4.10864">
        <ele>653.83</ele>
        <time>2022-04-30T09:44:55Z</time>
      </trkpt>
      <trkpt lat="45.42347" lon="4.10827">
        <ele>661.52</ele>
        <time>2022-04-30T09:45:14Z</time>
      </trkpt>
      <trkpt lat="45.42325" lon="4.10792">
        <ele>667.77</ele>
        <time>2022-04-30T09:45:36Z</time>
      </trkpt>
      <trkpt lat="45.42304" lon="4.10761">
        <ele>672.58</ele>
        <time>2022-04-30T09:45:57Z</time>
      </trkpt>
      <trkpt lat="45.42277" lon="4.1073">
        <ele>675.46</ele>
        <time>2022-04-30T09:46:22Z</time>
      </trkpt>
      <trkpt lat="45.42261" lon="4.10692">
        <ele>679.31</ele>
        <time>2022-04-30T09:46:42Z</time>
      </trkpt>
      <trkpt lat="45.42245" lon="4.1066">
        <ele>680.27</ele>
        <time>2022-04-30T09:47:00Z</time>
      </trkpt>
      <trkpt lat="45.42226" lon="4.10626">
        <ele>680.75</ele>
        <time>2022-04-30T09:47:20Z</time>
      </trkpt>
      <trkpt lat="45.4222" lon="4.106">
        <ele>680.75</ele>
        <time>2022-04-30T09:47:37Z</time>
      </trkpt>
      <trkpt lat="45.42254" lon="4.10605">
        <ele>682.67</ele>
        <time>2022-04-30T09:47:59Z</time>
      </trkpt>
      <trkpt lat="45.42286" lon="4.10599">
        <ele>686.52</ele>
        <time>2022-04-30T09:48:20Z</time>
      </trkpt>
      <trkpt lat="45.42308" lon="4.10573">
        <ele>690.36</ele>
        <time>2022-04-30T09:48:39Z</time>
      </trkpt>
      <trkpt lat="45.42329" lon="4.10534">
        <ele>693.73</ele>
        <time>2022-04-30T09:49:00Z</time>
      </trkpt>
      <trkpt lat="45.42346" lon="4.10496">
        <ele>697.09</ele>
        <time>2022-04-30T09:49:21Z</time>
      </trkpt>
      <trkpt lat="45.4236" lon="4.1045">
        <ele>699.98</ele>
        <time>2022-04-30T09:49:45Z</time>
      </trkpt>
      <trkpt lat="45.4237" lon="4.10405">
        <ele>701.9</ele>
        <time>2022-04-30T09:50:09Z</time>
      </trkpt>
      <trkpt lat="45.4238" lon="4.10364">
        <ele>702.38</ele>
        <time>2022-04-30T09:50:31Z</time>
      </trkpt>
      <trkpt lat="45.42387" lon="4.10333">
        <ele>701.9</ele>
        <time>2022-04-30T09:50:49Z</time>
      </trkpt>
      <trkpt lat="45.42398" lon="4.103">
        <ele>699.98</ele>
        <time>2022-04-30T09:51:08Z</time>
      </trkpt>
      <trkpt lat="45.42412" lon="4.10265">
        <ele>701.42</ele>
        <time>2022-04-30T09:51:28Z</time>
      </trkpt>
      <trkpt lat="45.42428" lon="4.10221">
        <ele>703.34</ele>
        <time>2022-04-30T09:51:52Z</time>
      </trkpt>
      <trkpt lat="45.4244" lon="4.10188">
        <ele>701.42</ele>
        <time>2022-04-30T09:52:11Z</time>
      </trkpt>
      <trkpt lat="45.42457" lon="4.10145">
        <ele>702.38</ele>
        <time>2022-04-30T09:52:33Z</time>
      </trkpt>
      <trkpt lat="45.42471" lon="4.10102">
        <ele>703.82</ele>
        <time>2022-04-30T09:52:55Z</time>
      </trkpt>
      <trkpt lat="45.42483" lon="4.10059">
        <ele>706.23</ele>
        <time>2022-04-30T09:53:16Z</time>
      </trkpt>
      <trkpt lat="45.42494" lon="4.1002">
        <ele>708.63</ele>
        <time>2022-04-30T09:53:37Z</time>
      </trkpt>
      <trkpt lat="45.42506" lon="4.09973">
        <ele>711.03</ele>
        <time>2022-04-30T09:54:00Z</time>
      </trkpt>
      <trkpt lat="45.42499" lon="4.09943">
        <ele>710.55</ele>
        <time>2022-04-30T09:54:21Z</time>
      </trkpt>
      <trkpt lat="45.42496" lon="4.09926">
        <ele>710.55</ele>
        <time>2022-04-30T09:54:40Z</time>
      </trkpt>
      <trkpt lat="45.42483" lon="4.09876">
        <ele>709.59</ele>
        <time>2022-04-30T09:55:05Z</time>
      </trkpt>
      <trkpt lat="45.42471" lon="4.09833">
        <ele>711.51</ele>
        <time>2022-04-30T09:55:25Z</time>
      </trkpt>
      <trkpt lat="45.42463" lon="4.09791">
        <ele>711.99</ele>
        <time>2022-04-30T09:55:45Z</time>
      </trkpt>
      <trkpt lat="45.42452" lon="4.09742">
        <ele>711.03</ele>
        <time>2022-04-30T09:56:09Z</time>
      </trkpt>
      <trkpt lat="45.42441" lon="4.09701">
        <ele>711.51</ele>
        <time>2022-04-30T09:56:29Z</time>
      </trkpt>
      <trkpt lat="45.42429" lon="4.09656">
        <ele>712.47</ele>
        <time>2022-04-30T09:56:51Z</time>
      </trkpt>
      <trkpt lat="45.42419" lon="4.09615">
        <ele>712.95</ele>
        <time>2022-04-30T09:57:11Z</time>
      </trkpt>
      <trkpt lat="45.42407" lon="4.0957">
        <ele>712.95</ele>
        <time>2022-04-30T09:57:35Z</time>
      </trkpt>
      <trkpt lat="45.42404" lon="4.0956">
        <ele>713.44</ele>
        <time>2022-04-30T09:57:49Z</time>
      </trkpt>
      <trkpt lat="45.42404" lon="4.09555">
        <ele>713.44</ele>
        <time>2022-04-30T09:58:05Z</time>
      </trkpt>
      <trkpt lat="45.42404" lon="4.09554">
        <ele>712.47</ele>
        <time>2022-04-30T09:58:31Z</time>
      </trkpt>
      <trkpt lat="45.42404" lon="4.09555">
        <ele>713.44</ele>
        <time>2022-04-30T09:58:57Z</time>
      </trkpt>
      <trkpt lat="45.42402" lon="4.09551">
        <ele>714.4</ele>
        <time>2022-04-30T09:59:31Z</time>
      </trkpt>
      <trkpt lat="45.42403" lon="4.09552">
        <ele>714.4</ele>
        <time>2022-04-30T10:00:06Z</time>
      </trkpt>
      <trkpt lat="45.42401" lon="4.09542">
        <ele>712.95</ele>
        <time>2022-04-30T10:00:23Z</time>
      </trkpt>
      <trkpt lat="45.42388" lon="4.09492">
        <ele>713.92</ele>
        <time>2022-04-30T10:00:48Z</time>
      </trkpt>
      <trkpt lat="45.42378" lon="4.09459">
        <ele>714.88</ele>
        <time>2022-04-30T10:01:08Z</time>
      </trkpt>
      <trkpt lat="45.42378" lon="4.09423">
        <ele>714.88</ele>
        <time>2022-04-30T10:01:30Z</time>
      </trkpt>
      <trkpt lat="45.42378" lon="4.09384">
        <ele>711.99</ele>
        <time>2022-04-30T10:01:52Z</time>
      </trkpt>
      <trkpt lat="45.42376" lon="4.09338">
        <ele>711.51</ele>
        <time>2022-04-30T10:02:16Z</time>
      </trkpt>
      <trkpt lat="45.42372" lon="4.09298">
        <ele>713.92</ele>
        <time>2022-04-30T10:02:36Z</time>
      </trkpt>
      <trkpt lat="45.4237" lon="4.09264">
        <ele>715.36</ele>
        <time>2022-04-30T10:02:55Z</time>
      </trkpt>
      <trkpt lat="45.42356" lon="4.09214">
        <ele>725.93</ele>
        <time>2022-04-30T10:03:16Z</time>
      </trkpt>
      <trkpt lat="45.42343" lon="4.09168">
        <ele>731.22</ele>
        <time>2022-04-30T10:03:38Z</time>
      </trkpt>
      <trkpt lat="45.42324" lon="4.0913">
        <ele>736.03</ele>
        <time>2022-04-30T10:03:59Z</time>
      </trkpt>
      <trkpt lat="45.423" lon="4.09095">
        <ele>740.83</ele>
        <time>2022-04-30T10:04:21Z</time>
      </trkpt>
      <trkpt lat="45.42295" lon="4.09086">
        <ele>741.79</ele>
        <time>2022-04-30T10:04:27Z</time>
      </trkpt>
      <trkpt lat="45.4228" lon="4.0906">
        <ele>745.16</ele>
        <time>2022-04-30T10:04:47Z</time>
      </trkpt>
      <trkpt lat="45.42267" lon="4.0903">
        <ele>744.2</ele>
        <time>2022-04-30T10:05:09Z</time>
      </trkpt>
      <trkpt lat="45.42255" lon="4.09002">
        <ele>742.28</ele>
        <time>2022-04-30T10:05:28Z</time>
      </trkpt>
      <trkpt lat="45.42228" lon="4.08969">
        <ele>743.24</ele>
        <time>2022-04-30T10:05:47Z</time>
      </trkpt>
      <trkpt lat="45.42199" lon="4.08953">
        <ele>741.79</ele>
        <time>2022-04-30T10:06:08Z</time>
      </trkpt>
      <trkpt lat="45.42167" lon="4.08938">
        <ele>746.12</ele>
        <time>2022-04-30T10:06:29Z</time>
      </trkpt>
      <trkpt lat="45.42137" lon="4.08915">
        <ele>754.77</ele>
        <time>2022-04-30T10:06:49Z</time>
      </trkpt>
      <trkpt lat="45.42116" lon="4.08881">
        <ele>765.83</ele>
        <time>2022-04-30T10:07:08Z</time>
      </trkpt>
      <trkpt lat="45.421" lon="4.08851">
        <ele>771.6</ele>
        <time>2022-04-30T10:07:27Z</time>
      </trkpt>
      <trkpt lat="45.42087" lon="4.08808">
        <ele>773.04</ele>
        <time>2022-04-30T10:07:47Z</time>
      </trkpt>
      <trkpt lat="45.42078" lon="4.08764">
        <ele>773.52</ele>
        <time>2022-04-30T10:08:10Z</time>
      </trkpt>
      <trkpt lat="45.42066" lon="4.08715">
        <ele>775.44</ele>
        <time>2022-04-30T10:08:35Z</time>
      </trkpt>
      <trkpt lat="45.42057" lon="4.08674">
        <ele>775.92</ele>
        <time>2022-04-30T10:08:57Z</time>
      </trkpt>
      <trkpt lat="45.42047" lon="4.08624">
        <ele>776.4</ele>
        <time>2022-04-30T10:09:20Z</time>
      </trkpt>
      <trkpt lat="45.42032" lon="4.08586">
        <ele>776.88</ele>
        <time>2022-04-30T10:09:41Z</time>
      </trkpt>
      <trkpt lat="45.42023" lon="4.08576">
        <ele>777.36</ele>
        <time>2022-04-30T10:09:57Z</time>
      </trkpt>
      <trkpt lat="45.42021" lon="4.08576">
        <ele>777.36</ele>
        <time>2022-04-30T10:10:04Z</time>
      </trkpt>
      <trkpt lat="45.41993" lon="4.08571">
        <ele>779.29</ele>
        <time>2022-04-30T10:10:25Z</time>
      </trkpt>
      <trkpt lat="45.41969" lon="4.08569">
        <ele>778.81</ele>
        <time>2022-04-30T10:10:42Z</time>
      </trkpt>
      <trkpt lat="45.4194" lon="4.08574">
        <ele>777.36</ele>
        <time>2022-04-30T10:11:02Z</time>
      </trkpt>
      <trkpt lat="45.41912" lon="4.08581">
        <ele>777.36</ele>
        <time>2022-04-30T10:11:20Z</time>
      </trkpt>
      <trkpt lat="45.41882" lon="4.08591">
        <ele>778.81</ele>
        <time>2022-04-30T10:11:41Z</time>
      </trkpt>
      <trkpt lat="45.41869" lon="4.08588">
        <ele>780.73</ele>
        <time>2022-04-30T10:11:50Z</time>
      </trkpt>
      <trkpt lat="45.41846" lon="4.08548">
        <ele>788.9</ele>
        <time>2022-04-30T10:12:13Z</time>
      </trkpt>
      <trkpt lat="45.41819" lon="4.08502">
        <ele>792.74</ele>
        <time>2022-04-30T10:12:41Z</time>
      </trkpt>
      <trkpt lat="45.41807" lon="4.0846">
        <ele>794.67</ele>
        <time>2022-04-30T10:13:03Z</time>
      </trkpt>
      <trkpt lat="45.41782" lon="4.08422">
        <ele>795.63</ele>
        <time>2022-04-30T10:13:27Z</time>
      </trkpt>
      <trkpt lat="45.4177" lon="4.08403">
        <ele>795.63</ele>
        <time>2022-04-30T10:13:44Z</time>
      </trkpt>
      <trkpt lat="45.41752" lon="4.0838">
        <ele>796.11</ele>
        <time>2022-04-30T10:14:04Z</time>
      </trkpt>
      <trkpt lat="45.41724" lon="4.0836">
        <ele>797.07</ele>
        <time>2022-04-30T10:14:26Z</time>
      </trkpt>
      <trkpt lat="45.417" lon="4.08341">
        <ele>796.59</ele>
        <time>2022-04-30T10:14:48Z</time>
      </trkpt>
      <trkpt lat="45.41676" lon="4.08332">
        <ele>796.11</ele>
        <time>2022-04-30T10:15:07Z</time>
      </trkpt>
      <trkpt lat="45.41641" lon="4.08325">
        <ele>797.55</ele>
        <time>2022-04-30T10:15:32Z</time>
      </trkpt>
      <trkpt lat="45.4162" lon="4.08327">
        <ele>798.03</ele>
        <time>2022-04-30T10:15:50Z</time>
      </trkpt>
      <trkpt lat="45.41608" lon="4.08307">
        <ele>800.92</ele>
        <time>2022-04-30T10:16:05Z</time>
      </trkpt>
      <trkpt lat="45.41624" lon="4.08281">
        <ele>805.24</ele>
        <time>2022-04-30T10:16:22Z</time>
      </trkpt>
      <trkpt lat="45.41647" lon="4.08252">
        <ele>807.64</ele>
        <time>2022-04-30T10:16:43Z</time>
      </trkpt>
      <trkpt lat="45.41673" lon="4.08228">
        <ele>810.05</ele>
        <time>2022-04-30T10:17:04Z</time>
      </trkpt>
      <trkpt lat="45.41704" lon="4.08205">
        <ele>812.45</ele>
        <time>2022-04-30T10:17:26Z</time>
      </trkpt>
      <trkpt lat="45.41733" lon="4.08184">
        <ele>815.34</ele>
        <time>2022-04-30T10:17:48Z</time>
      </trkpt>
      <trkpt lat="45.41765" lon="4.08159">
        <ele>816.78</ele>
        <time>2022-04-30T10:18:11Z</time>
      </trkpt>
      <trkpt lat="45.41778" lon="4.08144">
        <ele>818.22</ele>
        <time>2022-04-30T10:18:24Z</time>
      </trkpt>
      <trkpt lat="45.41792" lon="4.08109">
        <ele>820.62</ele>
        <time>2022-04-30T10:18:44Z</time>
      </trkpt>
      <trkpt lat="45.41797" lon="4.08061">
        <ele>820.62</ele>
        <time>2022-04-30T10:19:05Z</time>
      </trkpt>
      <trkpt lat="45.41806" lon="4.08015">
        <ele>819.66</ele>
        <time>2022-04-30T10:19:28Z</time>
      </trkpt>
      <trkpt lat="45.41814" lon="4.07972">
        <ele>819.18</ele>
        <time>2022-04-30T10:19:49Z</time>
      </trkpt>
      <trkpt lat="45.41823" lon="4.07927">
        <ele>817.74</ele>
        <time>2022-04-30T10:20:11Z</time>
      </trkpt>
      <trkpt lat="45.41835" lon="4.07892">
        <ele>815.34</ele>
        <time>2022-04-30T10:20:30Z</time>
      </trkpt>
      <trkpt lat="45.41857" lon="4.07867">
        <ele>810.53</ele>
        <time>2022-04-30T10:20:52Z</time>
      </trkpt>
      <trkpt lat="45.41871" lon="4.07852">
        <ele>806.2</ele>
        <time>2022-04-30T10:21:07Z</time>
      </trkpt>
      <trkpt lat="45.41884" lon="4.07807">
        <ele>798.99</ele>
        <time>2022-04-30T10:21:28Z</time>
      </trkpt>
      <trkpt lat="45.41897" lon="4.07769">
        <ele>793.71</ele>
        <time>2022-04-30T10:21:46Z</time>
      </trkpt>
      <trkpt lat="45.41906" lon="4.07729">
        <ele>790.82</ele>
        <time>2022-04-30T10:22:03Z</time>
      </trkpt>
      <trkpt lat="45.4191" lon="4.07707">
        <ele>788.9</ele>
        <time>2022-04-30T10:22:20Z</time>
      </trkpt>
      <trkpt lat="45.41926" lon="4.07677">
        <ele>787.94</ele>
        <time>2022-04-30T10:22:38Z</time>
      </trkpt>
      <trkpt lat="45.41937" lon="4.07652">
        <ele>787.46</ele>
        <time>2022-04-30T10:22:56Z</time>
      </trkpt>
      <trkpt lat="45.41952" lon="4.07617">
        <ele>787.46</ele>
        <time>2022-04-30T10:23:14Z</time>
      </trkpt>
      <trkpt lat="45.41965" lon="4.07589">
        <ele>788.42</ele>
        <time>2022-04-30T10:23:32Z</time>
      </trkpt>
      <trkpt lat="45.41983" lon="4.07564">
        <ele>788.42</ele>
        <time>2022-04-30T10:23:50Z</time>
      </trkpt>
      <trkpt lat="45.41985" lon="4.07541">
        <ele>789.38</ele>
        <time>2022-04-30T10:24:06Z</time>
      </trkpt>
      <trkpt lat="45.41986" lon="4.07538">
        <ele>789.86</ele>
        <time>2022-04-30T10:24:08Z</time>
      </trkpt>
      <trkpt lat="45.41988" lon="4.07524">
        <ele>791.3</ele>
        <time>2022-04-30T10:24:23Z</time>
      </trkpt>
      <trkpt lat="45.41986" lon="4.07522">
        <ele>790.82</ele>
        <time>2022-04-30T10:24:46Z</time>
      </trkpt>
      <trkpt lat="45.4197" lon="4.07489">
        <ele>794.67</ele>
        <time>2022-04-30T10:25:05Z</time>
      </trkpt>
      <trkpt lat="45.41953" lon="4.07463">
        <ele>796.59</ele>
        <time>2022-04-30T10:25:22Z</time>
      </trkpt>
      <trkpt lat="45.41929" lon="4.07443">
        <ele>797.55</ele>
        <time>2022-04-30T10:25:42Z</time>
      </trkpt>
      <trkpt lat="45.41921" lon="4.0743">
        <ele>799.47</ele>
        <time>2022-04-30T10:25:58Z</time>
      </trkpt>
      <trkpt lat="45.41922" lon="4.07424">
        <ele>799.47</ele>
        <time>2022-04-30T10:26:26Z</time>
      </trkpt>
      <trkpt lat="45.41931" lon="4.07397">
        <ele>799.47</ele>
        <time>2022-04-30T10:26:45Z</time>
      </trkpt>
      <trkpt lat="45.41932" lon="4.07395">
        <ele>799.47</ele>
        <time>2022-04-30T10:26:46Z</time>
      </trkpt>
      <trkpt lat="45.41939" lon="4.07388">
        <ele>798.03</ele>
        <time>2022-04-30T10:27:07Z</time>
      </trkpt>
      <trkpt lat="45.41941" lon="4.07386">
        <ele>798.51</ele>
        <time>2022-04-30T10:27:33Z</time>
      </trkpt>
      <trkpt lat="45.4194" lon="4.07384">
        <ele>798.51</ele>
        <time>2022-04-30T10:27:49Z</time>
      </trkpt>
      <trkpt lat="45.41947" lon="4.07369">
        <ele>797.55</ele>
        <time>2022-04-30T10:28:06Z</time>
      </trkpt>
      <trkpt lat="45.41954" lon="4.0736">
        <ele>797.07</ele>
        <time>2022-04-30T10:28:22Z</time>
      </trkpt>
      <trkpt lat="45.41955" lon="4.07357">
        <ele>796.59</ele>
        <time>2022-04-30T10:28:38Z</time>
      </trkpt>
      <trkpt lat="45.41954" lon="4.07359">
        <ele>796.11</ele>
        <time>2022-04-30T10:28:56Z</time>
      </trkpt>
      <trkpt lat="45.41955" lon="4.07357">
        <ele>796.59</ele>
        <time>2022-04-30T10:29:10Z</time>
      </trkpt>
      <trkpt lat="45.41958" lon="4.07355">
        <ele>795.63</ele>
        <time>2022-04-30T10:29:29Z</time>
      </trkpt>
      <trkpt lat="45.41954" lon="4.07355">
        <ele>794.67</ele>
        <time>2022-04-30T10:29:46Z</time>
      </trkpt>
      <trkpt lat="45.41956" lon="4.07354">
        <ele>794.19</ele>
        <time>2022-04-30T10:30:05Z</time>
      </trkpt>
      <trkpt lat="45.41956" lon="4.07351">
        <ele>794.19</ele>
        <time>2022-04-30T10:30:27Z</time>
      </trkpt>
      <trkpt lat="45.41956" lon="4.07352">
        <ele>794.19</ele>
        <time>2022-04-30T10:30:43Z</time>
      </trkpt>
      <trkpt lat="45.41958" lon="4.0735">
        <ele>793.22</ele>
        <time>2022-04-30T10:30:59Z</time>
      </trkpt>
      <trkpt lat="45.41958" lon="4.07353">
        <ele>793.22</ele>
        <time>2022-04-30T10:31:15Z</time>
      </trkpt>
      <trkpt lat="45.41958" lon="4.07353">
        <ele>792.74</ele>
        <time>2022-04-30T10:31:35Z</time>
      </trkpt>
      <trkpt lat="45.41956" lon="4.07349">
        <ele>792.26</ele>
        <time>2022-04-30T10:31:49Z</time>
      </trkpt>
      <trkpt lat="45.41958" lon="4.07349">
        <ele>792.26</ele>
        <time>2022-04-30T10:32:07Z</time>
      </trkpt>
      <trkpt lat="45.41959" lon="4.07353">
        <ele>792.26</ele>
        <time>2022-04-30T10:32:31Z</time>
      </trkpt>
      <trkpt lat="45.41957" lon="4.07356">
        <ele>792.74</ele>
        <time>2022-04-30T10:32:44Z</time>
      </trkpt>
      <trkpt lat="45.41958" lon="4.07351">
        <ele>792.74</ele>
        <time>2022-04-30T10:33:02Z</time>
      </trkpt>
      <trkpt lat="45.41958" lon="4.07347">
        <ele>791.78</ele>
        <time>2022-04-30T10:33:16Z</time>
      </trkpt>
      <trkpt lat="45.41957" lon="4.0735">
        <ele>791.3</ele>
        <time>2022-04-30T10:33:40Z</time>
      </trkpt>
      <trkpt lat="45.41958" lon="4.0735">
        <ele>790.34</ele>
        <time>2022-04-30T10:33:55Z</time>
      </trkpt>
      <trkpt lat="45.41956" lon="4.0735">
        <ele>792.26</ele>
        <time>2022-04-30T10:34:23Z</time>
      </trkpt>
      <trkpt lat="45.41953" lon="4.07344">
        <ele>792.26</ele>
        <time>2022-04-30T10:34:47Z</time>
      </trkpt>
      <trkpt lat="45.41955" lon="4.07345">
        <ele>792.74</ele>
        <time>2022-04-30T10:35:06Z</time>
      </trkpt>
      <trkpt lat="45.4196" lon="4.07345">
        <ele>791.78</ele>
        <time>2022-04-30T10:35:36Z</time>
      </trkpt>
      <trkpt lat="45.41957" lon="4.07346">
        <ele>792.74</ele>
        <time>2022-04-30T10:36:09Z</time>
      </trkpt>
      <trkpt lat="45.41955" lon="4.07344">
        <ele>793.71</ele>
        <time>2022-04-30T10:36:25Z</time>
      </trkpt>
      <trkpt lat="45.41954" lon="4.07337">
        <ele>795.15</ele>
        <time>2022-04-30T10:36:39Z</time>
      </trkpt>
      <trkpt lat="45.41954" lon="4.07338">
        <ele>797.55</ele>
        <time>2022-04-30T10:36:58Z</time>
      </trkpt>
      <trkpt lat="45.41954" lon="4.07337">
        <ele>798.03</ele>
        <time>2022-04-30T10:37:09Z</time>
      </trkpt>
      <trkpt lat="45.41954" lon="4.07336">
        <ele>798.99</ele>
        <time>2022-04-30T10:37:14Z</time>
      </trkpt>
      <trkpt lat="45.41954" lon="4.07363">
        <ele>803.32</ele>
        <time>2022-04-30T11:34:20Z</time>
      </trkpt>
      <trkpt lat="45.41949" lon="4.07355">
        <ele>800.92</ele>
        <time>2022-04-30T11:34:41Z</time>
      </trkpt>
      <trkpt lat="45.41945" lon="4.07347">
        <ele>797.55</ele>
        <time>2022-04-30T11:35:16Z</time>
      </trkpt>
      <trkpt lat="45.41951" lon="4.07349">
        <ele>797.07</ele>
        <time>2022-04-30T11:35:40Z</time>
      </trkpt>
      <trkpt lat="45.4195" lon="4.07348">
        <ele>798.03</ele>
        <time>2022-04-30T11:36:12Z</time>
      </trkpt>
      <trkpt lat="45.41948" lon="4.0735">
        <ele>801.88</ele>
        <time>2022-04-30T11:36:45Z</time>
      </trkpt>
      <trkpt lat="45.41948" lon="4.07346">
        <ele>801.88</ele>
        <time>2022-04-30T11:37:16Z</time>
      </trkpt>
      <trkpt lat="45.41949" lon="4.0735">
        <ele>802.84</ele>
        <time>2022-04-30T11:37:53Z</time>
      </trkpt>
      <trkpt lat="45.41951" lon="4.0735">
        <ele>800.92</ele>
        <time>2022-04-30T11:38:30Z</time>
      </trkpt>
      <trkpt lat="45.41949" lon="4.07354">
        <ele>802.36</ele>
        <time>2022-04-30T11:39:00Z</time>
      </trkpt>
      <trkpt lat="45.4195" lon="4.07352">
        <ele>804.28</ele>
        <time>2022-04-30T11:39:26Z</time>
      </trkpt>
      <trkpt lat="45.41953" lon="4.0735">
        <ele>809.09</ele>
        <time>2022-04-30T11:39:59Z</time>
      </trkpt>
      <trkpt lat="45.41952" lon="4.07348">
        <ele>808.13</ele>
        <time>2022-04-30T11:40:40Z</time>
      </trkpt>
      <trkpt lat="45.41953" lon="4.07346">
        <ele>808.61</ele>
        <time>2022-04-30T11:41:18Z</time>
      </trkpt>
      <trkpt lat="45.4195" lon="4.0735">
        <ele>807.16</ele>
        <time>2022-04-30T11:41:34Z</time>
      </trkpt>
      <trkpt lat="45.41953" lon="4.07356">
        <ele>802.36</ele>
        <time>2022-04-30T11:41:53Z</time>
      </trkpt>
      <trkpt lat="45.41953" lon="4.07358">
        <ele>800.44</ele>
        <time>2022-04-30T11:42:13Z</time>
      </trkpt>
      <trkpt lat="45.41953" lon="4.07363">
        <ele>798.51</ele>
        <time>2022-04-30T11:42:37Z</time>
      </trkpt>
      <trkpt lat="45.41951" lon="4.07359">
        <ele>798.51</ele>
        <time>2022-04-30T11:43:00Z</time>
      </trkpt>
      <trkpt lat="45.4195" lon="4.07355">
        <ele>798.99</ele>
        <time>2022-04-30T11:43:20Z</time>
      </trkpt>
      <trkpt lat="45.4195" lon="4.07356">
        <ele>798.99</ele>
        <time>2022-04-30T11:43:21Z</time>
      </trkpt>
      <trkpt lat="45.41941" lon="4.07365">
        <ele>799.95</ele>
        <time>2022-04-30T11:43:35Z</time>
      </trkpt>
      <trkpt lat="45.41939" lon="4.07366">
        <ele>800.44</ele>
        <time>2022-04-30T11:43:45Z</time>
      </trkpt>
      <trkpt lat="45.41934" lon="4.07367">
        <ele>800.44</ele>
        <time>2022-04-30T11:43:53Z</time>
      </trkpt>
      <trkpt lat="45.41929" lon="4.07368">
        <ele>799.95</ele>
        <time>2022-04-30T11:44:12Z</time>
      </trkpt>
      <trkpt lat="45.41929" lon="4.07369">
        <ele>798.99</ele>
        <time>2022-04-30T11:44:33Z</time>
      </trkpt>
      <trkpt lat="45.41931" lon="4.07367">
        <ele>798.51</ele>
        <time>2022-04-30T11:44:53Z</time>
      </trkpt>
      <trkpt lat="45.4193" lon="4.07367">
        <ele>797.55</ele>
        <time>2022-04-30T11:45:13Z</time>
      </trkpt>
      <trkpt lat="45.4193" lon="4.07366">
        <ele>798.03</ele>
        <time>2022-04-30T11:45:29Z</time>
      </trkpt>
      <trkpt lat="45.41929" lon="4.07367">
        <ele>798.03</ele>
        <time>2022-04-30T11:45:47Z</time>
      </trkpt>
      <trkpt lat="45.41928" lon="4.07367">
        <ele>798.99</ele>
        <time>2022-04-30T11:45:51Z</time>
      </trkpt>
      <trkpt lat="45.41927" lon="4.07374">
        <ele>799.47</ele>
        <time>2022-04-30T11:46:05Z</time>
      </trkpt>
      <trkpt lat="45.41927" lon="4.07378">
        <ele>798.03</ele>
        <time>2022-04-30T11:46:25Z</time>
      </trkpt>
      <trkpt lat="45.41929" lon="4.07378">
        <ele>798.51</ele>
        <time>2022-04-30T11:46:54Z</time>
      </trkpt>
      <trkpt lat="45.41928" lon="4.07379">
        <ele>797.55</ele>
        <time>2022-04-30T11:47:23Z</time>
      </trkpt>
      <trkpt lat="45.41927" lon="4.07379">
        <ele>796.11</ele>
        <time>2022-04-30T11:47:47Z</time>
      </trkpt>
      <trkpt lat="45.41925" lon="4.0738">
        <ele>796.59</ele>
        <time>2022-04-30T11:48:12Z</time>
      </trkpt>
      <trkpt lat="45.41925" lon="4.07378">
        <ele>798.51</ele>
        <time>2022-04-30T11:48:38Z</time>
      </trkpt>
      <trkpt lat="45.41927" lon="4.07378">
        <ele>799.47</ele>
        <time>2022-04-30T11:48:58Z</time>
      </trkpt>
      <trkpt lat="45.41926" lon="4.07382">
        <ele>798.51</ele>
        <time>2022-04-30T11:49:17Z</time>
      </trkpt>
      <trkpt lat="45.41927" lon="4.07383">
        <ele>796.59</ele>
        <time>2022-04-30T11:49:47Z</time>
      </trkpt>
      <trkpt lat="45.41926" lon="4.07386">
        <ele>795.15</ele>
        <time>2022-04-30T11:50:19Z</time>
      </trkpt>
      <trkpt lat="45.41929" lon="4.07388">
        <ele>797.55</ele>
        <time>2022-04-30T11:50:46Z</time>
      </trkpt>
      <trkpt lat="45.41929" lon="4.07389">
        <ele>794.67</ele>
        <time>2022-04-30T11:51:15Z</time>
      </trkpt>
      <trkpt lat="45.41932" lon="4.07386">
        <ele>797.07</ele>
        <time>2022-04-30T11:51:36Z</time>
      </trkpt>
      <trkpt lat="45.41933" lon="4.07384">
        <ele>797.55</ele>
        <time>2022-04-30T11:51:37Z</time>
      </trkpt>
      <trkpt lat="45.4194" lon="4.0737">
        <ele>798.99</ele>
        <time>2022-04-30T11:51:49Z</time>
      </trkpt>
      <trkpt lat="45.41954" lon="4.07352">
        <ele>799.47</ele>
        <time>2022-04-30T11:52:01Z</time>
      </trkpt>
      <trkpt lat="45.41964" lon="4.07334">
        <ele>799.95</ele>
        <time>2022-04-30T11:52:10Z</time>
      </trkpt>
      <trkpt lat="45.41974" lon="4.07323">
        <ele>801.4</ele>
        <time>2022-04-30T11:52:22Z</time>
      </trkpt>
      <trkpt lat="45.41978" lon="4.07323">
        <ele>801.88</ele>
        <time>2022-04-30T11:52:25Z</time>
      </trkpt>
      <trkpt lat="45.4198" lon="4.07323">
        <ele>801.88</ele>
        <time>2022-04-30T11:52:26Z</time>
      </trkpt>
      <trkpt lat="45.41981" lon="4.07324">
        <ele>801.88</ele>
        <time>2022-04-30T11:52:27Z</time>
      </trkpt>
      <trkpt lat="45.41982" lon="4.07325">
        <ele>801.88</ele>
        <time>2022-04-30T11:52:28Z</time>
      </trkpt>
      <trkpt lat="45.41984" lon="4.07326">
        <ele>801.88</ele>
        <time>2022-04-30T11:52:29Z</time>
      </trkpt>
      <trkpt lat="45.42006" lon="4.07335">
        <ele>803.32</ele>
        <time>2022-04-30T11:52:43Z</time>
      </trkpt>
      <trkpt lat="45.42026" lon="4.07338">
        <ele>803.8</ele>
        <time>2022-04-30T11:53:01Z</time>
      </trkpt>
      <trkpt lat="45.42029" lon="4.07339">
        <ele>802.84</ele>
        <time>2022-04-30T11:53:15Z</time>
      </trkpt>
      <trkpt lat="45.4203" lon="4.0734">
        <ele>803.32</ele>
        <time>2022-04-30T11:53:39Z</time>
      </trkpt>
      <trkpt lat="45.42055" lon="4.07344">
        <ele>803.32</ele>
        <time>2022-04-30T11:53:55Z</time>
      </trkpt>
      <trkpt lat="45.42084" lon="4.07346">
        <ele>804.28</ele>
        <time>2022-04-30T11:54:16Z</time>
      </trkpt>
      <trkpt lat="45.42109" lon="4.07354">
        <ele>805.72</ele>
        <time>2022-04-30T11:54:32Z</time>
      </trkpt>
      <trkpt lat="45.42131" lon="4.07366">
        <ele>807.16</ele>
        <time>2022-04-30T11:54:49Z</time>
      </trkpt>
      <trkpt lat="45.42149" lon="4.07375">
        <ele>805.72</ele>
        <time>2022-04-30T11:55:03Z</time>
      </trkpt>
      <trkpt lat="45.42161" lon="4.07379">
        <ele>804.76</ele>
        <time>2022-04-30T11:55:14Z</time>
      </trkpt>
      <trkpt lat="45.42162" lon="4.0738">
        <ele>804.28</ele>
        <time>2022-04-30T11:55:15Z</time>
      </trkpt>
      <trkpt lat="45.42164" lon="4.07381">
        <ele>804.28</ele>
        <time>2022-04-30T11:55:16Z</time>
      </trkpt>
      <trkpt lat="45.42189" lon="4.07389">
        <ele>803.32</ele>
        <time>2022-04-30T11:55:35Z</time>
      </trkpt>
      <trkpt lat="45.42213" lon="4.07393">
        <ele>803.8</ele>
        <time>2022-04-30T11:55:47Z</time>
      </trkpt>
      <trkpt lat="45.42234" lon="4.07397">
        <ele>806.2</ele>
        <time>2022-04-30T11:56:01Z</time>
      </trkpt>
      <trkpt lat="45.42255" lon="4.07401">
        <ele>808.61</ele>
        <time>2022-04-30T11:56:15Z</time>
      </trkpt>
      <trkpt lat="45.42272" lon="4.07402">
        <ele>811.01</ele>
        <time>2022-04-30T11:56:26Z</time>
      </trkpt>
      <trkpt lat="45.42293" lon="4.07405">
        <ele>812.93</ele>
        <time>2022-04-30T11:56:40Z</time>
      </trkpt>
      <trkpt lat="45.42317" lon="4.07407">
        <ele>814.85</ele>
        <time>2022-04-30T11:56:56Z</time>
      </trkpt>
      <trkpt lat="45.42335" lon="4.07411">
        <ele>816.3</ele>
        <time>2022-04-30T11:57:09Z</time>
      </trkpt>
      <trkpt lat="45.42348" lon="4.07432">
        <ele>818.7</ele>
        <time>2022-04-30T11:57:22Z</time>
      </trkpt>
      <trkpt lat="45.42373" lon="4.07456">
        <ele>817.74</ele>
        <time>2022-04-30T11:57:42Z</time>
      </trkpt>
      <trkpt lat="45.42397" lon="4.07475">
        <ele>817.26</ele>
        <time>2022-04-30T11:57:58Z</time>
      </trkpt>
      <trkpt lat="45.42428" lon="4.07497">
        <ele>817.26</ele>
        <time>2022-04-30T11:58:20Z</time>
      </trkpt>
      <trkpt lat="45.42455" lon="4.07521">
        <ele>816.78</ele>
        <time>2022-04-30T11:58:39Z</time>
      </trkpt>
      <trkpt lat="45.42475" lon="4.07544">
        <ele>816.78</ele>
        <time>2022-04-30T11:58:54Z</time>
      </trkpt>
      <trkpt lat="45.425" lon="4.0757">
        <ele>816.78</ele>
        <time>2022-04-30T11:59:14Z</time>
      </trkpt>
      <trkpt lat="45.42524" lon="4.07595">
        <ele>818.22</ele>
        <time>2022-04-30T11:59:31Z</time>
      </trkpt>
      <trkpt lat="45.42548" lon="4.07619">
        <ele>819.66</ele>
        <time>2022-04-30T11:59:48Z</time>
      </trkpt>
      <trkpt lat="45.42568" lon="4.07644">
        <ele>819.66</ele>
        <time>2022-04-30T12:00:07Z</time>
      </trkpt>
      <trkpt lat="45.42593" lon="4.07678">
        <ele>818.22</ele>
        <time>2022-04-30T12:00:27Z</time>
      </trkpt>
      <trkpt lat="45.4261" lon="4.07708">
        <ele>815.82</ele>
        <time>2022-04-30T12:00:45Z</time>
      </trkpt>
      <trkpt lat="45.42626" lon="4.07745">
        <ele>811.97</ele>
        <time>2022-04-30T12:01:06Z</time>
      </trkpt>
      <trkpt lat="45.42643" lon="4.07777">
        <ele>810.53</ele>
        <time>2022-04-30T12:01:24Z</time>
      </trkpt>
      <trkpt lat="45.4266" lon="4.078">
        <ele>810.05</ele>
        <time>2022-04-30T12:01:40Z</time>
      </trkpt>
      <trkpt lat="45.42682" lon="4.07825">
        <ele>807.64</ele>
        <time>2022-04-30T12:01:57Z</time>
      </trkpt>
      <trkpt lat="45.42687" lon="4.07855">
        <ele>807.64</ele>
        <time>2022-04-30T12:02:12Z</time>
      </trkpt>
      <trkpt lat="45.42688" lon="4.07881">
        <ele>809.09</ele>
        <time>2022-04-30T12:02:25Z</time>
      </trkpt>
      <trkpt lat="45.42692" lon="4.07912">
        <ele>811.49</ele>
        <time>2022-04-30T12:02:40Z</time>
      </trkpt>
      <trkpt lat="45.42694" lon="4.07938">
        <ele>814.85</ele>
        <time>2022-04-30T12:02:52Z</time>
      </trkpt>
      <trkpt lat="45.42703" lon="4.07975">
        <ele>813.41</ele>
        <time>2022-04-30T12:03:05Z</time>
      </trkpt>
      <trkpt lat="45.42709" lon="4.08009">
        <ele>815.34</ele>
        <time>2022-04-30T12:03:21Z</time>
      </trkpt>
      <trkpt lat="45.42714" lon="4.08036">
        <ele>816.3</ele>
        <time>2022-04-30T12:03:37Z</time>
      </trkpt>
      <trkpt lat="45.42722" lon="4.08071">
        <ele>815.82</ele>
        <time>2022-04-30T12:03:51Z</time>
      </trkpt>
      <trkpt lat="45.42734" lon="4.08103">
        <ele>815.82</ele>
        <time>2022-04-30T12:04:09Z</time>
      </trkpt>
      <trkpt lat="45.42746" lon="4.08134">
        <ele>814.85</ele>
        <time>2022-04-30T12:04:27Z</time>
      </trkpt>
      <trkpt lat="45.42756" lon="4.08168">
        <ele>813.41</ele>
        <time>2022-04-30T12:04:46Z</time>
      </trkpt>
      <trkpt lat="45.42763" lon="4.08206">
        <ele>812.93</ele>
        <time>2022-04-30T12:05:01Z</time>
      </trkpt>
      <trkpt lat="45.42769" lon="4.08244">
        <ele>813.89</ele>
        <time>2022-04-30T12:05:22Z</time>
      </trkpt>
      <trkpt lat="45.42778" lon="4.08267">
        <ele>813.89</ele>
        <time>2022-04-30T12:05:35Z</time>
      </trkpt>
      <trkpt lat="45.42779" lon="4.08268">
        <ele>813.41</ele>
        <time>2022-04-30T12:05:36Z</time>
      </trkpt>
      <trkpt lat="45.42781" lon="4.08271">
        <ele>813.41</ele>
        <time>2022-04-30T12:05:38Z</time>
      </trkpt>
      <trkpt lat="45.42782" lon="4.08272">
        <ele>812.93</ele>
        <time>2022-04-30T12:05:39Z</time>
      </trkpt>
      <trkpt lat="45.42786" lon="4.08277">
        <ele>812.45</ele>
        <time>2022-04-30T12:05:43Z</time>
      </trkpt>
      <trkpt lat="45.42788" lon="4.08277">
        <ele>812.45</ele>
        <time>2022-04-30T12:05:44Z</time>
      </trkpt>
      <trkpt lat="45.42809" lon="4.08275">
        <ele>812.93</ele>
        <time>2022-04-30T12:06:01Z</time>
      </trkpt>
      <trkpt lat="45.42814" lon="4.08274">
        <ele>813.41</ele>
        <time>2022-04-30T12:06:05Z</time>
      </trkpt>
      <trkpt lat="45.42815" lon="4.08275">
        <ele>813.89</ele>
        <time>2022-04-30T12:06:06Z</time>
      </trkpt>
      <trkpt lat="45.42817" lon="4.08275">
        <ele>813.89</ele>
        <time>2022-04-30T12:06:07Z</time>
      </trkpt>
      <trkpt lat="45.4282" lon="4.08275">
        <ele>813.89</ele>
        <time>2022-04-30T12:06:08Z</time>
      </trkpt>
      <trkpt lat="45.42823" lon="4.08274">
        <ele>814.85</ele>
        <time>2022-04-30T12:06:09Z</time>
      </trkpt>
      <trkpt lat="45.42825" lon="4.08274">
        <ele>815.34</ele>
        <time>2022-04-30T12:06:10Z</time>
      </trkpt>
      <trkpt lat="45.42827" lon="4.08274">
        <ele>815.82</ele>
        <time>2022-04-30T12:06:11Z</time>
      </trkpt>
      <trkpt lat="45.42828" lon="4.08274">
        <ele>816.3</ele>
        <time>2022-04-30T12:06:12Z</time>
      </trkpt>
      <trkpt lat="45.42844" lon="4.08271">
        <ele>821.1</ele>
        <time>2022-04-30T12:06:28Z</time>
      </trkpt>
      <trkpt lat="45.42855" lon="4.08274">
        <ele>823.51</ele>
        <time>2022-04-30T12:06:42Z</time>
      </trkpt>
      <trkpt lat="45.42876" lon="4.08273">
        <ele>824.47</ele>
        <time>2022-04-30T12:06:54Z</time>
      </trkpt>
      <trkpt lat="45.42894" lon="4.08272">
        <ele>825.91</ele>
        <time>2022-04-30T12:07:04Z</time>
      </trkpt>
      <trkpt lat="45.42904" lon="4.08273">
        <ele>827.83</ele>
        <time>2022-04-30T12:07:12Z</time>
      </trkpt>
      <trkpt lat="45.42906" lon="4.08274">
        <ele>828.31</ele>
        <time>2022-04-30T12:07:13Z</time>
      </trkpt>
      <trkpt lat="45.42909" lon="4.08274">
        <ele>828.31</ele>
        <time>2022-04-30T12:07:14Z</time>
      </trkpt>
      <trkpt lat="45.42911" lon="4.08274">
        <ele>828.79</ele>
        <time>2022-04-30T12:07:15Z</time>
      </trkpt>
      <trkpt lat="45.42912" lon="4.08275">
        <ele>828.79</ele>
        <time>2022-04-30T12:07:16Z</time>
      </trkpt>
      <trkpt lat="45.42929" lon="4.08282">
        <ele>828.79</ele>
        <time>2022-04-30T12:07:27Z</time>
      </trkpt>
      <trkpt lat="45.42931" lon="4.08282">
        <ele>828.31</ele>
        <time>2022-04-30T12:07:28Z</time>
      </trkpt>
      <trkpt lat="45.42944" lon="4.0828">
        <ele>827.35</ele>
        <time>2022-04-30T12:07:40Z</time>
      </trkpt>
      <trkpt lat="45.42959" lon="4.08277">
        <ele>825.91</ele>
        <time>2022-04-30T12:07:53Z</time>
      </trkpt>
      <trkpt lat="45.42974" lon="4.08272">
        <ele>829.27</ele>
        <time>2022-04-30T12:08:08Z</time>
      </trkpt>
      <trkpt lat="45.42987" lon="4.08266">
        <ele>834.08</ele>
        <time>2022-04-30T12:08:21Z</time>
      </trkpt>
      <trkpt lat="45.42999" lon="4.08258">
        <ele>836</ele>
        <time>2022-04-30T12:08:31Z</time>
      </trkpt>
      <trkpt lat="45.43011" lon="4.0825">
        <ele>838.89</ele>
        <time>2022-04-30T12:08:42Z</time>
      </trkpt>
      <trkpt lat="45.43014" lon="4.08245">
        <ele>840.33</ele>
        <time>2022-04-30T12:08:46Z</time>
      </trkpt>
      <trkpt lat="45.43036" lon="4.08215">
        <ele>837.93</ele>
        <time>2022-04-30T12:08:57Z</time>
      </trkpt>
      <trkpt lat="45.43038" lon="4.08211">
        <ele>837.45</ele>
        <time>2022-04-30T12:08:58Z</time>
      </trkpt>
      <trkpt lat="45.43038" lon="4.08209">
        <ele>836.96</ele>
        <time>2022-04-30T12:08:59Z</time>
      </trkpt>
      <trkpt lat="45.43042" lon="4.08194">
        <ele>834.08</ele>
        <time>2022-04-30T12:09:06Z</time>
      </trkpt>
      <trkpt lat="45.43042" lon="4.08192">
        <ele>834.08</ele>
        <time>2022-04-30T12:09:07Z</time>
      </trkpt>
      <trkpt lat="45.43042" lon="4.08183">
        <ele>832.16</ele>
        <time>2022-04-30T12:09:11Z</time>
      </trkpt>
      <trkpt lat="45.43042" lon="4.08181">
        <ele>831.68</ele>
        <time>2022-04-30T12:09:12Z</time>
      </trkpt>
      <trkpt lat="45.43044" lon="4.0816">
        <ele>830.24</ele>
        <time>2022-04-30T12:09:23Z</time>
      </trkpt>
      <trkpt lat="45.43044" lon="4.08157">
        <ele>830.72</ele>
        <time>2022-04-30T12:09:24Z</time>
      </trkpt>
      <trkpt lat="45.43043" lon="4.08155">
        <ele>830.24</ele>
        <time>2022-04-30T12:09:25Z</time>
      </trkpt>
      <trkpt lat="45.43043" lon="4.08153">
        <ele>830.24</ele>
        <time>2022-04-30T12:09:26Z</time>
      </trkpt>
      <trkpt lat="45.43044" lon="4.0815">
        <ele>829.76</ele>
        <time>2022-04-30T12:09:27Z</time>
      </trkpt>
      <trkpt lat="45.43044" lon="4.0814">
        <ele>829.27</ele>
        <time>2022-04-30T12:09:32Z</time>
      </trkpt>
      <trkpt lat="45.43046" lon="4.08129">
        <ele>829.27</ele>
        <time>2022-04-30T12:09:38Z</time>
      </trkpt>
      <trkpt lat="45.43047" lon="4.08108">
        <ele>830.24</ele>
        <time>2022-04-30T12:09:49Z</time>
      </trkpt>
      <trkpt lat="45.43049" lon="4.08085">
        <ele>830.72</ele>
        <time>2022-04-30T12:10:02Z</time>
      </trkpt>
      <trkpt lat="45.43052" lon="4.08065">
        <ele>827.83</ele>
        <time>2022-04-30T12:10:12Z</time>
      </trkpt>
      <trkpt lat="45.43056" lon="4.08042">
        <ele>826.39</ele>
        <time>2022-04-30T12:10:24Z</time>
      </trkpt>
      <trkpt lat="45.43062" lon="4.08013">
        <ele>821.58</ele>
        <time>2022-04-30T12:10:36Z</time>
      </trkpt>
      <trkpt lat="45.43064" lon="4.07992">
        <ele>819.66</ele>
        <time>2022-04-30T12:10:46Z</time>
      </trkpt>
      <trkpt lat="45.43065" lon="4.07978">
        <ele>816.78</ele>
        <time>2022-04-30T12:10:54Z</time>
      </trkpt>
      <trkpt lat="45.43065" lon="4.07963">
        <ele>813.89</ele>
        <time>2022-04-30T12:11:01Z</time>
      </trkpt>
      <trkpt lat="45.43065" lon="4.07961">
        <ele>813.41</ele>
        <time>2022-04-30T12:11:02Z</time>
      </trkpt>
      <trkpt lat="45.43066" lon="4.07958">
        <ele>812.93</ele>
        <time>2022-04-30T12:11:03Z</time>
      </trkpt>
      <trkpt lat="45.43066" lon="4.07956">
        <ele>812.45</ele>
        <time>2022-04-30T12:11:04Z</time>
      </trkpt>
      <trkpt lat="45.43067" lon="4.07953">
        <ele>811.97</ele>
        <time>2022-04-30T12:11:05Z</time>
      </trkpt>
      <trkpt lat="45.43067" lon="4.07951">
        <ele>811.01</ele>
        <time>2022-04-30T12:11:06Z</time>
      </trkpt>
      <trkpt lat="45.43068" lon="4.07949">
        <ele>811.01</ele>
        <time>2022-04-30T12:11:07Z</time>
      </trkpt>
      <trkpt lat="45.43069" lon="4.07947">
        <ele>810.53</ele>
        <time>2022-04-30T12:11:08Z</time>
      </trkpt>
      <trkpt lat="45.4307" lon="4.07945">
        <ele>810.53</ele>
        <time>2022-04-30T12:11:09Z</time>
      </trkpt>
      <trkpt lat="45.4307" lon="4.07943">
        <ele>810.05</ele>
        <time>2022-04-30T12:11:10Z</time>
      </trkpt>
      <trkpt lat="45.43071" lon="4.07941">
        <ele>809.57</ele>
        <time>2022-04-30T12:11:11Z</time>
      </trkpt>
      <trkpt lat="45.43072" lon="4.07939">
        <ele>809.09</ele>
        <time>2022-04-30T12:11:12Z</time>
      </trkpt>
      <trkpt lat="45.43079" lon="4.07928">
        <ele>806.68</ele>
        <time>2022-04-30T12:11:27Z</time>
      </trkpt>
      <trkpt lat="45.43088" lon="4.07903">
        <ele>808.61</ele>
        <time>2022-04-30T12:11:38Z</time>
      </trkpt>
      <trkpt lat="45.43089" lon="4.07897">
        <ele>809.09</ele>
        <time>2022-04-30T12:11:39Z</time>
      </trkpt>
      <trkpt lat="45.4309" lon="4.0789">
        <ele>809.57</ele>
        <time>2022-04-30T12:11:40Z</time>
      </trkpt>
      <trkpt lat="45.4309" lon="4.07883">
        <ele>809.57</ele>
        <time>2022-04-30T12:11:41Z</time>
      </trkpt>
      <trkpt lat="45.43088" lon="4.07875">
        <ele>809.57</ele>
        <time>2022-04-30T12:11:42Z</time>
      </trkpt>
      <trkpt lat="45.43085" lon="4.07868">
        <ele>809.57</ele>
        <time>2022-04-30T12:11:43Z</time>
      </trkpt>
      <trkpt lat="45.43067" lon="4.0783">
        <ele>807.64</ele>
        <time>2022-04-30T12:11:48Z</time>
      </trkpt>
      <trkpt lat="45.43063" lon="4.07823">
        <ele>807.64</ele>
        <time>2022-04-30T12:11:49Z</time>
      </trkpt>
      <trkpt lat="45.43012" lon="4.07752">
        <ele>805.72</ele>
        <time>2022-04-30T12:11:59Z</time>
      </trkpt>
      <trkpt lat="45.43009" lon="4.07745">
        <ele>805.24</ele>
        <time>2022-04-30T12:12:00Z</time>
      </trkpt>
      <trkpt lat="45.43006" lon="4.07734">
        <ele>804.28</ele>
        <time>2022-04-30T12:12:03Z</time>
      </trkpt>
      <trkpt lat="45.43003" lon="4.07731">
        <ele>803.8</ele>
        <time>2022-04-30T12:12:13Z</time>
      </trkpt>
      <trkpt lat="45.43003" lon="4.07733">
        <ele>803.8</ele>
        <time>2022-04-30T12:12:20Z</time>
      </trkpt>
      <trkpt lat="45.43011" lon="4.07755">
        <ele>803.32</ele>
        <time>2022-04-30T12:12:35Z</time>
      </trkpt>
      <trkpt lat="45.4301" lon="4.07759">
        <ele>803.8</ele>
        <time>2022-04-30T12:12:58Z</time>
      </trkpt>
      <trkpt lat="45.43011" lon="4.07759">
        <ele>804.28</ele>
        <time>2022-04-30T12:13:26Z</time>
      </trkpt>
      <trkpt lat="45.43009" lon="4.07756">
        <ele>803.8</ele>
        <time>2022-04-30T12:13:52Z</time>
      </trkpt>
      <trkpt lat="45.43007" lon="4.07755">
        <ele>803.8</ele>
        <time>2022-04-30T12:14:10Z</time>
      </trkpt>
      <trkpt lat="45.43007" lon="4.07753">
        <ele>804.76</ele>
        <time>2022-04-30T12:14:18Z</time>
      </trkpt>
      <trkpt lat="45.43003" lon="4.07739">
        <ele>804.76</ele>
        <time>2022-04-30T12:14:27Z</time>
      </trkpt>
      <trkpt lat="45.43002" lon="4.07712">
        <ele>807.64</ele>
        <time>2022-04-30T12:14:43Z</time>
      </trkpt>
      <trkpt lat="45.43001" lon="4.07709">
        <ele>807.64</ele>
        <time>2022-04-30T12:14:59Z</time>
      </trkpt>
      <trkpt lat="45.42999" lon="4.07707">
        <ele>807.16</ele>
        <time>2022-04-30T12:15:22Z</time>
      </trkpt>
      <trkpt lat="45.42998" lon="4.07701">
        <ele>806.68</ele>
        <time>2022-04-30T12:15:44Z</time>
      </trkpt>
      <trkpt lat="45.42996" lon="4.07671">
        <ele>809.09</ele>
        <time>2022-04-30T12:16:00Z</time>
      </trkpt>
      <trkpt lat="45.42995" lon="4.07634">
        <ele>810.05</ele>
        <time>2022-04-30T12:16:12Z</time>
      </trkpt>
      <trkpt lat="45.42992" lon="4.07612">
        <ele>810.53</ele>
        <time>2022-04-30T12:16:16Z</time>
      </trkpt>
      <trkpt lat="45.42991" lon="4.07606">
        <ele>810.53</ele>
        <time>2022-04-30T12:16:17Z</time>
      </trkpt>
      <trkpt lat="45.4299" lon="4.076">
        <ele>810.53</ele>
        <time>2022-04-30T12:16:18Z</time>
      </trkpt>
      <trkpt lat="45.4299" lon="4.07595">
        <ele>810.53</ele>
        <time>2022-04-30T12:16:19Z</time>
      </trkpt>
      <trkpt lat="45.4299" lon="4.0759">
        <ele>810.53</ele>
        <time>2022-04-30T12:16:20Z</time>
      </trkpt>
      <trkpt lat="45.4299" lon="4.07585">
        <ele>811.01</ele>
        <time>2022-04-30T12:16:21Z</time>
      </trkpt>
      <trkpt lat="45.42994" lon="4.07548">
        <ele>814.37</ele>
        <time>2022-04-30T12:16:28Z</time>
      </trkpt>
      <trkpt lat="45.42997" lon="4.07544">
        <ele>814.85</ele>
        <time>2022-04-30T12:16:29Z</time>
      </trkpt>
      <trkpt lat="45.43" lon="4.07542">
        <ele>815.34</ele>
        <time>2022-04-30T12:16:30Z</time>
      </trkpt>
      <trkpt lat="45.43004" lon="4.07542">
        <ele>815.82</ele>
        <time>2022-04-30T12:16:31Z</time>
      </trkpt>
      <trkpt lat="45.43009" lon="4.07542">
        <ele>815.82</ele>
        <time>2022-04-30T12:16:32Z</time>
      </trkpt>
      <trkpt lat="45.43014" lon="4.07542">
        <ele>816.3</ele>
        <time>2022-04-30T12:16:33Z</time>
      </trkpt>
      <trkpt lat="45.43018" lon="4.07544">
        <ele>816.78</ele>
        <time>2022-04-30T12:16:34Z</time>
      </trkpt>
      <trkpt lat="45.43023" lon="4.07546">
        <ele>816.78</ele>
        <time>2022-04-30T12:16:35Z</time>
      </trkpt>
      <trkpt lat="45.43027" lon="4.07546">
        <ele>816.78</ele>
        <time>2022-04-30T12:16:36Z</time>
      </trkpt>
      <trkpt lat="45.43032" lon="4.07543">
        <ele>817.26</ele>
        <time>2022-04-30T12:16:37Z</time>
      </trkpt>
      <trkpt lat="45.43036" lon="4.07538">
        <ele>817.74</ele>
        <time>2022-04-30T12:16:38Z</time>
      </trkpt>
      <trkpt lat="45.43039" lon="4.07532">
        <ele>817.74</ele>
        <time>2022-04-30T12:16:39Z</time>
      </trkpt>
      <trkpt lat="45.43042" lon="4.07526">
        <ele>818.22</ele>
        <time>2022-04-30T12:16:40Z</time>
      </trkpt>
      <trkpt lat="45.43045" lon="4.07521">
        <ele>818.22</ele>
        <time>2022-04-30T12:16:41Z</time>
      </trkpt>
      <trkpt lat="45.43066" lon="4.07494">
        <ele>820.62</ele>
        <time>2022-04-30T12:16:50Z</time>
      </trkpt>
      <trkpt lat="45.43086" lon="4.07497">
        <ele>823.03</ele>
        <time>2022-04-30T12:17:06Z</time>
      </trkpt>
      <trkpt lat="45.43095" lon="4.07502">
        <ele>823.99</ele>
        <time>2022-04-30T12:17:13Z</time>
      </trkpt>
      <trkpt lat="45.43096" lon="4.07501">
        <ele>823.99</ele>
        <time>2022-04-30T12:17:14Z</time>
      </trkpt>
      <trkpt lat="45.43097" lon="4.07501">
        <ele>823.99</ele>
        <time>2022-04-30T12:17:15Z</time>
      </trkpt>
      <trkpt lat="45.43119" lon="4.07509">
        <ele>823.99</ele>
        <time>2022-04-30T12:17:26Z</time>
      </trkpt>
      <trkpt lat="45.43142" lon="4.07517">
        <ele>823.99</ele>
        <time>2022-04-30T12:17:42Z</time>
      </trkpt>
      <trkpt lat="45.43145" lon="4.07519">
        <ele>824.47</ele>
        <time>2022-04-30T12:17:45Z</time>
      </trkpt>
      <trkpt lat="45.43146" lon="4.07521">
        <ele>824.47</ele>
        <time>2022-04-30T12:17:46Z</time>
      </trkpt>
      <trkpt lat="45.43154" lon="4.07532">
        <ele>823.03</ele>
        <time>2022-04-30T12:17:56Z</time>
      </trkpt>
      <trkpt lat="45.43151" lon="4.0754">
        <ele>821.58</ele>
        <time>2022-04-30T12:18:01Z</time>
      </trkpt>
      <trkpt lat="45.4315" lon="4.07541">
        <ele>821.58</ele>
        <time>2022-04-30T12:18:02Z</time>
      </trkpt>
      <trkpt lat="45.43144" lon="4.07563">
        <ele>820.14</ele>
        <time>2022-04-30T12:18:12Z</time>
      </trkpt>
      <trkpt lat="45.43145" lon="4.07565">
        <ele>820.14</ele>
        <time>2022-04-30T12:18:13Z</time>
      </trkpt>
      <trkpt lat="45.43146" lon="4.07567">
        <ele>820.14</ele>
        <time>2022-04-30T12:18:14Z</time>
      </trkpt>
      <trkpt lat="45.43148" lon="4.07569">
        <ele>820.62</ele>
        <time>2022-04-30T12:18:15Z</time>
      </trkpt>
      <trkpt lat="45.43149" lon="4.07571">
        <ele>820.62</ele>
        <time>2022-04-30T12:18:16Z</time>
      </trkpt>
      <trkpt lat="45.4315" lon="4.07572">
        <ele>821.1</ele>
        <time>2022-04-30T12:18:17Z</time>
      </trkpt>
      <trkpt lat="45.43173" lon="4.07589">
        <ele>820.14</ele>
        <time>2022-04-30T12:18:35Z</time>
      </trkpt>
      <trkpt lat="45.43199" lon="4.07604">
        <ele>820.14</ele>
        <time>2022-04-30T12:18:54Z</time>
      </trkpt>
      <trkpt lat="45.4322" lon="4.07626">
        <ele>822.55</ele>
        <time>2022-04-30T12:19:07Z</time>
      </trkpt>
      <trkpt lat="45.43222" lon="4.07627">
        <ele>822.55</ele>
        <time>2022-04-30T12:19:08Z</time>
      </trkpt>
      <trkpt lat="45.43225" lon="4.07625">
        <ele>823.03</ele>
        <time>2022-04-30T12:19:09Z</time>
      </trkpt>
      <trkpt lat="45.43244" lon="4.07613">
        <ele>824.95</ele>
        <time>2022-04-30T12:19:23Z</time>
      </trkpt>
      <trkpt lat="45.4325" lon="4.07608">
        <ele>826.39</ele>
        <time>2022-04-30T12:19:29Z</time>
      </trkpt>
      <trkpt lat="45.43264" lon="4.07611">
        <ele>831.2</ele>
        <time>2022-04-30T12:19:40Z</time>
      </trkpt>
      <trkpt lat="45.43288" lon="4.07614">
        <ele>833.12</ele>
        <time>2022-04-30T12:19:58Z</time>
      </trkpt>
      <trkpt lat="45.43307" lon="4.07619">
        <ele>830.24</ele>
        <time>2022-04-30T12:20:12Z</time>
      </trkpt>
      <trkpt lat="45.43308" lon="4.07621">
        <ele>829.76</ele>
        <time>2022-04-30T12:20:13Z</time>
      </trkpt>
      <trkpt lat="45.4331" lon="4.07621">
        <ele>829.76</ele>
        <time>2022-04-30T12:20:14Z</time>
      </trkpt>
      <trkpt lat="45.43311" lon="4.07622">
        <ele>829.76</ele>
        <time>2022-04-30T12:20:15Z</time>
      </trkpt>
      <trkpt lat="45.43312" lon="4.07623">
        <ele>829.76</ele>
        <time>2022-04-30T12:20:16Z</time>
      </trkpt>
      <trkpt lat="45.43314" lon="4.07624">
        <ele>829.76</ele>
        <time>2022-04-30T12:20:17Z</time>
      </trkpt>
      <trkpt lat="45.43315" lon="4.07625">
        <ele>829.27</ele>
        <time>2022-04-30T12:20:18Z</time>
      </trkpt>
      <trkpt lat="45.43339" lon="4.07645">
        <ele>826.87</ele>
        <time>2022-04-30T12:20:31Z</time>
      </trkpt>
      <trkpt lat="45.43353" lon="4.07659">
        <ele>823.51</ele>
        <time>2022-04-30T12:20:41Z</time>
      </trkpt>
      <trkpt lat="45.4337" lon="4.07671">
        <ele>822.06</ele>
        <time>2022-04-30T12:20:54Z</time>
      </trkpt>
      <trkpt lat="45.43371" lon="4.07672">
        <ele>821.58</ele>
        <time>2022-04-30T12:20:55Z</time>
      </trkpt>
      <trkpt lat="45.43372" lon="4.07673">
        <ele>821.58</ele>
        <time>2022-04-30T12:20:56Z</time>
      </trkpt>
      <trkpt lat="45.43373" lon="4.07673">
        <ele>821.58</ele>
        <time>2022-04-30T12:20:57Z</time>
      </trkpt>
      <trkpt lat="45.43375" lon="4.07674">
        <ele>821.1</ele>
        <time>2022-04-30T12:20:58Z</time>
      </trkpt>
      <trkpt lat="45.43376" lon="4.07674">
        <ele>820.62</ele>
        <time>2022-04-30T12:20:59Z</time>
      </trkpt>
      <trkpt lat="45.43402" lon="4.07682">
        <ele>817.74</ele>
        <time>2022-04-30T12:21:17Z</time>
      </trkpt>
      <trkpt lat="45.43438" lon="4.07699">
        <ele>815.82</ele>
        <time>2022-04-30T12:21:28Z</time>
      </trkpt>
      <trkpt lat="45.43498" lon="4.07718">
        <ele>813.41</ele>
        <time>2022-04-30T12:21:40Z</time>
      </trkpt>
      <trkpt lat="45.43503" lon="4.07715">
        <ele>812.93</ele>
        <time>2022-04-30T12:21:41Z</time>
      </trkpt>
      <trkpt lat="45.43528" lon="4.07697">
        <ele>810.53</ele>
        <time>2022-04-30T12:21:46Z</time>
      </trkpt>
      <trkpt lat="45.43534" lon="4.07694">
        <ele>810.05</ele>
        <time>2022-04-30T12:21:47Z</time>
      </trkpt>
      <trkpt lat="45.4354" lon="4.07693">
        <ele>810.05</ele>
        <time>2022-04-30T12:21:48Z</time>
      </trkpt>
      <trkpt lat="45.43614" lon="4.07697">
        <ele>809.09</ele>
        <time>2022-04-30T12:21:58Z</time>
      </trkpt>
      <trkpt lat="45.43697" lon="4.07705">
        <ele>812.45</ele>
        <time>2022-04-30T12:22:09Z</time>
      </trkpt>
      <trkpt lat="45.43703" lon="4.07707">
        <ele>812.93</ele>
        <time>2022-04-30T12:22:10Z</time>
      </trkpt>
      <trkpt lat="45.43741" lon="4.07718">
        <ele>814.85</ele>
        <time>2022-04-30T12:22:17Z</time>
      </trkpt>
      <trkpt lat="45.43746" lon="4.0772">
        <ele>814.85</ele>
        <time>2022-04-30T12:22:18Z</time>
      </trkpt>
      <trkpt lat="45.43765" lon="4.07725">
        <ele>815.82</ele>
        <time>2022-04-30T12:22:24Z</time>
      </trkpt>
      <trkpt lat="45.43766" lon="4.07723">
        <ele>815.34</ele>
        <time>2022-04-30T12:22:25Z</time>
      </trkpt>
      <trkpt lat="45.43766" lon="4.07719">
        <ele>813.89</ele>
        <time>2022-04-30T12:22:35Z</time>
      </trkpt>
      <trkpt lat="45.43768" lon="4.07718">
        <ele>814.85</ele>
        <time>2022-04-30T12:22:50Z</time>
      </trkpt>
      <trkpt lat="45.43768" lon="4.07717">
        <ele>815.34</ele>
        <time>2022-04-30T12:23:02Z</time>
      </trkpt>
      <trkpt lat="45.43761" lon="4.07715">
        <ele>815.82</ele>
        <time>2022-04-30T12:23:07Z</time>
      </trkpt>
      <trkpt lat="45.43755" lon="4.07716">
        <ele>816.78</ele>
        <time>2022-04-30T12:23:12Z</time>
      </trkpt>
      <trkpt lat="45.43754" lon="4.07719">
        <ele>815.82</ele>
        <time>2022-04-30T12:23:23Z</time>
      </trkpt>
      <trkpt lat="45.43747" lon="4.07716">
        <ele>816.3</ele>
        <time>2022-04-30T12:23:29Z</time>
      </trkpt>
      <trkpt lat="45.43722" lon="4.07707">
        <ele>817.26</ele>
        <time>2022-04-30T12:23:47Z</time>
      </trkpt>
      <trkpt lat="45.43713" lon="4.07706">
        <ele>816.78</ele>
        <time>2022-04-30T12:23:57Z</time>
      </trkpt>
      <trkpt lat="45.43702" lon="4.07702">
        <ele>816.3</ele>
        <time>2022-04-30T12:24:06Z</time>
      </trkpt>
      <trkpt lat="45.43697" lon="4.07699">
        <ele>815.82</ele>
        <time>2022-04-30T12:24:10Z</time>
      </trkpt>
      <trkpt lat="45.43672" lon="4.07693">
        <ele>812.45</ele>
        <time>2022-04-30T12:24:28Z</time>
      </trkpt>
      <trkpt lat="45.43651" lon="4.07689">
        <ele>811.01</ele>
        <time>2022-04-30T12:24:44Z</time>
      </trkpt>
      <trkpt lat="45.43628" lon="4.07689">
        <ele>811.01</ele>
        <time>2022-04-30T12:25:01Z</time>
      </trkpt>
      <trkpt lat="45.43606" lon="4.07688">
        <ele>810.05</ele>
        <time>2022-04-30T12:25:17Z</time>
      </trkpt>
      <trkpt lat="45.43602" lon="4.07687">
        <ele>810.05</ele>
        <time>2022-04-30T12:25:21Z</time>
      </trkpt>
      <trkpt lat="45.43595" lon="4.07683">
        <ele>811.01</ele>
        <time>2022-04-30T12:25:39Z</time>
      </trkpt>
      <trkpt lat="45.43594" lon="4.07684">
        <ele>812.45</ele>
        <time>2022-04-30T12:26:16Z</time>
      </trkpt>
      <trkpt lat="45.43596" lon="4.07688">
        <ele>809.57</ele>
        <time>2022-04-30T12:26:40Z</time>
      </trkpt>
      <trkpt lat="45.43597" lon="4.07686">
        <ele>807.16</ele>
        <time>2022-04-30T12:27:08Z</time>
      </trkpt>
      <trkpt lat="45.43593" lon="4.07688">
        <ele>808.13</ele>
        <time>2022-04-30T12:27:31Z</time>
      </trkpt>
      <trkpt lat="45.43594" lon="4.07691">
        <ele>808.13</ele>
        <time>2022-04-30T12:27:34Z</time>
      </trkpt>
      <trkpt lat="45.43619" lon="4.07695">
        <ele>809.09</ele>
        <time>2022-04-30T12:27:53Z</time>
      </trkpt>
      <trkpt lat="45.43646" lon="4.07696">
        <ele>810.05</ele>
        <time>2022-04-30T12:28:13Z</time>
      </trkpt>
      <trkpt lat="45.43668" lon="4.07698">
        <ele>811.97</ele>
        <time>2022-04-30T12:28:28Z</time>
      </trkpt>
      <trkpt lat="45.43698" lon="4.07706">
        <ele>813.41</ele>
        <time>2022-04-30T12:28:49Z</time>
      </trkpt>
      <trkpt lat="45.43722" lon="4.07713">
        <ele>816.3</ele>
        <time>2022-04-30T12:29:02Z</time>
      </trkpt>
      <trkpt lat="45.43746" lon="4.07721">
        <ele>815.82</ele>
        <time>2022-04-30T12:29:20Z</time>
      </trkpt>
      <trkpt lat="45.43769" lon="4.0773">
        <ele>816.78</ele>
        <time>2022-04-30T12:29:38Z</time>
      </trkpt>
      <trkpt lat="45.43781" lon="4.07721">
        <ele>815.34</ele>
        <time>2022-04-30T12:29:48Z</time>
      </trkpt>
      <trkpt lat="45.43781" lon="4.07719">
        <ele>814.85</ele>
        <time>2022-04-30T12:29:49Z</time>
      </trkpt>
      <trkpt lat="45.43781" lon="4.07716">
        <ele>814.37</ele>
        <time>2022-04-30T12:29:50Z</time>
      </trkpt>
      <trkpt lat="45.43782" lon="4.07714">
        <ele>813.89</ele>
        <time>2022-04-30T12:29:51Z</time>
      </trkpt>
      <trkpt lat="45.43781" lon="4.07711">
        <ele>813.41</ele>
        <time>2022-04-30T12:29:52Z</time>
      </trkpt>
      <trkpt lat="45.43781" lon="4.07708">
        <ele>813.41</ele>
        <time>2022-04-30T12:29:53Z</time>
      </trkpt>
      <trkpt lat="45.43779" lon="4.07675">
        <ele>812.45</ele>
        <time>2022-04-30T12:30:10Z</time>
      </trkpt>
      <trkpt lat="45.43777" lon="4.07645">
        <ele>811.97</ele>
        <time>2022-04-30T12:30:25Z</time>
      </trkpt>
      <trkpt lat="45.43771" lon="4.07614">
        <ele>813.89</ele>
        <time>2022-04-30T12:30:40Z</time>
      </trkpt>
      <trkpt lat="45.43767" lon="4.07606">
        <ele>813.89</ele>
        <time>2022-04-30T12:30:46Z</time>
      </trkpt>
      <trkpt lat="45.43771" lon="4.07609">
        <ele>812.93</ele>
        <time>2022-04-30T12:30:50Z</time>
      </trkpt>
      <trkpt lat="45.4379" lon="4.07632">
        <ele>810.05</ele>
        <time>2022-04-30T12:31:09Z</time>
      </trkpt>
      <trkpt lat="45.4381" lon="4.07643">
        <ele>808.61</ele>
        <time>2022-04-30T12:31:24Z</time>
      </trkpt>
      <trkpt lat="45.43835" lon="4.07647">
        <ele>807.16</ele>
        <time>2022-04-30T12:31:41Z</time>
      </trkpt>
      <trkpt lat="45.4386" lon="4.07636">
        <ele>806.68</ele>
        <time>2022-04-30T12:31:58Z</time>
      </trkpt>
      <trkpt lat="45.43881" lon="4.07624">
        <ele>808.13</ele>
        <time>2022-04-30T12:32:16Z</time>
      </trkpt>
      <trkpt lat="45.439" lon="4.07616">
        <ele>809.09</ele>
        <time>2022-04-30T12:32:30Z</time>
      </trkpt>
      <trkpt lat="45.43922" lon="4.07609">
        <ele>806.68</ele>
        <time>2022-04-30T12:32:44Z</time>
      </trkpt>
      <trkpt lat="45.43938" lon="4.07598">
        <ele>804.28</ele>
        <time>2022-04-30T12:32:58Z</time>
      </trkpt>
      <trkpt lat="45.43952" lon="4.07591">
        <ele>803.8</ele>
        <time>2022-04-30T12:33:09Z</time>
      </trkpt>
      <trkpt lat="45.43971" lon="4.07584">
        <ele>803.32</ele>
        <time>2022-04-30T12:33:20Z</time>
      </trkpt>
      <trkpt lat="45.43982" lon="4.07581">
        <ele>802.84</ele>
        <time>2022-04-30T12:33:29Z</time>
      </trkpt>
      <trkpt lat="45.44004" lon="4.07577">
        <ele>801.4</ele>
        <time>2022-04-30T12:33:44Z</time>
      </trkpt>
      <trkpt lat="45.44031" lon="4.07581">
        <ele>799.95</ele>
        <time>2022-04-30T12:34:02Z</time>
      </trkpt>
      <trkpt lat="45.44045" lon="4.07583">
        <ele>796.59</ele>
        <time>2022-04-30T12:34:15Z</time>
      </trkpt>
      <trkpt lat="45.44068" lon="4.07581">
        <ele>794.67</ele>
        <time>2022-04-30T12:34:31Z</time>
      </trkpt>
      <trkpt lat="45.44085" lon="4.07574">
        <ele>797.07</ele>
        <time>2022-04-30T12:34:43Z</time>
      </trkpt>
      <trkpt lat="45.44095" lon="4.07566">
        <ele>797.55</ele>
        <time>2022-04-30T12:34:49Z</time>
      </trkpt>
      <trkpt lat="45.4412" lon="4.07546">
        <ele>799.47</ele>
        <time>2022-04-30T12:35:04Z</time>
      </trkpt>
      <trkpt lat="45.44136" lon="4.07538">
        <ele>796.59</ele>
        <time>2022-04-30T12:35:16Z</time>
      </trkpt>
      <trkpt lat="45.44148" lon="4.07529">
        <ele>790.82</ele>
        <time>2022-04-30T12:35:30Z</time>
      </trkpt>
      <trkpt lat="45.44156" lon="4.07523">
        <ele>781.21</ele>
        <time>2022-04-30T12:35:45Z</time>
      </trkpt>
      <trkpt lat="45.44162" lon="4.07523">
        <ele>779.29</ele>
        <time>2022-04-30T12:35:50Z</time>
      </trkpt>
      <trkpt lat="45.44184" lon="4.07532">
        <ele>788.9</ele>
        <time>2022-04-30T12:36:01Z</time>
      </trkpt>
      <trkpt lat="45.44186" lon="4.07536">
        <ele>790.34</ele>
        <time>2022-04-30T12:36:04Z</time>
      </trkpt>
      <trkpt lat="45.44189" lon="4.0755">
        <ele>791.78</ele>
        <time>2022-04-30T12:36:11Z</time>
      </trkpt>
      <trkpt lat="45.442" lon="4.07574">
        <ele>790.34</ele>
        <time>2022-04-30T12:36:28Z</time>
      </trkpt>
      <trkpt lat="45.44194" lon="4.0759">
        <ele>790.34</ele>
        <time>2022-04-30T12:36:42Z</time>
      </trkpt>
      <trkpt lat="45.44193" lon="4.07594">
        <ele>790.34</ele>
        <time>2022-04-30T12:36:45Z</time>
      </trkpt>
      <trkpt lat="45.44192" lon="4.07601">
        <ele>790.82</ele>
        <time>2022-04-30T12:36:49Z</time>
      </trkpt>
      <trkpt lat="45.44193" lon="4.07618">
        <ele>792.26</ele>
        <time>2022-04-30T12:36:59Z</time>
      </trkpt>
      <trkpt lat="45.44191" lon="4.07624">
        <ele>792.74</ele>
        <time>2022-04-30T12:37:02Z</time>
      </trkpt>
      <trkpt lat="45.4419" lon="4.07632">
        <ele>793.22</ele>
        <time>2022-04-30T12:37:06Z</time>
      </trkpt>
      <trkpt lat="45.442" lon="4.0766">
        <ele>788.42</ele>
        <time>2022-04-30T12:37:17Z</time>
      </trkpt>
      <trkpt lat="45.44206" lon="4.0767">
        <ele>787.94</ele>
        <time>2022-04-30T12:37:26Z</time>
      </trkpt>
      <trkpt lat="45.44219" lon="4.07682">
        <ele>784.57</ele>
        <time>2022-04-30T12:37:39Z</time>
      </trkpt>
      <trkpt lat="45.44237" lon="4.07678">
        <ele>779.77</ele>
        <time>2022-04-30T12:37:51Z</time>
      </trkpt>
      <trkpt lat="45.44259" lon="4.07667">
        <ele>777.36</ele>
        <time>2022-04-30T12:38:05Z</time>
      </trkpt>
      <trkpt lat="45.44281" lon="4.07655">
        <ele>775.92</ele>
        <time>2022-04-30T12:38:19Z</time>
      </trkpt>
      <trkpt lat="45.44296" lon="4.0765">
        <ele>774.96</ele>
        <time>2022-04-30T12:38:33Z</time>
      </trkpt>
      <trkpt lat="45.44309" lon="4.07644">
        <ele>774.48</ele>
        <time>2022-04-30T12:38:46Z</time>
      </trkpt>
      <trkpt lat="45.44328" lon="4.07636">
        <ele>774.96</ele>
        <time>2022-04-30T12:38:58Z</time>
      </trkpt>
      <trkpt lat="45.44349" lon="4.07637">
        <ele>775.44</ele>
        <time>2022-04-30T12:39:11Z</time>
      </trkpt>
      <trkpt lat="45.44366" lon="4.07642">
        <ele>772.08</ele>
        <time>2022-04-30T12:39:24Z</time>
      </trkpt>
      <trkpt lat="45.4437" lon="4.07643">
        <ele>771.11</ele>
        <time>2022-04-30T12:39:27Z</time>
      </trkpt>
      <trkpt lat="45.44385" lon="4.07649">
        <ele>768.23</ele>
        <time>2022-04-30T12:39:38Z</time>
      </trkpt>
      <trkpt lat="45.44398" lon="4.07676">
        <ele>768.71</ele>
        <time>2022-04-30T12:39:55Z</time>
      </trkpt>
      <trkpt lat="45.444" lon="4.07683">
        <ele>769.19</ele>
        <time>2022-04-30T12:39:59Z</time>
      </trkpt>
      <trkpt lat="45.44403" lon="4.07691">
        <ele>768.71</ele>
        <time>2022-04-30T12:40:03Z</time>
      </trkpt>
      <trkpt lat="45.44404" lon="4.07698">
        <ele>768.23</ele>
        <time>2022-04-30T12:40:07Z</time>
      </trkpt>
      <trkpt lat="45.44411" lon="4.07715">
        <ele>764.39</ele>
        <time>2022-04-30T12:40:19Z</time>
      </trkpt>
      <trkpt lat="45.44411" lon="4.07726">
        <ele>763.9</ele>
        <time>2022-04-30T12:40:25Z</time>
      </trkpt>
      <trkpt lat="45.44414" lon="4.07749">
        <ele>762.94</ele>
        <time>2022-04-30T12:40:39Z</time>
      </trkpt>
      <trkpt lat="45.44416" lon="4.0776">
        <ele>761.5</ele>
        <time>2022-04-30T12:40:45Z</time>
      </trkpt>
      <trkpt lat="45.4442" lon="4.07776">
        <ele>758.62</ele>
        <time>2022-04-30T12:40:52Z</time>
      </trkpt>
      <trkpt lat="45.44424" lon="4.07788">
        <ele>758.14</ele>
        <time>2022-04-30T12:40:58Z</time>
      </trkpt>
      <trkpt lat="45.44436" lon="4.0781">
        <ele>753.81</ele>
        <time>2022-04-30T12:41:10Z</time>
      </trkpt>
      <trkpt lat="45.4445" lon="4.07824">
        <ele>751.89</ele>
        <time>2022-04-30T12:41:23Z</time>
      </trkpt>
      <trkpt lat="45.44469" lon="4.07836">
        <ele>749</ele>
        <time>2022-04-30T12:41:36Z</time>
      </trkpt>
      <trkpt lat="45.44492" lon="4.07842">
        <ele>745.64</ele>
        <time>2022-04-30T12:41:50Z</time>
      </trkpt>
      <trkpt lat="45.4452" lon="4.07852">
        <ele>744.68</ele>
        <time>2022-04-30T12:42:08Z</time>
      </trkpt>
      <trkpt lat="45.44541" lon="4.07871">
        <ele>743.24</ele>
        <time>2022-04-30T12:42:26Z</time>
      </trkpt>
      <trkpt lat="45.44556" lon="4.07893">
        <ele>741.31</ele>
        <time>2022-04-30T12:42:43Z</time>
      </trkpt>
      <trkpt lat="45.44563" lon="4.07904">
        <ele>740.83</ele>
        <time>2022-04-30T12:42:51Z</time>
      </trkpt>
      <trkpt lat="45.44581" lon="4.07928">
        <ele>739.39</ele>
        <time>2022-04-30T12:43:09Z</time>
      </trkpt>
      <trkpt lat="45.44589" lon="4.07937">
        <ele>737.95</ele>
        <time>2022-04-30T12:43:17Z</time>
      </trkpt>
      <trkpt lat="45.44619" lon="4.07944">
        <ele>736.51</ele>
        <time>2022-04-30T12:43:37Z</time>
      </trkpt>
      <trkpt lat="45.44634" lon="4.07947">
        <ele>737.47</ele>
        <time>2022-04-30T12:43:50Z</time>
      </trkpt>
      <trkpt lat="45.44644" lon="4.07947">
        <ele>733.14</ele>
        <time>2022-04-30T12:44:06Z</time>
      </trkpt>
      <trkpt lat="45.44647" lon="4.07948">
        <ele>733.62</ele>
        <time>2022-04-30T12:44:23Z</time>
      </trkpt>
      <trkpt lat="45.44657" lon="4.07955">
        <ele>733.62</ele>
        <time>2022-04-30T12:44:32Z</time>
      </trkpt>
      <trkpt lat="45.44664" lon="4.07956">
        <ele>732.18</ele>
        <time>2022-04-30T12:44:45Z</time>
      </trkpt>
      <trkpt lat="45.44676" lon="4.07963">
        <ele>727.37</ele>
        <time>2022-04-30T12:44:53Z</time>
      </trkpt>
      <trkpt lat="45.44693" lon="4.07966">
        <ele>721.61</ele>
        <time>2022-04-30T12:45:06Z</time>
      </trkpt>
      <trkpt lat="45.44693" lon="4.07971">
        <ele>721.13</ele>
        <time>2022-04-30T12:45:09Z</time>
      </trkpt>
      <trkpt lat="45.44698" lon="4.07974">
        <ele>720.16</ele>
        <time>2022-04-30T12:45:14Z</time>
      </trkpt>
      <trkpt lat="45.44709" lon="4.07975">
        <ele>721.13</ele>
        <time>2022-04-30T12:45:19Z</time>
      </trkpt>
      <trkpt lat="45.44717" lon="4.07978">
        <ele>720.16</ele>
        <time>2022-04-30T12:45:24Z</time>
      </trkpt>
      <trkpt lat="45.44724" lon="4.0798">
        <ele>719.2</ele>
        <time>2022-04-30T12:45:29Z</time>
      </trkpt>
      <trkpt lat="45.44744" lon="4.07989">
        <ele>719.2</ele>
        <time>2022-04-30T12:45:45Z</time>
      </trkpt>
      <trkpt lat="45.44758" lon="4.07992">
        <ele>716.8</ele>
        <time>2022-04-30T12:45:54Z</time>
      </trkpt>
      <trkpt lat="45.44779" lon="4.07995">
        <ele>712.95</ele>
        <time>2022-04-30T12:46:09Z</time>
      </trkpt>
      <trkpt lat="45.44799" lon="4.08004">
        <ele>711.03</ele>
        <time>2022-04-30T12:46:26Z</time>
      </trkpt>
      <trkpt lat="45.44815" lon="4.08015">
        <ele>709.59</ele>
        <time>2022-04-30T12:46:41Z</time>
      </trkpt>
      <trkpt lat="45.44822" lon="4.08017">
        <ele>707.67</ele>
        <time>2022-04-30T12:46:56Z</time>
      </trkpt>
      <trkpt lat="45.44827" lon="4.08015">
        <ele>706.23</ele>
        <time>2022-04-30T12:47:17Z</time>
      </trkpt>
      <trkpt lat="45.44825" lon="4.0802">
        <ele>708.15</ele>
        <time>2022-04-30T12:47:39Z</time>
      </trkpt>
      <trkpt lat="45.44824" lon="4.08021">
        <ele>708.63</ele>
        <time>2022-04-30T12:48:00Z</time>
      </trkpt>
      <trkpt lat="45.44837" lon="4.08023">
        <ele>704.78</ele>
        <time>2022-04-30T12:48:17Z</time>
      </trkpt>
      <trkpt lat="45.44866" lon="4.08025">
        <ele>703.34</ele>
        <time>2022-04-30T12:48:35Z</time>
      </trkpt>
      <trkpt lat="45.44885" lon="4.08022">
        <ele>704.78</ele>
        <time>2022-04-30T12:48:49Z</time>
      </trkpt>
      <trkpt lat="45.44907" lon="4.08017">
        <ele>706.23</ele>
        <time>2022-04-30T12:49:05Z</time>
      </trkpt>
      <trkpt lat="45.44931" lon="4.08013">
        <ele>710.07</ele>
        <time>2022-04-30T12:49:24Z</time>
      </trkpt>
      <trkpt lat="45.44938" lon="4.08011">
        <ele>713.92</ele>
        <time>2022-04-30T12:49:32Z</time>
      </trkpt>
      <trkpt lat="45.44943" lon="4.08006">
        <ele>715.36</ele>
        <time>2022-04-30T12:49:36Z</time>
      </trkpt>
      <trkpt lat="45.44962" lon="4.07989">
        <ele>719.2</ele>
        <time>2022-04-30T12:49:51Z</time>
      </trkpt>
      <trkpt lat="45.44977" lon="4.07975">
        <ele>722.09</ele>
        <time>2022-04-30T12:50:04Z</time>
      </trkpt>
      <trkpt lat="45.44989" lon="4.07966">
        <ele>724.97</ele>
        <time>2022-04-30T12:50:15Z</time>
      </trkpt>
      <trkpt lat="45.45013" lon="4.07962">
        <ele>729.3</ele>
        <time>2022-04-30T12:50:35Z</time>
      </trkpt>
      <trkpt lat="45.45017" lon="4.07962">
        <ele>731.22</ele>
        <time>2022-04-30T12:50:52Z</time>
      </trkpt>
      <trkpt lat="45.45027" lon="4.07958">
        <ele>731.7</ele>
        <time>2022-04-30T12:51:07Z</time>
      </trkpt>
      <trkpt lat="45.45037" lon="4.07955">
        <ele>732.18</ele>
        <time>2022-04-30T12:51:22Z</time>
      </trkpt>
      <trkpt lat="45.45044" lon="4.0796">
        <ele>728.82</ele>
        <time>2022-04-30T12:51:37Z</time>
      </trkpt>
      <trkpt lat="45.45043" lon="4.07964">
        <ele>727.86</ele>
        <time>2022-04-30T12:51:40Z</time>
      </trkpt>
      <trkpt lat="45.45058" lon="4.0798">
        <ele>726.41</ele>
        <time>2022-04-30T12:51:54Z</time>
      </trkpt>
      <trkpt lat="45.45061" lon="4.0798">
        <ele>725.93</ele>
        <time>2022-04-30T12:51:56Z</time>
      </trkpt>
      <trkpt lat="45.45068" lon="4.07982">
        <ele>725.45</ele>
        <time>2022-04-30T12:52:01Z</time>
      </trkpt>
      <trkpt lat="45.45088" lon="4.07971">
        <ele>727.86</ele>
        <time>2022-04-30T12:52:16Z</time>
      </trkpt>
      <trkpt lat="45.45109" lon="4.07966">
        <ele>728.34</ele>
        <time>2022-04-30T12:52:32Z</time>
      </trkpt>
      <trkpt lat="45.45137" lon="4.07975">
        <ele>727.86</ele>
        <time>2022-04-30T12:52:50Z</time>
      </trkpt>
      <trkpt lat="45.45158" lon="4.07974">
        <ele>727.86</ele>
        <time>2022-04-30T12:53:02Z</time>
      </trkpt>
      <trkpt lat="45.45159" lon="4.07973">
        <ele>727.86</ele>
        <time>2022-04-30T12:53:03Z</time>
      </trkpt>
      <trkpt lat="45.45169" lon="4.07968">
        <ele>727.37</ele>
        <time>2022-04-30T12:53:12Z</time>
      </trkpt>
      <trkpt lat="45.45173" lon="4.07963">
        <ele>727.86</ele>
        <time>2022-04-30T12:53:16Z</time>
      </trkpt>
      <trkpt lat="45.45175" lon="4.07962">
        <ele>727.86</ele>
        <time>2022-04-30T12:53:18Z</time>
      </trkpt>
      <trkpt lat="45.45176" lon="4.07962">
        <ele>727.86</ele>
        <time>2022-04-30T12:53:19Z</time>
      </trkpt>
      <trkpt lat="45.45178" lon="4.07961">
        <ele>727.86</ele>
        <time>2022-04-30T12:53:20Z</time>
      </trkpt>
      <trkpt lat="45.4518" lon="4.0796">
        <ele>727.86</ele>
        <time>2022-04-30T12:53:21Z</time>
      </trkpt>
      <trkpt lat="45.45181" lon="4.0796">
        <ele>727.86</ele>
        <time>2022-04-30T12:53:22Z</time>
      </trkpt>
      <trkpt lat="45.45183" lon="4.07959">
        <ele>727.86</ele>
        <time>2022-04-30T12:53:23Z</time>
      </trkpt>
      <trkpt lat="45.45207" lon="4.07946">
        <ele>728.34</ele>
        <time>2022-04-30T12:53:37Z</time>
      </trkpt>
      <trkpt lat="45.45222" lon="4.07946">
        <ele>728.34</ele>
        <time>2022-04-30T12:53:51Z</time>
      </trkpt>
      <trkpt lat="45.45241" lon="4.07959">
        <ele>721.61</ele>
        <time>2022-04-30T12:54:05Z</time>
      </trkpt>
      <trkpt lat="45.45252" lon="4.07971">
        <ele>717.76</ele>
        <time>2022-04-30T12:54:14Z</time>
      </trkpt>
      <trkpt lat="45.45253" lon="4.07973">
        <ele>717.76</ele>
        <time>2022-04-30T12:54:15Z</time>
      </trkpt>
      <trkpt lat="45.45254" lon="4.07974">
        <ele>717.76</ele>
        <time>2022-04-30T12:54:16Z</time>
      </trkpt>
      <trkpt lat="45.45255" lon="4.07976">
        <ele>717.76</ele>
        <time>2022-04-30T12:54:17Z</time>
      </trkpt>
      <trkpt lat="45.45256" lon="4.07978">
        <ele>717.76</ele>
        <time>2022-04-30T12:54:18Z</time>
      </trkpt>
      <trkpt lat="45.45256" lon="4.07979">
        <ele>717.76</ele>
        <time>2022-04-30T12:54:19Z</time>
      </trkpt>
      <trkpt lat="45.45263" lon="4.08002">
        <ele>717.28</ele>
        <time>2022-04-30T12:54:30Z</time>
      </trkpt>
      <trkpt lat="45.45263" lon="4.08003">
        <ele>717.28</ele>
        <time>2022-04-30T12:54:31Z</time>
      </trkpt>
      <trkpt lat="45.45262" lon="4.08006">
        <ele>717.28</ele>
        <time>2022-04-30T12:54:32Z</time>
      </trkpt>
      <trkpt lat="45.45261" lon="4.08007">
        <ele>717.28</ele>
        <time>2022-04-30T12:54:33Z</time>
      </trkpt>
      <trkpt lat="45.4526" lon="4.08009">
        <ele>717.28</ele>
        <time>2022-04-30T12:54:34Z</time>
      </trkpt>
      <trkpt lat="45.45259" lon="4.08011">
        <ele>717.28</ele>
        <time>2022-04-30T12:54:35Z</time>
      </trkpt>
      <trkpt lat="45.45234" lon="4.08045">
        <ele>718.24</ele>
        <time>2022-04-30T12:54:48Z</time>
      </trkpt>
      <trkpt lat="45.45219" lon="4.08071">
        <ele>718.72</ele>
        <time>2022-04-30T12:55:03Z</time>
      </trkpt>
      <trkpt lat="45.45208" lon="4.08096">
        <ele>718.24</ele>
        <time>2022-04-30T12:55:16Z</time>
      </trkpt>
      <trkpt lat="45.45195" lon="4.08125">
        <ele>716.8</ele>
        <time>2022-04-30T12:55:33Z</time>
      </trkpt>
      <trkpt lat="45.45182" lon="4.08157">
        <ele>716.32</ele>
        <time>2022-04-30T12:55:50Z</time>
      </trkpt>
      <trkpt lat="45.45169" lon="4.08191">
        <ele>718.24</ele>
        <time>2022-04-30T12:56:05Z</time>
      </trkpt>
      <trkpt lat="45.45166" lon="4.08198">
        <ele>718.24</ele>
        <time>2022-04-30T12:56:08Z</time>
      </trkpt>
      <trkpt lat="45.45166" lon="4.082">
        <ele>718.24</ele>
        <time>2022-04-30T12:56:09Z</time>
      </trkpt>
      <trkpt lat="45.45172" lon="4.08211">
        <ele>718.24</ele>
        <time>2022-04-30T12:56:21Z</time>
      </trkpt>
      <trkpt lat="45.45152" lon="4.08302">
        <ele>723.05</ele>
        <time>2022-04-30T12:56:51Z</time>
      </trkpt>
      <trkpt lat="45.45151" lon="4.08304">
        <ele>721.61</ele>
        <time>2022-04-30T12:56:52Z</time>
      </trkpt>
      <trkpt lat="45.45151" lon="4.08304">
        <ele>720.16</ele>
        <time>2022-04-30T12:56:53Z</time>
      </trkpt>
      <trkpt lat="45.45151" lon="4.0832">
        <ele>718.72</ele>
        <time>2022-04-30T12:57:02Z</time>
      </trkpt>
      <trkpt lat="45.45149" lon="4.08345">
        <ele>718.24</ele>
        <time>2022-04-30T12:57:15Z</time>
      </trkpt>
      <trkpt lat="45.45149" lon="4.08349">
        <ele>717.28</ele>
        <time>2022-04-30T12:57:17Z</time>
      </trkpt>
      <trkpt lat="45.45149" lon="4.08352">
        <ele>716.8</ele>
        <time>2022-04-30T12:57:19Z</time>
      </trkpt>
      <trkpt lat="45.45149" lon="4.08365">
        <ele>716.32</ele>
        <time>2022-04-30T12:57:26Z</time>
      </trkpt>
      <trkpt lat="45.45149" lon="4.08369">
        <ele>715.36</ele>
        <time>2022-04-30T12:57:28Z</time>
      </trkpt>
      <trkpt lat="45.45148" lon="4.08372">
        <ele>715.36</ele>
        <time>2022-04-30T12:57:29Z</time>
      </trkpt>
      <trkpt lat="45.45148" lon="4.08374">
        <ele>714.88</ele>
        <time>2022-04-30T12:57:30Z</time>
      </trkpt>
      <trkpt lat="45.45148" lon="4.08376">
        <ele>714.4</ele>
        <time>2022-04-30T12:57:31Z</time>
      </trkpt>
      <trkpt lat="45.45149" lon="4.08378">
        <ele>714.4</ele>
        <time>2022-04-30T12:57:32Z</time>
      </trkpt>
      <trkpt lat="45.45149" lon="4.08379">
        <ele>714.4</ele>
        <time>2022-04-30T12:57:33Z</time>
      </trkpt>
      <trkpt lat="45.45151" lon="4.08411">
        <ele>711.51</ele>
        <time>2022-04-30T12:57:48Z</time>
      </trkpt>
      <trkpt lat="45.45156" lon="4.0844">
        <ele>707.19</ele>
        <time>2022-04-30T12:58:03Z</time>
      </trkpt>
      <trkpt lat="45.45165" lon="4.08473">
        <ele>704.3</ele>
        <time>2022-04-30T12:58:20Z</time>
      </trkpt>
      <trkpt lat="45.45173" lon="4.08507">
        <ele>703.82</ele>
        <time>2022-04-30T12:58:38Z</time>
      </trkpt>
      <trkpt lat="45.45173" lon="4.08508">
        <ele>703.82</ele>
        <time>2022-04-30T12:58:39Z</time>
      </trkpt>
      <trkpt lat="45.45173" lon="4.08509">
        <ele>704.3</ele>
        <time>2022-04-30T12:58:40Z</time>
      </trkpt>
      <trkpt lat="45.45174" lon="4.08516">
        <ele>704.78</ele>
        <time>2022-04-30T12:58:44Z</time>
      </trkpt>
      <trkpt lat="45.45182" lon="4.08543">
        <ele>703.34</ele>
        <time>2022-04-30T12:58:59Z</time>
      </trkpt>
      <trkpt lat="45.45186" lon="4.08558">
        <ele>702.86</ele>
        <time>2022-04-30T12:59:07Z</time>
      </trkpt>
      <trkpt lat="45.45187" lon="4.08559">
        <ele>702.86</ele>
        <time>2022-04-30T12:59:08Z</time>
      </trkpt>
      <trkpt lat="45.45193" lon="4.08575">
        <ele>699.98</ele>
        <time>2022-04-30T12:59:19Z</time>
      </trkpt>
      <trkpt lat="45.45194" lon="4.08577">
        <ele>699.98</ele>
        <time>2022-04-30T12:59:20Z</time>
      </trkpt>
      <trkpt lat="45.45202" lon="4.08597">
        <ele>696.13</ele>
        <time>2022-04-30T12:59:31Z</time>
      </trkpt>
      <trkpt lat="45.45203" lon="4.08599">
        <ele>694.69</ele>
        <time>2022-04-30T12:59:33Z</time>
      </trkpt>
      <trkpt lat="45.45212" lon="4.0863">
        <ele>689.4</ele>
        <time>2022-04-30T12:59:50Z</time>
      </trkpt>
      <trkpt lat="45.45213" lon="4.08632">
        <ele>688.44</ele>
        <time>2022-04-30T12:59:52Z</time>
      </trkpt>
      <trkpt lat="45.45214" lon="4.08634">
        <ele>687.96</ele>
        <time>2022-04-30T12:59:53Z</time>
      </trkpt>
      <trkpt lat="45.45215" lon="4.08635">
        <ele>687.48</ele>
        <time>2022-04-30T12:59:54Z</time>
      </trkpt>
      <trkpt lat="45.45215" lon="4.08664">
        <ele>686.04</ele>
        <time>2022-04-30T13:00:08Z</time>
      </trkpt>
      <trkpt lat="45.45214" lon="4.08699">
        <ele>688.92</ele>
        <time>2022-04-30T13:00:22Z</time>
      </trkpt>
      <trkpt lat="45.45205" lon="4.08731">
        <ele>696.61</ele>
        <time>2022-04-30T13:00:32Z</time>
      </trkpt>
      <trkpt lat="45.45205" lon="4.08733">
        <ele>696.13</ele>
        <time>2022-04-30T13:00:33Z</time>
      </trkpt>
      <trkpt lat="45.45205" lon="4.08736">
        <ele>696.61</ele>
        <time>2022-04-30T13:00:34Z</time>
      </trkpt>
      <trkpt lat="45.45205" lon="4.08738">
        <ele>696.61</ele>
        <time>2022-04-30T13:00:35Z</time>
      </trkpt>
      <trkpt lat="45.45205" lon="4.0874">
        <ele>696.61</ele>
        <time>2022-04-30T13:00:36Z</time>
      </trkpt>
      <trkpt lat="45.45205" lon="4.08743">
        <ele>697.09</ele>
        <time>2022-04-30T13:00:37Z</time>
      </trkpt>
      <trkpt lat="45.45205" lon="4.08745">
        <ele>697.09</ele>
        <time>2022-04-30T13:00:38Z</time>
      </trkpt>
      <trkpt lat="45.45203" lon="4.08759">
        <ele>699.02</ele>
        <time>2022-04-30T13:00:46Z</time>
      </trkpt>
      <trkpt lat="45.45202" lon="4.0876">
        <ele>699.02</ele>
        <time>2022-04-30T13:00:47Z</time>
      </trkpt>
      <trkpt lat="45.45199" lon="4.08787">
        <ele>700.46</ele>
        <time>2022-04-30T13:01:01Z</time>
      </trkpt>
      <trkpt lat="45.45199" lon="4.08789">
        <ele>699.98</ele>
        <time>2022-04-30T13:01:02Z</time>
      </trkpt>
      <trkpt lat="45.45199" lon="4.08792">
        <ele>699.98</ele>
        <time>2022-04-30T13:01:03Z</time>
      </trkpt>
      <trkpt lat="45.45199" lon="4.08794">
        <ele>700.46</ele>
        <time>2022-04-30T13:01:04Z</time>
      </trkpt>
      <trkpt lat="45.45198" lon="4.08796">
        <ele>700.46</ele>
        <time>2022-04-30T13:01:05Z</time>
      </trkpt>
      <trkpt lat="45.45198" lon="4.08798">
        <ele>700.46</ele>
        <time>2022-04-30T13:01:06Z</time>
      </trkpt>
      <trkpt lat="45.45194" lon="4.08826">
        <ele>703.34</ele>
        <time>2022-04-30T13:01:17Z</time>
      </trkpt>
      <trkpt lat="45.45193" lon="4.08833">
        <ele>703.82</ele>
        <time>2022-04-30T13:01:21Z</time>
      </trkpt>
      <trkpt lat="45.45193" lon="4.08836">
        <ele>703.82</ele>
        <time>2022-04-30T13:01:23Z</time>
      </trkpt>
      <trkpt lat="45.45193" lon="4.08838">
        <ele>704.3</ele>
        <time>2022-04-30T13:01:24Z</time>
      </trkpt>
      <trkpt lat="45.45193" lon="4.0884">
        <ele>704.78</ele>
        <time>2022-04-30T13:01:25Z</time>
      </trkpt>
      <trkpt lat="45.45191" lon="4.08863">
        <ele>705.75</ele>
        <time>2022-04-30T13:01:34Z</time>
      </trkpt>
      <trkpt lat="45.45192" lon="4.08865">
        <ele>706.23</ele>
        <time>2022-04-30T13:01:35Z</time>
      </trkpt>
      <trkpt lat="45.45192" lon="4.08867">
        <ele>706.23</ele>
        <time>2022-04-30T13:01:36Z</time>
      </trkpt>
      <trkpt lat="45.45192" lon="4.08869">
        <ele>706.71</ele>
        <time>2022-04-30T13:01:37Z</time>
      </trkpt>
      <trkpt lat="45.45192" lon="4.08884">
        <ele>708.63</ele>
        <time>2022-04-30T13:01:45Z</time>
      </trkpt>
      <trkpt lat="45.45192" lon="4.08887">
        <ele>708.63</ele>
        <time>2022-04-30T13:01:46Z</time>
      </trkpt>
      <trkpt lat="45.45192" lon="4.08889">
        <ele>709.11</ele>
        <time>2022-04-30T13:01:47Z</time>
      </trkpt>
      <trkpt lat="45.45192" lon="4.08891">
        <ele>709.11</ele>
        <time>2022-04-30T13:01:48Z</time>
      </trkpt>
      <trkpt lat="45.45192" lon="4.08894">
        <ele>709.11</ele>
        <time>2022-04-30T13:01:49Z</time>
      </trkpt>
      <trkpt lat="45.45192" lon="4.08918">
        <ele>704.78</ele>
        <time>2022-04-30T13:02:00Z</time>
      </trkpt>
      <trkpt lat="45.45192" lon="4.0892">
        <ele>704.3</ele>
        <time>2022-04-30T13:02:01Z</time>
      </trkpt>
      <trkpt lat="45.45191" lon="4.08959">
        <ele>703.34</ele>
        <time>2022-04-30T13:02:18Z</time>
      </trkpt>
      <trkpt lat="45.45193" lon="4.08985">
        <ele>699.02</ele>
        <time>2022-04-30T13:02:29Z</time>
      </trkpt>
      <trkpt lat="45.45193" lon="4.08987">
        <ele>698.53</ele>
        <time>2022-04-30T13:02:30Z</time>
      </trkpt>
      <trkpt lat="45.45193" lon="4.08991">
        <ele>698.05</ele>
        <time>2022-04-30T13:02:31Z</time>
      </trkpt>
      <trkpt lat="45.45199" lon="4.09049">
        <ele>696.13</ele>
        <time>2022-04-30T13:02:46Z</time>
      </trkpt>
      <trkpt lat="45.45208" lon="4.09097">
        <ele>692.77</ele>
        <time>2022-04-30T13:02:59Z</time>
      </trkpt>
      <trkpt lat="45.45216" lon="4.09134">
        <ele>690.84</ele>
        <time>2022-04-30T13:03:15Z</time>
      </trkpt>
      <trkpt lat="45.45226" lon="4.09175">
        <ele>690.36</ele>
        <time>2022-04-30T13:03:35Z</time>
      </trkpt>
      <trkpt lat="45.45234" lon="4.0921">
        <ele>688.44</ele>
        <time>2022-04-30T13:03:52Z</time>
      </trkpt>
      <trkpt lat="45.45243" lon="4.09246">
        <ele>687.48</ele>
        <time>2022-04-30T13:04:10Z</time>
      </trkpt>
      <trkpt lat="45.45243" lon="4.0925">
        <ele>687.48</ele>
        <time>2022-04-30T13:04:12Z</time>
      </trkpt>
      <trkpt lat="45.45243" lon="4.09252">
        <ele>687</ele>
        <time>2022-04-30T13:04:13Z</time>
      </trkpt>
      <trkpt lat="45.45244" lon="4.09254">
        <ele>687</ele>
        <time>2022-04-30T13:04:14Z</time>
      </trkpt>
      <trkpt lat="45.45244" lon="4.09256">
        <ele>687</ele>
        <time>2022-04-30T13:04:15Z</time>
      </trkpt>
      <trkpt lat="45.45245" lon="4.09258">
        <ele>687</ele>
        <time>2022-04-30T13:04:16Z</time>
      </trkpt>
      <trkpt lat="45.45245" lon="4.0926">
        <ele>686.52</ele>
        <time>2022-04-30T13:04:17Z</time>
      </trkpt>
      <trkpt lat="45.45246" lon="4.09262">
        <ele>686.52</ele>
        <time>2022-04-30T13:04:18Z</time>
      </trkpt>
      <trkpt lat="45.45246" lon="4.09264">
        <ele>686.52</ele>
        <time>2022-04-30T13:04:19Z</time>
      </trkpt>
      <trkpt lat="45.45254" lon="4.09297">
        <ele>685.56</ele>
        <time>2022-04-30T13:04:36Z</time>
      </trkpt>
      <trkpt lat="45.45263" lon="4.09336">
        <ele>685.56</ele>
        <time>2022-04-30T13:04:55Z</time>
      </trkpt>
      <trkpt lat="45.45274" lon="4.09381">
        <ele>684.6</ele>
        <time>2022-04-30T13:05:12Z</time>
      </trkpt>
      <trkpt lat="45.45284" lon="4.09418">
        <ele>684.12</ele>
        <time>2022-04-30T13:05:24Z</time>
      </trkpt>
      <trkpt lat="45.45284" lon="4.09429">
        <ele>684.12</ele>
        <time>2022-04-30T13:05:29Z</time>
      </trkpt>
      <trkpt lat="45.45284" lon="4.09431">
        <ele>683.63</ele>
        <time>2022-04-30T13:05:30Z</time>
      </trkpt>
      <trkpt lat="45.45284" lon="4.09433">
        <ele>683.63</ele>
        <time>2022-04-30T13:05:31Z</time>
      </trkpt>
      <trkpt lat="45.45284" lon="4.09435">
        <ele>683.63</ele>
        <time>2022-04-30T13:05:32Z</time>
      </trkpt>
      <trkpt lat="45.45285" lon="4.09437">
        <ele>683.15</ele>
        <time>2022-04-30T13:05:33Z</time>
      </trkpt>
      <trkpt lat="45.45292" lon="4.09462">
        <ele>679.79</ele>
        <time>2022-04-30T13:05:45Z</time>
      </trkpt>
      <trkpt lat="45.45292" lon="4.09464">
        <ele>679.31</ele>
        <time>2022-04-30T13:05:46Z</time>
      </trkpt>
      <trkpt lat="45.45293" lon="4.09466">
        <ele>678.83</ele>
        <time>2022-04-30T13:05:47Z</time>
      </trkpt>
      <trkpt lat="45.45293" lon="4.09468">
        <ele>678.35</ele>
        <time>2022-04-30T13:05:48Z</time>
      </trkpt>
      <trkpt lat="45.45294" lon="4.0947">
        <ele>677.87</ele>
        <time>2022-04-30T13:05:49Z</time>
      </trkpt>
      <trkpt lat="45.45295" lon="4.09471">
        <ele>677.39</ele>
        <time>2022-04-30T13:05:50Z</time>
      </trkpt>
      <trkpt lat="45.45295" lon="4.09473">
        <ele>677.39</ele>
        <time>2022-04-30T13:05:51Z</time>
      </trkpt>
      <trkpt lat="45.45296" lon="4.09476">
        <ele>676.91</ele>
        <time>2022-04-30T13:05:52Z</time>
      </trkpt>
      <trkpt lat="45.45303" lon="4.09504">
        <ele>679.79</ele>
        <time>2022-04-30T13:06:06Z</time>
      </trkpt>
      <trkpt lat="45.45308" lon="4.09538">
        <ele>678.83</ele>
        <time>2022-04-30T13:06:23Z</time>
      </trkpt>
      <trkpt lat="45.45315" lon="4.09568">
        <ele>678.83</ele>
        <time>2022-04-30T13:06:39Z</time>
      </trkpt>
      <trkpt lat="45.45323" lon="4.09597">
        <ele>675.94</ele>
        <time>2022-04-30T13:06:54Z</time>
      </trkpt>
      <trkpt lat="45.4533" lon="4.09627">
        <ele>675.46</ele>
        <time>2022-04-30T13:07:10Z</time>
      </trkpt>
      <trkpt lat="45.4533" lon="4.09629">
        <ele>675.46</ele>
        <time>2022-04-30T13:07:11Z</time>
      </trkpt>
      <trkpt lat="45.45331" lon="4.09631">
        <ele>675.94</ele>
        <time>2022-04-30T13:07:12Z</time>
      </trkpt>
      <trkpt lat="45.45331" lon="4.09633">
        <ele>675.46</ele>
        <time>2022-04-30T13:07:13Z</time>
      </trkpt>
      <trkpt lat="45.45332" lon="4.09635">
        <ele>675.46</ele>
        <time>2022-04-30T13:07:14Z</time>
      </trkpt>
      <trkpt lat="45.45332" lon="4.09638">
        <ele>675.46</ele>
        <time>2022-04-30T13:07:15Z</time>
      </trkpt>
      <trkpt lat="45.45333" lon="4.0964">
        <ele>675.46</ele>
        <time>2022-04-30T13:07:16Z</time>
      </trkpt>
      <trkpt lat="45.45333" lon="4.09642">
        <ele>675.46</ele>
        <time>2022-04-30T13:07:17Z</time>
      </trkpt>
      <trkpt lat="45.45334" lon="4.09643">
        <ele>674.98</ele>
        <time>2022-04-30T13:07:18Z</time>
      </trkpt>
      <trkpt lat="45.45343" lon="4.09666">
        <ele>669.7</ele>
        <time>2022-04-30T13:07:32Z</time>
      </trkpt>
      <trkpt lat="45.45345" lon="4.09675">
        <ele>668.25</ele>
        <time>2022-04-30T13:07:37Z</time>
      </trkpt>
      <trkpt lat="45.4535" lon="4.09701">
        <ele>663.93</ele>
        <time>2022-04-30T13:07:53Z</time>
      </trkpt>
      <trkpt lat="45.45356" lon="4.09729">
        <ele>662.01</ele>
        <time>2022-04-30T13:08:09Z</time>
      </trkpt>
      <trkpt lat="45.45358" lon="4.09763">
        <ele>664.89</ele>
        <time>2022-04-30T13:08:25Z</time>
      </trkpt>
      <trkpt lat="45.45362" lon="4.09794">
        <ele>668.25</ele>
        <time>2022-04-30T13:08:41Z</time>
      </trkpt>
      <trkpt lat="45.45373" lon="4.09843">
        <ele>670.66</ele>
        <time>2022-04-30T13:08:59Z</time>
      </trkpt>
      <trkpt lat="45.45382" lon="4.09892">
        <ele>673.06</ele>
        <time>2022-04-30T13:09:15Z</time>
      </trkpt>
      <trkpt lat="45.45385" lon="4.09917">
        <ele>673.54</ele>
        <time>2022-04-30T13:09:26Z</time>
      </trkpt>
      <trkpt lat="45.45385" lon="4.09921">
        <ele>673.54</ele>
        <time>2022-04-30T13:09:43Z</time>
      </trkpt>
      <trkpt lat="45.45384" lon="4.0993">
        <ele>674.98</ele>
        <time>2022-04-30T13:10:04Z</time>
      </trkpt>
      <trkpt lat="45.45385" lon="4.09933">
        <ele>675.46</ele>
        <time>2022-04-30T13:10:34Z</time>
      </trkpt>
      <trkpt lat="45.45383" lon="4.09929">
        <ele>674.5</ele>
        <time>2022-04-30T13:11:00Z</time>
      </trkpt>
      <trkpt lat="45.45382" lon="4.09932">
        <ele>674.98</ele>
        <time>2022-04-30T13:11:30Z</time>
      </trkpt>
      <trkpt lat="45.45383" lon="4.09938">
        <ele>673.54</ele>
        <time>2022-04-30T13:12:00Z</time>
      </trkpt>
      <trkpt lat="45.45385" lon="4.09971">
        <ele>673.54</ele>
        <time>2022-04-30T13:12:14Z</time>
      </trkpt>
      <trkpt lat="45.45385" lon="4.10003">
        <ele>671.14</ele>
        <time>2022-04-30T13:12:29Z</time>
      </trkpt>
      <trkpt lat="45.45382" lon="4.10038">
        <ele>672.58</ele>
        <time>2022-04-30T13:12:44Z</time>
      </trkpt>
      <trkpt lat="45.45379" lon="4.10068">
        <ele>673.54</ele>
        <time>2022-04-30T13:12:56Z</time>
      </trkpt>
      <trkpt lat="45.45378" lon="4.1007">
        <ele>673.54</ele>
        <time>2022-04-30T13:12:57Z</time>
      </trkpt>
      <trkpt lat="45.45378" lon="4.10072">
        <ele>673.54</ele>
        <time>2022-04-30T13:12:58Z</time>
      </trkpt>
      <trkpt lat="45.45377" lon="4.10074">
        <ele>674.02</ele>
        <time>2022-04-30T13:12:59Z</time>
      </trkpt>
      <trkpt lat="45.45377" lon="4.10076">
        <ele>674.02</ele>
        <time>2022-04-30T13:13:00Z</time>
      </trkpt>
      <trkpt lat="45.45376" lon="4.10078">
        <ele>674.02</ele>
        <time>2022-04-30T13:13:01Z</time>
      </trkpt>
      <trkpt lat="45.4537" lon="4.1011">
        <ele>674.5</ele>
        <time>2022-04-30T13:13:16Z</time>
      </trkpt>
      <trkpt lat="45.4536" lon="4.10142">
        <ele>677.39</ele>
        <time>2022-04-30T13:13:31Z</time>
      </trkpt>
      <trkpt lat="45.45356" lon="4.10171">
        <ele>678.83</ele>
        <time>2022-04-30T13:13:43Z</time>
      </trkpt>
      <trkpt lat="45.45354" lon="4.10211">
        <ele>677.39</ele>
        <time>2022-04-30T13:13:57Z</time>
      </trkpt>
      <trkpt lat="45.45359" lon="4.10251">
        <ele>671.14</ele>
        <time>2022-04-30T13:14:11Z</time>
      </trkpt>
      <trkpt lat="45.45367" lon="4.10295">
        <ele>668.25</ele>
        <time>2022-04-30T13:14:28Z</time>
      </trkpt>
      <trkpt lat="45.45375" lon="4.10337">
        <ele>666.81</ele>
        <time>2022-04-30T13:14:45Z</time>
      </trkpt>
      <trkpt lat="45.45381" lon="4.10364">
        <ele>667.29</ele>
        <time>2022-04-30T13:14:56Z</time>
      </trkpt>
      <trkpt lat="45.45391" lon="4.10395">
        <ele>665.85</ele>
        <time>2022-04-30T13:15:10Z</time>
      </trkpt>
      <trkpt lat="45.45402" lon="4.10421">
        <ele>664.89</ele>
        <time>2022-04-30T13:15:23Z</time>
      </trkpt>
      <trkpt lat="45.45419" lon="4.10452">
        <ele>662.01</ele>
        <time>2022-04-30T13:15:39Z</time>
      </trkpt>
      <trkpt lat="45.45435" lon="4.10479">
        <ele>661.04</ele>
        <time>2022-04-30T13:15:52Z</time>
      </trkpt>
      <trkpt lat="45.45456" lon="4.10506">
        <ele>659.6</ele>
        <time>2022-04-30T13:16:12Z</time>
      </trkpt>
      <trkpt lat="45.45476" lon="4.10525">
        <ele>658.16</ele>
        <time>2022-04-30T13:16:29Z</time>
      </trkpt>
      <trkpt lat="45.45495" lon="4.1054">
        <ele>658.16</ele>
        <time>2022-04-30T13:16:44Z</time>
      </trkpt>
      <trkpt lat="45.45514" lon="4.10552">
        <ele>659.6</ele>
        <time>2022-04-30T13:16:58Z</time>
      </trkpt>
      <trkpt lat="45.45533" lon="4.10562">
        <ele>659.12</ele>
        <time>2022-04-30T13:17:12Z</time>
      </trkpt>
      <trkpt lat="45.45556" lon="4.10572">
        <ele>658.16</ele>
        <time>2022-04-30T13:17:28Z</time>
      </trkpt>
      <trkpt lat="45.45584" lon="4.10578">
        <ele>656.72</ele>
        <time>2022-04-30T13:17:47Z</time>
      </trkpt>
      <trkpt lat="45.4561" lon="4.10582">
        <ele>656.72</ele>
        <time>2022-04-30T13:18:05Z</time>
      </trkpt>
      <trkpt lat="45.45635" lon="4.10587">
        <ele>657.2</ele>
        <time>2022-04-30T13:18:18Z</time>
      </trkpt>
      <trkpt lat="45.4566" lon="4.10588">
        <ele>657.2</ele>
        <time>2022-04-30T13:18:32Z</time>
      </trkpt>
      <trkpt lat="45.45691" lon="4.10593">
        <ele>657.68</ele>
        <time>2022-04-30T13:18:51Z</time>
      </trkpt>
      <trkpt lat="45.45715" lon="4.10602">
        <ele>656.24</ele>
        <time>2022-04-30T13:19:08Z</time>
      </trkpt>
      <trkpt lat="45.45742" lon="4.10614">
        <ele>656.24</ele>
        <time>2022-04-30T13:19:24Z</time>
      </trkpt>
      <trkpt lat="45.45762" lon="4.1063">
        <ele>656.72</ele>
        <time>2022-04-30T13:19:38Z</time>
      </trkpt>
      <trkpt lat="45.45784" lon="4.10651">
        <ele>653.83</ele>
        <time>2022-04-30T13:19:53Z</time>
      </trkpt>
      <trkpt lat="45.45791" lon="4.10667">
        <ele>652.39</ele>
        <time>2022-04-30T13:20:02Z</time>
      </trkpt>
      <trkpt lat="45.4579" lon="4.10668">
        <ele>652.39</ele>
        <time>2022-04-30T13:20:03Z</time>
      </trkpt>
      <trkpt lat="45.4579" lon="4.1067">
        <ele>652.39</ele>
        <time>2022-04-30T13:20:04Z</time>
      </trkpt>
      <trkpt lat="45.45775" lon="4.10676">
        <ele>653.35</ele>
        <time>2022-04-30T13:20:17Z</time>
      </trkpt>
      <trkpt lat="45.45756" lon="4.10669">
        <ele>654.31</ele>
        <time>2022-04-30T13:20:32Z</time>
      </trkpt>
      <trkpt lat="45.45731" lon="4.10662">
        <ele>658.16</ele>
        <time>2022-04-30T13:20:51Z</time>
      </trkpt>
      <trkpt lat="45.45708" lon="4.10661">
        <ele>660.08</ele>
        <time>2022-04-30T13:21:06Z</time>
      </trkpt>
      <trkpt lat="45.45692" lon="4.10661">
        <ele>661.04</ele>
        <time>2022-04-30T13:21:19Z</time>
      </trkpt>
      <trkpt lat="45.45665" lon="4.10668">
        <ele>659.12</ele>
        <time>2022-04-30T13:21:37Z</time>
      </trkpt>
      <trkpt lat="45.45639" lon="4.10675">
        <ele>655.76</ele>
        <time>2022-04-30T13:21:52Z</time>
      </trkpt>
      <trkpt lat="45.45629" lon="4.10694">
        <ele>651.91</ele>
        <time>2022-04-30T13:22:04Z</time>
      </trkpt>
      <trkpt lat="45.45629" lon="4.10697">
        <ele>651.43</ele>
        <time>2022-04-30T13:22:05Z</time>
      </trkpt>
      <trkpt lat="45.45632" lon="4.10725">
        <ele>645.66</ele>
        <time>2022-04-30T13:22:19Z</time>
      </trkpt>
      <trkpt lat="45.45637" lon="4.10762">
        <ele>638.45</ele>
        <time>2022-04-30T13:22:38Z</time>
      </trkpt>
      <trkpt lat="45.45637" lon="4.10786">
        <ele>637.01</ele>
        <time>2022-04-30T13:22:52Z</time>
      </trkpt>
      <trkpt lat="45.45637" lon="4.10797">
        <ele>636.05</ele>
        <time>2022-04-30T13:22:59Z</time>
      </trkpt>
      <trkpt lat="45.45637" lon="4.10799">
        <ele>636.05</ele>
        <time>2022-04-30T13:23:00Z</time>
      </trkpt>
      <trkpt lat="45.45627" lon="4.10829">
        <ele>632.68</ele>
        <time>2022-04-30T13:23:18Z</time>
      </trkpt>
      <trkpt lat="45.45618" lon="4.10858">
        <ele>629.8</ele>
        <time>2022-04-30T13:23:34Z</time>
      </trkpt>
      <trkpt lat="45.45605" lon="4.10887">
        <ele>628.36</ele>
        <time>2022-04-30T13:23:51Z</time>
      </trkpt>
      <trkpt lat="45.4559" lon="4.10918">
        <ele>624.51</ele>
        <time>2022-04-30T13:24:08Z</time>
      </trkpt>
      <trkpt lat="45.45575" lon="4.10946">
        <ele>624.03</ele>
        <time>2022-04-30T13:24:22Z</time>
      </trkpt>
      <trkpt lat="45.45556" lon="4.1098">
        <ele>624.99</ele>
        <time>2022-04-30T13:24:41Z</time>
      </trkpt>
      <trkpt lat="45.45535" lon="4.10996">
        <ele>624.51</ele>
        <time>2022-04-30T13:24:55Z</time>
      </trkpt>
      <trkpt lat="45.45521" lon="4.11017">
        <ele>622.11</ele>
        <time>2022-04-30T13:25:07Z</time>
      </trkpt>
      <trkpt lat="45.45512" lon="4.11043">
        <ele>621.15</ele>
        <time>2022-04-30T13:25:19Z</time>
      </trkpt>
      <trkpt lat="45.45511" lon="4.11045">
        <ele>621.15</ele>
        <time>2022-04-30T13:25:20Z</time>
      </trkpt>
      <trkpt lat="45.45511" lon="4.11047">
        <ele>621.63</ele>
        <time>2022-04-30T13:25:21Z</time>
      </trkpt>
      <trkpt lat="45.4551" lon="4.11049">
        <ele>621.63</ele>
        <time>2022-04-30T13:25:22Z</time>
      </trkpt>
      <trkpt lat="45.4551" lon="4.11051">
        <ele>621.63</ele>
        <time>2022-04-30T13:25:23Z</time>
      </trkpt>
      <trkpt lat="45.4551" lon="4.11053">
        <ele>621.63</ele>
        <time>2022-04-30T13:25:24Z</time>
      </trkpt>
      <trkpt lat="45.45503" lon="4.11078">
        <ele>621.63</ele>
        <time>2022-04-30T13:25:35Z</time>
      </trkpt>
      <trkpt lat="45.45494" lon="4.11093">
        <ele>621.15</ele>
        <time>2022-04-30T13:25:44Z</time>
      </trkpt>
      <trkpt lat="45.45493" lon="4.11095">
        <ele>620.67</ele>
        <time>2022-04-30T13:25:45Z</time>
      </trkpt>
      <trkpt lat="45.45478" lon="4.11109">
        <ele>615.86</ele>
        <time>2022-04-30T13:25:56Z</time>
      </trkpt>
      <trkpt lat="45.45463" lon="4.11113">
        <ele>615.86</ele>
        <time>2022-04-30T13:26:08Z</time>
      </trkpt>
      <trkpt lat="45.4545" lon="4.11105">
        <ele>616.82</ele>
        <time>2022-04-30T13:26:13Z</time>
      </trkpt>
      <trkpt lat="45.45449" lon="4.11104">
        <ele>616.82</ele>
        <time>2022-04-30T13:26:15Z</time>
      </trkpt>
      <trkpt lat="45.45441" lon="4.11082">
        <ele>617.78</ele>
        <time>2022-04-30T13:26:26Z</time>
      </trkpt>
      <trkpt lat="45.45436" lon="4.11067">
        <ele>619.23</ele>
        <time>2022-04-30T13:26:39Z</time>
      </trkpt>
      <trkpt lat="45.45432" lon="4.11049">
        <ele>622.11</ele>
        <time>2022-04-30T13:26:52Z</time>
      </trkpt>
      <trkpt lat="45.45409" lon="4.11013">
        <ele>623.55</ele>
        <time>2022-04-30T13:27:03Z</time>
      </trkpt>
      <trkpt lat="45.45397" lon="4.11">
        <ele>624.99</ele>
        <time>2022-04-30T13:27:11Z</time>
      </trkpt>
      <trkpt lat="45.45378" lon="4.10967">
        <ele>626.44</ele>
        <time>2022-04-30T13:27:21Z</time>
      </trkpt>
      <trkpt lat="45.45357" lon="4.1094">
        <ele>627.4</ele>
        <time>2022-04-30T13:27:32Z</time>
      </trkpt>
      <trkpt lat="45.45351" lon="4.10934">
        <ele>627.4</ele>
        <time>2022-04-30T13:27:35Z</time>
      </trkpt>
      <trkpt lat="45.4532" lon="4.10918">
        <ele>630.28</ele>
        <time>2022-04-30T13:27:47Z</time>
      </trkpt>
      <trkpt lat="45.45317" lon="4.10918">
        <ele>631.24</ele>
        <time>2022-04-30T13:27:48Z</time>
      </trkpt>
      <trkpt lat="45.45314" lon="4.10917">
        <ele>631.24</ele>
        <time>2022-04-30T13:27:49Z</time>
      </trkpt>
      <trkpt lat="45.45302" lon="4.10907">
        <ele>632.68</ele>
        <time>2022-04-30T13:27:57Z</time>
      </trkpt>
      <trkpt lat="45.45299" lon="4.10906">
        <ele>632.68</ele>
        <time>2022-04-30T13:27:58Z</time>
      </trkpt>
      <trkpt lat="45.45296" lon="4.10906">
        <ele>632.68</ele>
        <time>2022-04-30T13:27:59Z</time>
      </trkpt>
      <trkpt lat="45.4529" lon="4.10904">
        <ele>633.17</ele>
        <time>2022-04-30T13:28:01Z</time>
      </trkpt>
      <trkpt lat="45.45284" lon="4.10903">
        <ele>633.17</ele>
        <time>2022-04-30T13:28:04Z</time>
      </trkpt>
      <trkpt lat="45.45281" lon="4.10903">
        <ele>633.17</ele>
        <time>2022-04-30T13:28:05Z</time>
      </trkpt>
      <trkpt lat="45.45278" lon="4.10902">
        <ele>633.17</ele>
        <time>2022-04-30T13:28:06Z</time>
      </trkpt>
      <trkpt lat="45.45275" lon="4.10901">
        <ele>633.65</ele>
        <time>2022-04-30T13:28:07Z</time>
      </trkpt>
      <trkpt lat="45.45268" lon="4.10899">
        <ele>634.13</ele>
        <time>2022-04-30T13:28:08Z</time>
      </trkpt>
      <trkpt lat="45.45263" lon="4.10897">
        <ele>634.61</ele>
        <time>2022-04-30T13:28:09Z</time>
      </trkpt>
      <trkpt lat="45.45258" lon="4.10896">
        <ele>635.09</ele>
        <time>2022-04-30T13:28:10Z</time>
      </trkpt>
      <trkpt lat="45.45213" lon="4.10889">
        <ele>638.93</ele>
        <time>2022-04-30T13:28:21Z</time>
      </trkpt>
      <trkpt lat="45.45164" lon="4.10886">
        <ele>644.22</ele>
        <time>2022-04-30T13:28:31Z</time>
      </trkpt>
      <trkpt lat="45.45155" lon="4.10884">
        <ele>643.74</ele>
        <time>2022-04-30T13:28:32Z</time>
      </trkpt>
      <trkpt lat="45.45149" lon="4.10883">
        <ele>643.74</ele>
        <time>2022-04-30T13:28:33Z</time>
      </trkpt>
      <trkpt lat="45.45106" lon="4.10857">
        <ele>647.1</ele>
        <time>2022-04-30T13:28:43Z</time>
      </trkpt>
      <trkpt lat="45.45086" lon="4.10835">
        <ele>652.39</ele>
        <time>2022-04-30T13:28:53Z</time>
      </trkpt>
      <trkpt lat="45.45057" lon="4.10819">
        <ele>661.04</ele>
        <time>2022-04-30T13:29:04Z</time>
      </trkpt>
      <trkpt lat="45.45026" lon="4.10789">
        <ele>663.45</ele>
        <time>2022-04-30T13:29:15Z</time>
      </trkpt>
      <trkpt lat="45.44993" lon="4.10746">
        <ele>665.85</ele>
        <time>2022-04-30T13:29:26Z</time>
      </trkpt>
      <trkpt lat="45.44939" lon="4.1068">
        <ele>672.1</ele>
        <time>2022-04-30T13:29:39Z</time>
      </trkpt>
      <trkpt lat="45.44926" lon="4.10666">
        <ele>673.54</ele>
        <time>2022-04-30T13:29:42Z</time>
      </trkpt>
      <trkpt lat="45.44916" lon="4.10652">
        <ele>674.98</ele>
        <time>2022-04-30T13:29:45Z</time>
      </trkpt>
      <trkpt lat="45.44892" lon="4.10622">
        <ele>679.79</ele>
        <time>2022-04-30T13:29:56Z</time>
      </trkpt>
      <trkpt lat="45.44882" lon="4.10608">
        <ele>681.71</ele>
        <time>2022-04-30T13:30:03Z</time>
      </trkpt>
      <trkpt lat="45.44863" lon="4.10584">
        <ele>685.56</ele>
        <time>2022-04-30T13:30:14Z</time>
      </trkpt>
      <trkpt lat="45.44841" lon="4.10555">
        <ele>690.84</ele>
        <time>2022-04-30T13:30:25Z</time>
      </trkpt>
      <trkpt lat="45.44839" lon="4.10552">
        <ele>691.33</ele>
        <time>2022-04-30T13:30:26Z</time>
      </trkpt>
      <trkpt lat="45.44822" lon="4.10525">
        <ele>697.09</ele>
        <time>2022-04-30T13:30:41Z</time>
      </trkpt>
      <trkpt lat="45.4481" lon="4.10517">
        <ele>694.69</ele>
        <time>2022-04-30T13:30:48Z</time>
      </trkpt>
      <trkpt lat="45.44784" lon="4.10538">
        <ele>690.36</ele>
        <time>2022-04-30T13:31:03Z</time>
      </trkpt>
      <trkpt lat="45.44766" lon="4.10553">
        <ele>686.52</ele>
        <time>2022-04-30T13:31:16Z</time>
      </trkpt>
      <trkpt lat="45.44749" lon="4.10565">
        <ele>685.08</ele>
        <time>2022-04-30T13:31:28Z</time>
      </trkpt>
      <trkpt lat="45.44748" lon="4.10566">
        <ele>685.08</ele>
        <time>2022-04-30T13:31:29Z</time>
      </trkpt>
      <trkpt lat="45.4473" lon="4.10592">
        <ele>685.56</ele>
        <time>2022-04-30T13:31:47Z</time>
      </trkpt>
      <trkpt lat="45.44716" lon="4.10624">
        <ele>684.12</ele>
        <time>2022-04-30T13:32:05Z</time>
      </trkpt>
      <trkpt lat="45.44704" lon="4.10672">
        <ele>679.79</ele>
        <time>2022-04-30T13:32:18Z</time>
      </trkpt>
      <trkpt lat="45.44699" lon="4.10684">
        <ele>678.35</ele>
        <time>2022-04-30T13:32:22Z</time>
      </trkpt>
      <trkpt lat="45.44698" lon="4.10687">
        <ele>677.87</ele>
        <time>2022-04-30T13:32:23Z</time>
      </trkpt>
      <trkpt lat="45.44698" lon="4.10691">
        <ele>677.87</ele>
        <time>2022-04-30T13:32:24Z</time>
      </trkpt>
      <trkpt lat="45.44696" lon="4.10693">
        <ele>677.39</ele>
        <time>2022-04-30T13:32:25Z</time>
      </trkpt>
      <trkpt lat="45.44695" lon="4.10696">
        <ele>676.91</ele>
        <time>2022-04-30T13:32:26Z</time>
      </trkpt>
      <trkpt lat="45.44694" lon="4.10697">
        <ele>676.91</ele>
        <time>2022-04-30T13:32:27Z</time>
      </trkpt>
      <trkpt lat="45.44693" lon="4.10699">
        <ele>676.42</ele>
        <time>2022-04-30T13:32:28Z</time>
      </trkpt>
      <trkpt lat="45.44692" lon="4.10699">
        <ele>675.94</ele>
        <time>2022-04-30T13:32:29Z</time>
      </trkpt>
      <trkpt lat="45.44691" lon="4.10701">
        <ele>675.94</ele>
        <time>2022-04-30T13:32:30Z</time>
      </trkpt>
      <trkpt lat="45.4469" lon="4.10701">
        <ele>675.46</ele>
        <time>2022-04-30T13:32:31Z</time>
      </trkpt>
      <trkpt lat="45.44688" lon="4.10702">
        <ele>675.46</ele>
        <time>2022-04-30T13:32:32Z</time>
      </trkpt>
      <trkpt lat="45.44687" lon="4.10703">
        <ele>675.46</ele>
        <time>2022-04-30T13:32:33Z</time>
      </trkpt>
      <trkpt lat="45.44678" lon="4.10718">
        <ele>674.02</ele>
        <time>2022-04-30T13:32:43Z</time>
      </trkpt>
      <trkpt lat="45.44677" lon="4.1072">
        <ele>673.54</ele>
        <time>2022-04-30T13:32:44Z</time>
      </trkpt>
      <trkpt lat="45.44677" lon="4.10723">
        <ele>673.54</ele>
        <time>2022-04-30T13:32:45Z</time>
      </trkpt>
      <trkpt lat="45.44677" lon="4.10725">
        <ele>673.54</ele>
        <time>2022-04-30T13:32:46Z</time>
      </trkpt>
      <trkpt lat="45.44677" lon="4.10727">
        <ele>673.54</ele>
        <time>2022-04-30T13:32:47Z</time>
      </trkpt>
      <trkpt lat="45.44677" lon="4.1073">
        <ele>673.54</ele>
        <time>2022-04-30T13:32:48Z</time>
      </trkpt>
      <trkpt lat="45.44677" lon="4.10733">
        <ele>673.54</ele>
        <time>2022-04-30T13:32:49Z</time>
      </trkpt>
      <trkpt lat="45.44676" lon="4.10736">
        <ele>673.54</ele>
        <time>2022-04-30T13:32:50Z</time>
      </trkpt>
      <trkpt lat="45.44675" lon="4.10743">
        <ele>674.02</ele>
        <time>2022-04-30T13:32:53Z</time>
      </trkpt>
      <trkpt lat="45.44675" lon="4.10745">
        <ele>674.02</ele>
        <time>2022-04-30T13:32:54Z</time>
      </trkpt>
      <trkpt lat="45.44674" lon="4.10748">
        <ele>674.5</ele>
        <time>2022-04-30T13:32:55Z</time>
      </trkpt>
      <trkpt lat="45.44673" lon="4.10751">
        <ele>674.98</ele>
        <time>2022-04-30T13:32:56Z</time>
      </trkpt>
      <trkpt lat="45.44672" lon="4.10753">
        <ele>674.98</ele>
        <time>2022-04-30T13:32:57Z</time>
      </trkpt>
      <trkpt lat="45.44672" lon="4.10756">
        <ele>674.98</ele>
        <time>2022-04-30T13:32:58Z</time>
      </trkpt>
      <trkpt lat="45.4466" lon="4.10784">
        <ele>673.54</ele>
        <time>2022-04-30T13:33:13Z</time>
      </trkpt>
      <trkpt lat="45.44657" lon="4.10796">
        <ele>673.54</ele>
        <time>2022-04-30T13:33:18Z</time>
      </trkpt>
      <trkpt lat="45.4465" lon="4.10833">
        <ele>673.06</ele>
        <time>2022-04-30T13:33:28Z</time>
      </trkpt>
      <trkpt lat="45.44643" lon="4.10867">
        <ele>672.58</ele>
        <time>2022-04-30T13:33:39Z</time>
      </trkpt>
      <trkpt lat="45.44641" lon="4.10872">
        <ele>672.1</ele>
        <time>2022-04-30T13:33:42Z</time>
      </trkpt>
      <trkpt lat="45.44641" lon="4.10875">
        <ele>672.58</ele>
        <time>2022-04-30T13:33:43Z</time>
      </trkpt>
      <trkpt lat="45.44639" lon="4.10887">
        <ele>672.1</ele>
        <time>2022-04-30T13:33:49Z</time>
      </trkpt>
      <trkpt lat="45.44639" lon="4.10889">
        <ele>672.1</ele>
        <time>2022-04-30T13:33:50Z</time>
      </trkpt>
      <trkpt lat="45.44638" lon="4.10891">
        <ele>672.1</ele>
        <time>2022-04-30T13:33:51Z</time>
      </trkpt>
      <trkpt lat="45.44635" lon="4.10901">
        <ele>672.1</ele>
        <time>2022-04-30T13:33:56Z</time>
      </trkpt>
      <trkpt lat="45.44635" lon="4.10903">
        <ele>672.1</ele>
        <time>2022-04-30T13:33:57Z</time>
      </trkpt>
      <trkpt lat="45.44634" lon="4.10906">
        <ele>672.58</ele>
        <time>2022-04-30T13:33:58Z</time>
      </trkpt>
      <trkpt lat="45.44625" lon="4.10931">
        <ele>671.62</ele>
        <time>2022-04-30T13:34:12Z</time>
      </trkpt>
      <trkpt lat="45.44626" lon="4.10964">
        <ele>670.18</ele>
        <time>2022-04-30T13:34:28Z</time>
      </trkpt>
      <trkpt lat="45.44638" lon="4.10997">
        <ele>667.29</ele>
        <time>2022-04-30T13:34:45Z</time>
      </trkpt>
      <trkpt lat="45.44652" lon="4.11035">
        <ele>664.89</ele>
        <time>2022-04-30T13:35:05Z</time>
      </trkpt>
      <trkpt lat="45.44669" lon="4.1107">
        <ele>664.41</ele>
        <time>2022-04-30T13:35:26Z</time>
      </trkpt>
      <trkpt lat="45.44677" lon="4.11085">
        <ele>663.45</ele>
        <time>2022-04-30T13:35:40Z</time>
      </trkpt>
      <trkpt lat="45.44694" lon="4.11121">
        <ele>662.49</ele>
        <time>2022-04-30T13:36:01Z</time>
      </trkpt>
      <trkpt lat="45.44711" lon="4.11156">
        <ele>662.01</ele>
        <time>2022-04-30T13:36:21Z</time>
      </trkpt>
      <trkpt lat="45.44716" lon="4.11168">
        <ele>661.52</ele>
        <time>2022-04-30T13:36:28Z</time>
      </trkpt>
      <trkpt lat="45.44715" lon="4.11169">
        <ele>661.52</ele>
        <time>2022-04-30T13:36:29Z</time>
      </trkpt>
      <trkpt lat="45.44714" lon="4.11171">
        <ele>661.52</ele>
        <time>2022-04-30T13:36:31Z</time>
      </trkpt>
      <trkpt lat="45.44713" lon="4.11172">
        <ele>661.52</ele>
        <time>2022-04-30T13:36:32Z</time>
      </trkpt>
      <trkpt lat="45.44712" lon="4.11173">
        <ele>661.52</ele>
        <time>2022-04-30T13:36:33Z</time>
      </trkpt>
      <trkpt lat="45.44711" lon="4.11173">
        <ele>661.52</ele>
        <time>2022-04-30T13:36:34Z</time>
      </trkpt>
      <trkpt lat="45.44709" lon="4.11175">
        <ele>661.52</ele>
        <time>2022-04-30T13:36:35Z</time>
      </trkpt>
      <trkpt lat="45.44708" lon="4.11176">
        <ele>661.52</ele>
        <time>2022-04-30T13:36:36Z</time>
      </trkpt>
      <trkpt lat="45.44706" lon="4.11178">
        <ele>661.04</ele>
        <time>2022-04-30T13:36:38Z</time>
      </trkpt>
      <trkpt lat="45.44705" lon="4.11179">
        <ele>660.56</ele>
        <time>2022-04-30T13:36:39Z</time>
      </trkpt>
      <trkpt lat="45.44703" lon="4.1118">
        <ele>660.56</ele>
        <time>2022-04-30T13:36:40Z</time>
      </trkpt>
      <trkpt lat="45.44702" lon="4.11182">
        <ele>660.56</ele>
        <time>2022-04-30T13:36:41Z</time>
      </trkpt>
      <trkpt lat="45.447" lon="4.11184">
        <ele>660.56</ele>
        <time>2022-04-30T13:36:42Z</time>
      </trkpt>
      <trkpt lat="45.44699" lon="4.11186">
        <ele>660.56</ele>
        <time>2022-04-30T13:36:43Z</time>
      </trkpt>
      <trkpt lat="45.44697" lon="4.11188">
        <ele>660.56</ele>
        <time>2022-04-30T13:36:44Z</time>
      </trkpt>
      <trkpt lat="45.44695" lon="4.1119">
        <ele>661.04</ele>
        <time>2022-04-30T13:36:45Z</time>
      </trkpt>
      <trkpt lat="45.44692" lon="4.11192">
        <ele>661.04</ele>
        <time>2022-04-30T13:36:46Z</time>
      </trkpt>
      <trkpt lat="45.44662" lon="4.11221">
        <ele>662.97</ele>
        <time>2022-04-30T13:36:58Z</time>
      </trkpt>
      <trkpt lat="45.44639" lon="4.11242">
        <ele>664.41</ele>
        <time>2022-04-30T13:37:18Z</time>
      </trkpt>
      <trkpt lat="45.44614" lon="4.11266">
        <ele>666.33</ele>
        <time>2022-04-30T13:37:40Z</time>
      </trkpt>
      <trkpt lat="45.44597" lon="4.11278">
        <ele>667.29</ele>
        <time>2022-04-30T13:37:59Z</time>
      </trkpt>
      <trkpt lat="45.44574" lon="4.11287">
        <ele>669.22</ele>
        <time>2022-04-30T13:38:09Z</time>
      </trkpt>
      <trkpt lat="45.4455" lon="4.11298">
        <ele>671.14</ele>
        <time>2022-04-30T13:38:21Z</time>
      </trkpt>
      <trkpt lat="45.44528" lon="4.11313">
        <ele>672.1</ele>
        <time>2022-04-30T13:38:35Z</time>
      </trkpt>
      <trkpt lat="45.44507" lon="4.11332">
        <ele>669.22</ele>
        <time>2022-04-30T13:38:53Z</time>
      </trkpt>
      <trkpt lat="45.44495" lon="4.11345">
        <ele>668.25</ele>
        <time>2022-04-30T13:39:05Z</time>
      </trkpt>
      <trkpt lat="45.44493" lon="4.11348">
        <ele>668.73</ele>
        <time>2022-04-30T13:39:07Z</time>
      </trkpt>
      <trkpt lat="45.44492" lon="4.11348">
        <ele>668.73</ele>
        <time>2022-04-30T13:39:08Z</time>
      </trkpt>
      <trkpt lat="45.44482" lon="4.11356">
        <ele>668.25</ele>
        <time>2022-04-30T13:39:23Z</time>
      </trkpt>
      <trkpt lat="45.44481" lon="4.11356">
        <ele>668.25</ele>
        <time>2022-04-30T13:39:32Z</time>
      </trkpt>
      <trkpt lat="45.44479" lon="4.11358">
        <ele>668.25</ele>
        <time>2022-04-30T13:39:34Z</time>
      </trkpt>
      <trkpt lat="45.44478" lon="4.11359">
        <ele>668.25</ele>
        <time>2022-04-30T13:39:35Z</time>
      </trkpt>
      <trkpt lat="45.44472" lon="4.11367">
        <ele>668.73</ele>
        <time>2022-04-30T13:39:51Z</time>
      </trkpt>
      <trkpt lat="45.44472" lon="4.11372">
        <ele>668.25</ele>
        <time>2022-04-30T13:40:20Z</time>
      </trkpt>
      <trkpt lat="45.44471" lon="4.11373">
        <ele>672.58</ele>
        <time>2022-04-30T13:40:55Z</time>
      </trkpt>
      <trkpt lat="45.44473" lon="4.1137">
        <ele>670.66</ele>
        <time>2022-04-30T13:41:14Z</time>
      </trkpt>
    </trkseg>
  </trk>
</gpx>